Darstellungsparameter: Aktuell verwendete Einstellungen:
Skalierung der Graphiken ... ?
xyx+y,   Skalierungsfaktor:      Skalierung: Modus: x, Faktor: 1
Darstellungszeitraum ... ?
Vom - - bis: - -   Zeitraum: 25.12.2019 - 24.03.2020
Min/Max/Avg-Anzeige ... ?
Zeige MMA aktuell
Zeige MMA Monat
Zeige MMA alles
Zeige --A aktuell
Zeige --A Monat
Zeige --A alles
Keine MMA-Anzeige
MMA:
Average (ber die Originaldaten)
MMA-Basis: 25.12.2019 - 24.03.2020
Quicknavigation für Darstellung... ?
Tage:      1T, 2T, 3T, 5T -1T -2T -3T -5T +1T +2T +3T +5T
Wochen: 1W, 2W, 3W -1W -2W -3W +1W +2W +3W
Monate: 1M, 3M, 6M -1M -3M -6M +1M +3M +6M
Jahre:    1J, 3J, 5J, 10J -1J -3J -5J -10J +1J +3J +5J +10J
Nutze für die Darstellung ... ?
Originaldaten oder Mittelwerte auf ...
Stundenbasis Tagesbasis Wochenbasis
Monatsbasis Jahresbasis      Datenbasis: Original-Daten
Darstellen als:
Statistik (Auto) Statistik J:M      Darstellung:
Zur Graphik,    zurück zur Übersicht aller Sensoren.
 
Tabellarische Datenbersicht: ?
 
Sensor: Nr:Datum:Temp:Feuchte:
Aussen-T/F 1 25-12-2019 00:02:17 8.4 C 27 %
2 25-12-2019 00:12:17 8.4 C 27 %
3 25-12-2019 00:22:17 8.4 C 28 %
4 25-12-2019 00:32:17 8.3 C 28 %
5 25-12-2019 00:42:18 8.2 C 29 %
6 25-12-2019 00:52:17 8.2 C 29 %
7 25-12-2019 01:02:17 7.8 C 32 %
8 25-12-2019 01:12:17 7.7 C 33 %
9 25-12-2019 01:22:17 7.5 C 35 %
10 25-12-2019 01:32:18 7.3 C 35 %
11 25-12-2019 01:42:18 7.5 C 35 %
12 25-12-2019 01:52:17 7.6 C 33 %
13 25-12-2019 02:02:17 7.7 C 32 %
14 25-12-2019 02:12:17 8 C 31 %
15 25-12-2019 02:22:17 7.9 C 31 %
16 25-12-2019 02:32:18 7.9 C 31 %
17 25-12-2019 02:42:18 7.9 C 31 %
18 25-12-2019 02:52:17 7.9 C 31 %
19 25-12-2019 03:02:17 7.8 C 31 %
20 25-12-2019 03:12:17 7.9 C 32 %
21 25-12-2019 03:22:17 8.1 C 31 %
22 25-12-2019 03:32:17 8.3 C 30 %
23 25-12-2019 03:42:17 8.2 C 30 %
24 25-12-2019 03:52:18 8.2 C 30 %
25 25-12-2019 04:02:17 7.9 C 34 %
Sensor: Nr:Datum:Temp:Feuchte:
Aussen-T/F 26 25-12-2019 04:12:17 8 C 34 %
27 25-12-2019 04:22:18 7.9 C 35 %
28 25-12-2019 04:32:17 7.9 C 36 %
29 25-12-2019 04:42:17 7.9 C 38 %
30 25-12-2019 04:52:17 7.9 C 36 %
31 25-12-2019 05:02:17 7.9 C 37 %
32 25-12-2019 05:12:17 7.8 C 37 %
33 25-12-2019 05:22:18 7.6 C 38 %
34 25-12-2019 05:32:17 8 C 36 %
35 25-12-2019 05:42:17 7.9 C 35 %
36 25-12-2019 05:52:17 7.5 C 35 %
37 25-12-2019 06:02:18 7.5 C 35 %
38 25-12-2019 06:12:18 7.2 C 36 %
39 25-12-2019 06:22:17 7.2 C 37 %
40 25-12-2019 06:32:18 7.3 C 37 %
41 25-12-2019 06:42:18 7.3 C 36 %
42 25-12-2019 06:52:17 7.1 C 39 %
43 25-12-2019 07:02:18 7.3 C 33 %
44 25-12-2019 07:12:18 7.1 C 32 %
45 25-12-2019 07:22:17 6.9 C 35 %
46 25-12-2019 07:32:18 6.8 C 38 %
47 25-12-2019 07:42:18 6.9 C 38 %
48 25-12-2019 07:52:17 7 C 35 %
49 25-12-2019 08:02:18 6.8 C 32 %
50 25-12-2019 08:12:18 6.4 C 32 %
Sensor: Nr:Datum:Temp:Feuchte:
Aussen-T/F 51 25-12-2019 08:22:17 6.2 C 33 %
52 25-12-2019 08:32:17 6.2 C 32 %
53 25-12-2019 08:42:17 6.5 C 32 %
54 25-12-2019 08:52:17 6.7 C 31 %
55 25-12-2019 09:02:17 6.9 C 30 %
56 25-12-2019 09:12:17 6.9 C 30 %
57 25-12-2019 09:22:18 6.8 C 30 %
58 25-12-2019 09:32:17 7.3 C 28 %
59 25-12-2019 09:42:17 7.3 C 27 %
60 25-12-2019 09:52:17 7.3 C 27 %
61 25-12-2019 10:02:17 7.1 C 29 %
62 25-12-2019 10:12:17 7.3 C 27 %
63 25-12-2019 10:22:18 7.6 C 26 %
64 25-12-2019 10:32:17 7.7 C 26 %
65 25-12-2019 10:42:17 7.8 C 25 %
66 25-12-2019 10:52:17 7.5 C 26 %
67 25-12-2019 11:02:17 7.5 C 26 %
68 25-12-2019 11:12:17 7.5 C 26 %
69 25-12-2019 11:22:17 7.7 C 26 %
70 25-12-2019 11:32:17 7.4 C 26 %
71 25-12-2019 11:42:17 7.4 C 27 %
72 25-12-2019 11:52:18 7.1 C 28 %
73 25-12-2019 12:02:17 7.1 C 29 %
74 25-12-2019 12:12:17 7.6 C 27 %
75 25-12-2019 12:22:17 7.6 C 27 %
Sensor: Nr:Datum:Temp:Feuchte:
Aussen-T/F 76 25-12-2019 12:32:17 7.7 C 27 %
77 25-12-2019 12:42:17 7.8 C 27 %
78 25-12-2019 12:52:18 7.6 C 27 %
79 25-12-2019 13:02:17 7.1 C 29 %
80 25-12-2019 13:12:17 7 C 31 %
81 25-12-2019 13:22:18 6.9 C 31 %
82 25-12-2019 13:32:17 7.1 C 30 %
83 25-12-2019 13:42:17 7 C 30 %
84 25-12-2019 13:52:17 6.9 C 30 %
85 25-12-2019 14:02:17 7.1 C 30 %
86 25-12-2019 14:12:17 7.4 C 29 %
87 25-12-2019 14:22:18 7.6 C 28 %
88 25-12-2019 14:32:17 7.7 C 29 %
89 25-12-2019 14:42:17 7.6 C 29 %
90 25-12-2019 14:52:17 7.1 C 31 %
91 25-12-2019 15:02:17 7.1 C 32 %
92 25-12-2019 15:12:17 7.1 C 30 %
93 25-12-2019 15:22:18 7.1 C 31 %
94 25-12-2019 15:32:17 7.4 C 30 %
95 25-12-2019 15:42:17 7.3 C 31 %
96 25-12-2019 15:52:17 7.2 C 30 %
97 25-12-2019 16:02:17 7.2 C 30 %
98 25-12-2019 16:12:17 6.9 C 31 %
99 25-12-2019 16:22:17 6.8 C 32 %
100 25-12-2019 16:32:17 6.7 C 35 %
Sensor: Nr:Datum:Temp:Feuchte:
Aussen-T/F 101 25-12-2019 16:42:17 6.9 C 32 %
102 25-12-2019 16:52:17 6.9 C 31 %
103 25-12-2019 17:02:17 6.8 C 30 %
104 25-12-2019 17:12:17 6.7 C 30 %
105 25-12-2019 17:22:18 6.6 C 31 %
106 25-12-2019 17:32:17 6.2 C 31 %
107 25-12-2019 17:42:17 5.7 C 35 %
108 25-12-2019 17:52:18 5.9 C 35 %
109 25-12-2019 18:02:17 6 C 33 %
110 25-12-2019 18:12:17 6.1 C 32 %
111 25-12-2019 18:22:17 6.2 C 33 %
112 25-12-2019 18:32:17 6.2 C 33 %
113 25-12-2019 18:42:17 6.2 C 32 %
114 25-12-2019 18:52:17 6.2 C 32 %
115 25-12-2019 19:02:17 6 C 33 %
116 25-12-2019 19:12:17 5.9 C 33 %
117 25-12-2019 19:22:17 6.1 C 32 %
118 25-12-2019 19:32:18 6.1 C 32 %
119 25-12-2019 19:42:18 6 C 33 %
120 25-12-2019 19:52:17 5.9 C 33 %
121 25-12-2019 20:02:17 5.8 C 35 %
122 25-12-2019 20:12:17 5.9 C 35 %
123 25-12-2019 20:22:18 5.9 C 34 %
124 25-12-2019 20:32:17 5.8 C 34 %
125 25-12-2019 20:42:17 5.6 C 37 %
Sensor: Nr:Datum:Temp:Feuchte:
Aussen-T/F 126 25-12-2019 20:52:17 5.5 C 38 %
127 25-12-2019 21:02:18 5.5 C 38 %
128 25-12-2019 21:12:18 5.4 C 40 %
129 25-12-2019 21:22:17 5.3 C 41 %
130 25-12-2019 21:32:17 5.3 C 43 %
131 25-12-2019 21:42:17 5.3 C 42 %
132 25-12-2019 21:52:17 5.2 C 42 %
133 25-12-2019 22:02:18 5.2 C 42 %
134 25-12-2019 22:12:18 5.1 C 43 %
135 25-12-2019 22:22:17 5.2 C 42 %
136 25-12-2019 22:32:18 5.1 C 41 %
137 25-12-2019 22:42:18 5.1 C 42 %
138 25-12-2019 22:52:17 5.2 C 42 %
139 25-12-2019 23:02:18 5.2 C 42 %
140 25-12-2019 23:12:18 5.2 C 42 %
141 25-12-2019 23:22:17 5.2 C 42 %
142 25-12-2019 23:32:17 5.1 C 42 %
143 25-12-2019 23:42:17 4.7 C 42 %
144 25-12-2019 23:52:17 4.5 C 42 %
145 26-12-2019 00:02:17 4.6 C 43 %
146 26-12-2019 00:12:18 4 C 42 %
147 26-12-2019 00:22:17 3.6 C 42 %
148 26-12-2019 00:32:18 3.9 C 44 %
149 26-12-2019 00:42:18 3.9 C 44 %
150 26-12-2019 00:52:17 4.1 C 43 %
Sensor: Nr:Datum:Temp:Feuchte:
Aussen-T/F 151 26-12-2019 01:02:18 4.4 C 43 %
152 26-12-2019 01:12:18 4.3 C 43 %
153 26-12-2019 01:22:17 4.3 C 43 %
154 26-12-2019 01:32:17 4.4 C 43 %
155 26-12-2019 01:42:17 4.4 C 43 %
156 26-12-2019 01:52:17 4.3 C 42 %
157 26-12-2019 02:02:18 4.3 C 42 %
158 26-12-2019 02:12:18 4.4 C 42 %
159 26-12-2019 02:22:17 4.2 C 42 %
160 26-12-2019 02:32:17 4 C 42 %
161 26-12-2019 02:42:17 4 C 42 %
162 26-12-2019 02:52:17 4.2 C 42 %
163 26-12-2019 03:02:18 4.2 C 42 %
164 26-12-2019 03:12:18 4.1 C 42 %
165 26-12-2019 03:22:17 4.1 C 42 %
166 26-12-2019 03:32:17 4.1 C 42 %
167 26-12-2019 03:42:17 4.1 C 42 %
168 26-12-2019 03:52:17 3.9 C 43 %
169 26-12-2019 04:02:17 3.6 C 42 %
170 26-12-2019 04:12:17 3.6 C 42 %
171 26-12-2019 04:22:18 3.4 C 42 %
172 26-12-2019 04:32:17 3 C 42 %
173 26-12-2019 04:42:17 3.1 C 42 %
174 26-12-2019 04:52:17 3.1 C 43 %
175 26-12-2019 05:02:17 3.3 C 43 %
Sensor: Nr:Datum:Temp:Feuchte:
Aussen-T/F 176 26-12-2019 05:12:17 3.5 C 43 %
177 26-12-2019 05:22:17 3.4 C 43 %
178 26-12-2019 05:32:18 3.5 C 43 %
179 26-12-2019 05:42:18 3.4 C 43 %
180 26-12-2019 05:52:17 3.5 C 43 %
181 26-12-2019 06:02:17 3.6 C 43 %
182 26-12-2019 06:12:18 3.6 C 43 %
183 26-12-2019 06:22:17 3.5 C 43 %
184 26-12-2019 06:32:18 3.6 C 43 %
185 26-12-2019 06:42:18 3.5 C 43 %
186 26-12-2019 06:52:17 3.5 C 43 %
187 26-12-2019 07:02:18 3.5 C 43 %
188 26-12-2019 07:12:18 3.5 C 43 %
189 26-12-2019 07:22:17 3.4 C 43 %
190 26-12-2019 07:32:17 3.4 C 43 %
191 26-12-2019 07:42:17 3.4 C 43 %
192 26-12-2019 07:52:17 3.4 C 43 %
193 26-12-2019 08:02:18 3.4 C 43 %
194 26-12-2019 08:12:18 3.4 C 43 %
195 26-12-2019 08:22:17 3.5 C 43 %
196 26-12-2019 08:32:17 3.4 C 43 %
197 26-12-2019 08:42:17 3.4 C 43 %
198 26-12-2019 08:52:17 3.5 C 43 %
199 26-12-2019 09:02:17 3.5 C 43 %
200 26-12-2019 09:12:17 3.5 C 43 %
Sensor: Nr:Datum:Temp:Feuchte:
Aussen-T/F 201 26-12-2019 09:22:17 3.4 C 42 %
202 26-12-2019 09:32:17 3.5 C 43 %
203 26-12-2019 09:42:17 3.6 C 42 %
204 26-12-2019 09:52:18 3.6 C 42 %
205 26-12-2019 10:02:17 3.6 C 42 %
206 26-12-2019 10:12:17 3.6 C 42 %
207 26-12-2019 10:22:18 3.8 C 42 %
208 26-12-2019 10:32:17 4 C 41 %
209 26-12-2019 10:42:17 4.3 C 41 %
210 26-12-2019 10:52:18 4.5 C 41 %
211 26-12-2019 11:02:17 4.7 C 41 %
212 26-12-2019 11:12:17 4.8 C 41 %
213 26-12-2019 11:22:17 5 C 40 %
214 26-12-2019 11:32:17 5.4 C 40 %
215 26-12-2019 11:42:17 5.5 C 39 %
216 26-12-2019 11:52:17 5.6 C 37 %
217 26-12-2019 12:02:17 5.7 C 36 %
218 26-12-2019 12:12:17 5.7 C 36 %
219 26-12-2019 12:22:17 5.7 C 35 %
220 26-12-2019 12:32:18 5.9 C 35 %
221 26-12-2019 12:42:18 6 C 35 %
222 26-12-2019 12:52:17 6 C 36 %
223 26-12-2019 13:02:18 5.9 C 36 %
224 26-12-2019 13:12:18 5.9 C 37 %
225 26-12-2019 13:22:17 5.8 C 36 %
Sensor: Nr:Datum:Temp:Feuchte:
Aussen-T/F 226 26-12-2019 13:32:18 5.8 C 36 %
227 26-12-2019 13:42:18 5.7 C 36 %
228 26-12-2019 13:52:17 5.7 C 36 %
229 26-12-2019 14:02:18 5.7 C 36 %
230 26-12-2019 14:12:18 5.8 C 35 %
231 26-12-2019 14:22:17 6 C 35 %
232 26-12-2019 14:32:17 6 C 35 %
233 26-12-2019 14:42:17 5.7 C 35 %
234 26-12-2019 14:52:17 5.6 C 36 %
235 26-12-2019 15:02:17 5.5 C 36 %
236 26-12-2019 15:12:17 5.4 C 36 %
237 26-12-2019 15:22:17 5.1 C 38 %
238 26-12-2019 15:32:17 5 C 37 %
239 26-12-2019 15:42:17 4.8 C 39 %
240 26-12-2019 15:52:18 4.8 C 39 %
241 26-12-2019 16:02:17 4.7 C 38 %
242 26-12-2019 16:12:17 4.6 C 39 %
243 26-12-2019 16:22:17 4.5 C 40 %
244 26-12-2019 16:32:17 4.4 C 41 %
245 26-12-2019 16:42:18 4.4 C 40 %
246 26-12-2019 16:53:17 4.3 C 41 %
247 26-12-2019 17:02:17 4.4 C 40 %
248 26-12-2019 17:12:17 4.3 C 40 %
249 26-12-2019 17:22:17 4.3 C 40 %
250 26-12-2019 17:32:17 4.4 C 40 %
Sensor: Nr:Datum:Temp:Feuchte:
Aussen-T/F 251 26-12-2019 17:42:17 4.1 C 40 %
252 26-12-2019 17:52:17 4.1 C 40 %
253 26-12-2019 18:02:17 4 C 40 %
254 26-12-2019 18:12:17 4 C 41 %
255 26-12-2019 18:22:17 4.1 C 41 %
256 26-12-2019 18:32:17 4.1 C 41 %
257 26-12-2019 18:42:18 4.1 C 40 %
258 26-12-2019 18:53:17 4.1 C 40 %
259 26-12-2019 19:02:17 4 C 40 %
260 26-12-2019 19:12:17 4 C 41 %
261 26-12-2019 19:23:17 4 C 41 %
262 26-12-2019 19:32:17 3.8 C 41 %
263 26-12-2019 19:42:17 4 C 41 %
264 26-12-2019 19:53:17 3.8 C 41 %
265 26-12-2019 20:02:17 3.8 C 42 %
266 26-12-2019 20:12:17 3.9 C 42 %
267 26-12-2019 20:23:17 4 C 41 %
268 26-12-2019 20:32:17 4.1 C 40 %
269 26-12-2019 20:42:17 4.2 C 39 %
270 26-12-2019 20:53:17 4.1 C 38 %
271 26-12-2019 21:02:17 4.3 C 37 %
272 26-12-2019 21:12:17 4.2 C 38 %
273 26-12-2019 21:23:17 4.1 C 38 %
274 26-12-2019 21:32:18 4.1 C 38 %
275 26-12-2019 21:42:18 4.2 C 37 %
Sensor: Nr:Datum:Temp:Feuchte:
Aussen-T/F 276 26-12-2019 21:52:17 4.3 C 37 %
277 26-12-2019 22:02:18 4.1 C 39 %
278 26-12-2019 22:12:18 4.1 C 41 %
279 26-12-2019 22:22:17 4.1 C 41 %
280 26-12-2019 22:33:17 4.1 C 41 %
281 26-12-2019 22:43:17 4.1 C 42 %
282 26-12-2019 22:52:17 4.1 C 42 %
283 26-12-2019 23:03:17 4.1 C 43 %
284 26-12-2019 23:13:17 4.1 C 43 %
285 26-12-2019 23:23:17 4 C 43 %
286 26-12-2019 23:32:17 4 C 43 %
287 26-12-2019 23:42:17 4 C 42 %
288 26-12-2019 23:53:17 4 C 42 %
289 27-12-2019 00:02:17 4 C 42 %
290 27-12-2019 00:12:17 4 C 42 %
291 27-12-2019 00:23:17 4 C 42 %
292 27-12-2019 00:32:17 4 C 42 %
293 27-12-2019 00:42:18 4.1 C 42 %
294 27-12-2019 00:53:17 4.1 C 42 %
295 27-12-2019 01:03:18 4.1 C 42 %
296 27-12-2019 01:13:18 4.1 C 42 %
297 27-12-2019 01:23:17 4.1 C 42 %
298 27-12-2019 01:33:17 4.1 C 42 %
299 27-12-2019 01:43:17 4.1 C 42 %
300 27-12-2019 01:53:18 4.1 C 42 %
Sensor: Nr:Datum:Temp:Feuchte:
Aussen-T/F 301 27-12-2019 02:03:17 4.1 C 42 %
302 27-12-2019 02:13:17 4.1 C 42 %
303 27-12-2019 02:23:17 4.1 C 42 %
304 27-12-2019 02:33:18 4.1 C 42 %
305 27-12-2019 02:43:19 4.1 C 42 %
306 27-12-2019 02:53:17 4.2 C 42 %
307 27-12-2019 03:03:17 4.3 C 42 %
308 27-12-2019 03:13:17 4.2 C 42 %
309 27-12-2019 03:23:17 4.3 C 42 %
310 27-12-2019 03:33:17 4.3 C 42 %
311 27-12-2019 03:43:18 4.3 C 42 %
312 27-12-2019 03:53:17 4.3 C 42 %
313 27-12-2019 04:03:17 4.3 C 42 %
314 27-12-2019 04:13:17 4.3 C 42 %
315 27-12-2019 04:23:17 4.3 C 42 %
316 27-12-2019 04:33:17 4.3 C 42 %
317 27-12-2019 04:43:17 4.3 C 42 %
318 27-12-2019 04:53:18 4.4 C 42 %
319 27-12-2019 05:03:17 4.4 C 42 %
320 27-12-2019 05:13:17 4.4 C 42 %
321 27-12-2019 05:23:17 4.4 C 42 %
322 27-12-2019 05:33:17 4.3 C 42 %
323 27-12-2019 05:43:17 4.4 C 42 %
324 27-12-2019 05:53:17 4.4 C 42 %
325 27-12-2019 06:03:17 4.4 C 42 %
Sensor: Nr:Datum:Temp:Feuchte:
Aussen-T/F 326 27-12-2019 06:13:17 4.4 C 42 %
327 27-12-2019 06:23:17 4.4 C 42 %
328 27-12-2019 06:33:17 4.4 C 42 %
329 27-12-2019 06:43:17 4.4 C 42 %
330 27-12-2019 06:53:17 4.4 C 42 %
331 27-12-2019 07:03:17 4.5 C 42 %
332 27-12-2019 07:13:17 4.4 C 42 %
333 27-12-2019 07:23:18 4.4 C 42 %
334 27-12-2019 07:33:17 4.4 C 42 %
335 27-12-2019 07:43:17 4.4 C 42 %
336 27-12-2019 07:53:17 4.3 C 42 %
337 27-12-2019 08:03:17 4.3 C 42 %
338 27-12-2019 08:13:17 4.3 C 42 %
339 27-12-2019 08:23:17 4.3 C 42 %
340 27-12-2019 08:33:17 4.3 C 42 %
341 27-12-2019 08:43:17 4.3 C 42 %
342 27-12-2019 08:53:18 4.3 C 42 %
343 27-12-2019 09:03:17 4.4 C 42 %
344 27-12-2019 09:13:17 4.4 C 42 %
345 27-12-2019 09:23:17 4.3 C 42 %
346 27-12-2019 09:33:17 4.5 C 42 %
347 27-12-2019 09:43:17 4.6 C 42 %
348 27-12-2019 09:53:17 4.8 C 41 %
349 27-12-2019 10:03:17 4.9 C 41 %
350 27-12-2019 10:13:17 4.8 C 40 %
Sensor: Nr:Datum:Temp:Feuchte:
Aussen-T/F 351 27-12-2019 10:23:17 4.8 C 40 %
352 27-12-2019 10:33:18 4.9 C 40 %
353 27-12-2019 10:43:18 4.9 C 40 %
354 27-12-2019 10:53:17 5 C 38 %
355 27-12-2019 11:03:18 5 C 38 %
356 27-12-2019 11:13:18 5.1 C 37 %
357 27-12-2019 11:23:17 5.1 C 37 %
358 27-12-2019 11:33:17 5.2 C 36 %
359 27-12-2019 11:43:17 5.7 C 33 %
360 27-12-2019 11:53:17 6 C 31 %
361 27-12-2019 12:03:17 6.1 C 31 %
362 27-12-2019 12:13:17 5.9 C 31 %
363 27-12-2019 12:23:17 5.9 C 31 %
364 27-12-2019 12:33:17 6 C 31 %
365 27-12-2019 12:43:17 6 C 31 %
366 27-12-2019 12:53:17 5.9 C 31 %
367 27-12-2019 13:03:17 5.7 C 31 %
368 27-12-2019 13:13:17 5.7 C 31 %
369 27-12-2019 13:23:17 5.6 C 31 %
370 27-12-2019 13:33:17 5.7 C 31 %
371 27-12-2019 13:43:17 5.7 C 30 %
372 27-12-2019 13:53:17 5.8 C 30 %
373 27-12-2019 14:03:18 5.9 C 30 %
374 27-12-2019 14:13:18 6.1 C 29 %
375 27-12-2019 14:23:18 5.9 C 29 %
Sensor: Nr:Datum:Temp:Feuchte:
Aussen-T/F 376 27-12-2019 14:33:17 6 C 30 %
377 27-12-2019 14:43:17 5.9 C 28 %
378 27-12-2019 14:53:18 5.8 C 26 %
379 27-12-2019 15:03:17 5.7 C 27 %
380 27-12-2019 15:13:17 5.7 C 28 %
381 27-12-2019 15:23:18 5.6 C 29 %
382 27-12-2019 15:33:17 5.6 C 29 %
383 27-12-2019 15:43:17 5.4 C 30 %
384 27-12-2019 15:53:17 5.3 C 31 %
385 27-12-2019 16:03:17 5.1 C 33 %
386 27-12-2019 16:13:17 4.9 C 33 %
387 27-12-2019 16:23:17 4.9 C 33 %
388 27-12-2019 16:33:17 4.8 C 34 %
389 27-12-2019 16:43:17 4.7 C 33 %
390 27-12-2019 16:53:17 4.6 C 34 %
391 27-12-2019 17:03:17 4.5 C 34 %
392 27-12-2019 17:13:17 4.5 C 35 %
393 27-12-2019 17:23:17 4.5 C 33 %
394 27-12-2019 17:33:18 4.5 C 34 %
395 27-12-2019 17:43:18 4.5 C 34 %
396 27-12-2019 17:53:17 4.4 C 34 %
397 27-12-2019 18:03:18 4.4 C 33 %
398 27-12-2019 18:13:18 4.4 C 33 %
399 27-12-2019 18:23:17 4.4 C 32 %
400 27-12-2019 18:33:18 4.4 C 34 %
Sensor: Nr:Datum:Temp:Feuchte:
Aussen-T/F 401 27-12-2019 18:43:18 4.3 C 34 %
402 27-12-2019 18:53:17 4.2 C 33 %
403 27-12-2019 19:03:17 4.2 C 33 %
404 27-12-2019 19:13:17 4.2 C 33 %
405 27-12-2019 19:23:17 4.3 C 32 %
406 27-12-2019 19:33:17 4.2 C 33 %
407 27-12-2019 19:43:17 4.1 C 34 %
408 27-12-2019 19:53:18 3.9 C 35 %
409 27-12-2019 20:03:17 3.8 C 34 %
410 27-12-2019 20:13:17 4 C 32 %
411 27-12-2019 20:23:17 4 C 32 %
412 27-12-2019 20:33:18 4 C 32 %
413 27-12-2019 20:43:18 4 C 31 %
414 27-12-2019 20:53:17 4.1 C 31 %
415 27-12-2019 21:03:18 4.1 C 31 %
416 27-12-2019 21:13:18 4 C 31 %
417 27-12-2019 21:23:17 4 C 31 %
418 27-12-2019 21:33:18 3.9 C 33 %
419 27-12-2019 21:43:18 3.9 C 32 %
420 27-12-2019 21:53:17 3.7 C 32 %
421 27-12-2019 22:03:17 3.6 C 32 %
422 27-12-2019 22:13:17 3.3 C 32 %
423 27-12-2019 22:23:17 3.2 C 32 %
424 27-12-2019 22:33:17 2.7 C 33 %
425 27-12-2019 22:43:17 2.2 C 34 %
Sensor: Nr:Datum:Temp:Feuchte:
Aussen-T/F 426 27-12-2019 22:53:17 2 C 35 %
427 27-12-2019 23:03:18 1.7 C 38 %
428 27-12-2019 23:13:18 1.3 C 39 %
429 27-12-2019 23:23:17 1.2 C 41 %
430 27-12-2019 23:33:17 0.9 C 42 %
431 27-12-2019 23:43:17 0.8 C 41 %
432 27-12-2019 23:53:17 0.7 C 41 %
433 28-12-2019 00:03:17 0.5 C 40 %
434 28-12-2019 00:13:17 0.4 C 41 %
435 28-12-2019 00:23:18 0.4 C 41 %
436 28-12-2019 00:33:17 0.3 C 41 %
437 28-12-2019 00:43:17 0.3 C 41 %
438 28-12-2019 00:53:17 0.2 C 40 %
439 28-12-2019 01:03:17 0.1 C 40 %
440 28-12-2019 01:13:17 -0.2 C 43 %
441 28-12-2019 01:23:17 -0.5 C 43 %
442 28-12-2019 01:33:17 -0.3 C 44 %
443 28-12-2019 01:43:17 -0.7 C 42 %
444 28-12-2019 01:53:17 -1.1 C 43 %
445 28-12-2019 02:03:17 -1.3 C 45 %
446 28-12-2019 02:13:17 -1.5 C 44 %
447 28-12-2019 02:23:17 -1.7 C 44 %
448 28-12-2019 02:33:18 -1.5 C 45 %
449 28-12-2019 02:43:18 -1.5 C 45 %
450 28-12-2019 02:53:17 -1.6 C 45 %
Sensor: Nr:Datum:Temp:Feuchte:
Aussen-T/F 451 28-12-2019 03:03:17 -1.9 C 45 %
452 28-12-2019 03:13:18 -1.7 C 45 %
453 28-12-2019 03:23:17 -2.1 C 45 %
454 28-12-2019 03:33:17 -2.1 C 45 %
455 28-12-2019 03:43:17 -2.1 C 45 %
456 28-12-2019 03:53:18 -2.4 C 45 %
457 28-12-2019 04:03:17 -2.4 C 45 %
458 28-12-2019 04:13:17 -2.4 C 45 %
459 28-12-2019 04:23:17 -2.3 C 45 %
460 28-12-2019 04:33:17 -2.4 C 45 %
461 28-12-2019 04:43:18 -2.3 C 45 %
462 28-12-2019 04:53:17 -2.4 C 45 %
463 28-12-2019 05:03:18 -2.6 C 44 %
464 28-12-2019 05:13:18 -2.7 C 44 %
465 28-12-2019 05:23:17 -2.5 C 45 %
466 28-12-2019 05:33:18 -2.5 C 45 %
467 28-12-2019 05:43:18 -2.1 C 45 %
468 28-12-2019 05:53:17 -2.3 C 45 %
469 28-12-2019 06:03:17 -1.8 C 45 %
470 28-12-2019 06:13:18 -2.1 C 44 %
471 28-12-2019 06:23:17 -2.2 C 43 %
472 28-12-2019 06:33:17 -2 C 44 %
473 28-12-2019 06:43:18 -1.9 C 44 %
474 28-12-2019 06:53:17 -2.1 C 43 %
475 28-12-2019 07:03:18 -2 C 43 %
Sensor: Nr:Datum:Temp:Feuchte:
Aussen-T/F 476 28-12-2019 07:13:18 -2.3 C 43 %
477 28-12-2019 07:23:17 -2.8 C 42 %
478 28-12-2019 07:33:17 -2.3 C 43 %
479 28-12-2019 07:43:17 -2.4 C 43 %
480 28-12-2019 07:53:17 -2.2 C 44 %
481 28-12-2019 08:03:17 -2.6 C 43 %
482 28-12-2019 08:13:17 -3 C 42 %
483 28-12-2019 08:23:18 -3.1 C 42 %
484 28-12-2019 08:33:17 -3.2 C 42 %
485 28-12-2019 08:43:17 -3.2 C 42 %
486 28-12-2019 08:53:17 -2.9 C 43 %
487 28-12-2019 09:03:18 -2.9 C 43 %
488 28-12-2019 09:13:18 -2.8 C 43 %
489 28-12-2019 09:23:17 -2.7 C 43 %
490 28-12-2019 09:33:17 -2.5 C 43 %
491 28-12-2019 09:43:17 -1.9 C 45 %
492 28-12-2019 09:53:17 -1.7 C 45 %
493 28-12-2019 10:03:17 -1.6 C 45 %
494 28-12-2019 10:13:17 -1.4 C 45 %
495 28-12-2019 10:23:17 -1.5 C 45 %
496 28-12-2019 10:33:18 -1.3 C 45 %
497 28-12-2019 10:43:18 -1.3 C 45 %
498 28-12-2019 10:53:17 -1.1 C 45 %
499 28-12-2019 11:03:18 -1 C 44 %
500 28-12-2019 11:13:18 -0.9 C 44 %
Sensor: Nr:Datum:Temp:Feuchte:
Aussen-T/F 501 28-12-2019 11:23:17 -0.6 C 44 %
502 28-12-2019 11:33:17 -0.5 C 43 %
503 28-12-2019 11:43:18 -0.3 C 42 %
504 28-12-2019 11:53:17 -0.2 C 42 %
505 28-12-2019 12:03:17 -0.2 C 41 %
506 28-12-2019 12:13:17 0 C 41 %
507 28-12-2019 12:23:17 0.2 C 41 %
508 28-12-2019 12:33:17 0.3 C 41 %
509 28-12-2019 12:43:18 0.4 C 40 %
510 28-12-2019 12:53:17 0.5 C 40 %
511 28-12-2019 13:03:18 0.7 C 40 %
512 28-12-2019 13:13:18 0.8 C 40 %
513 28-12-2019 13:23:17 0.8 C 40 %
514 28-12-2019 13:33:17 0.9 C 40 %
515 28-12-2019 13:43:17 0.8 C 40 %
516 28-12-2019 13:53:17 0.6 C 40 %
517 28-12-2019 14:03:17 0.6 C 41 %
518 28-12-2019 14:13:17 0.7 C 41 %
519 28-12-2019 14:23:17 0.8 C 40 %
520 28-12-2019 14:33:17 0.7 C 40 %
521 28-12-2019 14:43:17 0.6 C 40 %
522 28-12-2019 14:53:17 0.5 C 40 %
523 28-12-2019 15:03:17 0.5 C 40 %
524 28-12-2019 15:13:18 0.5 C 40 %
525 28-12-2019 15:23:17 0.2 C 40 %
Sensor: Nr:Datum:Temp:Feuchte:
Aussen-T/F 526 28-12-2019 15:33:17 0.4 C 40 %
527 28-12-2019 15:43:17 0.3 C 39 %
528 28-12-2019 15:53:18 0.4 C 39 %
529 28-12-2019 16:03:17 0.3 C 38 %
530 28-12-2019 16:13:17 0.2 C 38 %
531 28-12-2019 16:23:17 0 C 39 %
532 28-12-2019 16:33:17 0 C 39 %
533 28-12-2019 16:43:17 -0.1 C 38 %
534 28-12-2019 16:53:17 -0.3 C 39 %
535 28-12-2019 17:03:17 -0.4 C 39 %
536 28-12-2019 17:13:17 -0.4 C 40 %
537 28-12-2019 17:23:17 -0.5 C 40 %
538 28-12-2019 17:33:18 -0.6 C 40 %
539 28-12-2019 17:43:18 -0.7 C 41 %
540 28-12-2019 17:53:17 -1.3 C 41 %
541 28-12-2019 18:03:17 -1.2 C 44 %
542 28-12-2019 18:13:17 -1.1 C 43 %
543 28-12-2019 18:23:17 -1.1 C 43 %
544 28-12-2019 18:33:17 -0.9 C 43 %
545 28-12-2019 18:43:17 -1.2 C 43 %
546 28-12-2019 18:53:17 -0.9 C 43 %
547 28-12-2019 19:03:17 -1.2 C 42 %
548 28-12-2019 19:13:18 -1.7 C 42 %
549 28-12-2019 19:23:17 -1.9 C 43 %
550 28-12-2019 19:33:18 -1.9 C 44 %
Sensor: Nr:Datum:Temp:Feuchte:
Aussen-T/F 551 28-12-2019 19:43:18 -1.9 C 44 %
552 28-12-2019 19:53:17 -1.8 C 44 %
553 28-12-2019 20:03:17 -1.9 C 44 %
554 28-12-2019 20:13:17 -1.7 C 45 %
555 28-12-2019 20:23:17 -1.2 C 45 %
556 28-12-2019 20:33:18 -1.2 C 43 %
557 28-12-2019 20:43:18 -1.4 C 43 %
558 28-12-2019 20:53:18 -1.2 C 44 %
559 28-12-2019 21:03:17 -1.6 C 43 %
560 28-12-2019 21:13:17 -1.3 C 44 %
561 28-12-2019 21:23:17 -1.4 C 41 %
562 28-12-2019 21:33:17 -1.8 C 41 %
563 28-12-2019 21:43:18 -1.6 C 43 %
564 28-12-2019 21:53:17 -1.7 C 42 %
565 28-12-2019 22:03:18 -1.7 C 42 %
566 28-12-2019 22:13:18 -2.2 C 41 %
567 28-12-2019 22:23:17 -2.3 C 42 %
568 28-12-2019 22:33:17 -2.3 C 42 %
569 28-12-2019 22:43:17 -2.5 C 42 %
570 28-12-2019 22:53:17 -2.2 C 43 %
571 28-12-2019 23:03:17 -2.5 C 42 %
572 28-12-2019 23:13:17 -2.3 C 43 %
573 28-12-2019 23:23:17 -2.3 C 43 %
574 28-12-2019 23:33:17 -2.7 C 42 %
575 28-12-2019 23:43:17 -2.6 C 43 %
Sensor: Nr:Datum:Temp:Feuchte:
Aussen-T/F 576 28-12-2019 23:53:17 -2.9 C 42 %
577 29-12-2019 00:03:18 -2.6 C 43 %
578 29-12-2019 00:13:18 -2.9 C 43 %
579 29-12-2019 00:23:17 -3.1 C 42 %
580 29-12-2019 00:33:17 -3.2 C 43 %
581 29-12-2019 00:43:17 -3.1 C 43 %
582 29-12-2019 00:53:17 -3.1 C 43 %
583 29-12-2019 01:03:17 -3.3 C 42 %
584 29-12-2019 01:13:17 -3.3 C 43 %
585 29-12-2019 01:23:17 -3.5 C 42 %
586 29-12-2019 01:33:17 -3.7 C 42 %
587 29-12-2019 01:43:17 -3 C 44 %
588 29-12-2019 01:53:17 -3.5 C 42 %
589 29-12-2019 02:03:17 -3.7 C 41 %
590 29-12-2019 02:13:17 -3.8 C 42 %
591 29-12-2019 02:23:17 -3.3 C 43 %
592 29-12-2019 02:33:17 -3.7 C 41 %
593 29-12-2019 02:43:17 -3.7 C 42 %
594 29-12-2019 02:53:18 -3.8 C 41 %
595 29-12-2019 03:03:17 -4 C 41 %
596 29-12-2019 03:13:17 -4 C 42 %
597 29-12-2019 03:23:17 -4 C 41 %
598 29-12-2019 03:33:17 -4.1 C 41 %
599 29-12-2019 03:43:17 -4.1 C 41 %
600 29-12-2019 03:53:18 -4 C 42 %
Sensor: Nr:Datum:Temp:Feuchte:
Aussen-T/F 601 29-12-2019 04:03:17 -4.2 C 41 %
602 29-12-2019 04:13:17 -3.9 C 42 %
603 29-12-2019 04:23:17 -4.1 C 41 %
604 29-12-2019 04:33:17 -4.1 C 41 %
605 29-12-2019 04:43:17 -4.4 C 41 %
606 29-12-2019 04:53:17 -4.2 C 41 %
607 29-12-2019 05:03:17 -4.3 C 41 %
608 29-12-2019 05:13:17 -4.5 C 41 %
609 29-12-2019 05:23:17 -4.5 C 41 %
610 29-12-2019 05:33:18 -4.4 C 41 %
611 29-12-2019 05:43:18 -4.5 C 41 %
612 29-12-2019 05:53:17 -4.7 C 41 %
613 29-12-2019 06:03:17 -4.6 C 41 %
614 29-12-2019 06:13:17 -4.7 C 41 %
615 29-12-2019 06:23:17 -4.8 C 41 %
616 29-12-2019 06:33:17 -4.8 C 41 %
617 29-12-2019 06:43:17 -4.8 C 41 %
618 29-12-2019 06:53:17 -4.8 C 41 %
619 29-12-2019 07:03:17 -4.9 C 41 %
620 29-12-2019 07:13:17 -4.9 C 41 %
621 29-12-2019 07:23:17 -5 C 41 %
622 29-12-2019 07:33:17 -4.5 C 42 %
623 29-12-2019 07:43:17 -4.7 C 41 %
624 29-12-2019 07:53:17 -4.7 C 41 %
625 29-12-2019 08:03:17 -4.4 C 42 %
Sensor: Nr:Datum:Temp:Feuchte:
Aussen-T/F 626 29-12-2019 08:13:17 -4.3 C 42 %
627 29-12-2019 08:23:18 -3.9 C 43 %
628 29-12-2019 08:33:17 -4.1 C 41 %
629 29-12-2019 08:43:17 -4.3 C 41 %
630 29-12-2019 08:53:17 -4.5 C 40 %
631 29-12-2019 09:03:17 -4.1 C 42 %
632 29-12-2019 09:13:17 -3.9 C 42 %
633 29-12-2019 09:23:18 -4 C 41 %
634 29-12-2019 09:33:17 -4.1 C 41 %
635 29-12-2019 09:43:17 -4 C 41 %
636 29-12-2019 09:53:17 -4 C 41 %
637 29-12-2019 10:03:18 -4 C 40 %
638 29-12-2019 10:13:18 -3.9 C 41 %
639 29-12-2019 10:23:17 -3.5 C 42 %
640 29-12-2019 10:33:17 -3.3 C 42 %
641 29-12-2019 10:43:17 -3.1 C 42 %
642 29-12-2019 10:53:17 -2.6 C 43 %
643 29-12-2019 11:03:17 -2.1 C 43 %
644 29-12-2019 11:13:17 -1.8 C 42 %
645 29-12-2019 11:23:17 -1.4 C 43 %
646 29-12-2019 11:33:17 -1.3 C 42 %
647 29-12-2019 11:43:18 -0.8 C 43 %
648 29-12-2019 11:53:17 -0.4 C 42 %
649 29-12-2019 12:03:18 -0.5 C 41 %
650 29-12-2019 12:13:18 -0.3 C 41 %
Sensor: Nr:Datum:Temp:Feuchte:
Aussen-T/F 651 29-12-2019 12:23:17 0.1 C 40 %
652 29-12-2019 12:33:17 0.3 C 40 %
653 29-12-2019 12:43:17 0.5 C 40 %
654 29-12-2019 12:53:17 0.4 C 40 %
655 29-12-2019 13:03:17 0.7 C 38 %
656 29-12-2019 13:13:17 1 C 37 %
657 29-12-2019 13:23:17 1 C 37 %
658 29-12-2019 13:33:18 1.4 C 36 %
659 29-12-2019 13:43:18 1.4 C 38 %
660 29-12-2019 13:53:17 1.5 C 37 %
661 29-12-2019 14:03:17 1.5 C 36 %
662 29-12-2019 14:13:17 1.4 C 37 %
663 29-12-2019 14:23:17 1.7 C 36 %
664 29-12-2019 14:33:18 1.9 C 36 %
665 29-12-2019 14:43:18 2.2 C 34 %
666 29-12-2019 14:53:17 2.1 C 33 %
667 29-12-2019 15:03:17 1.9 C 34 %
668 29-12-2019 15:13:18 2 C 31 %
669 29-12-2019 15:23:17 2 C 27 %
670 29-12-2019 15:33:17 1.9 C 30 %
671 29-12-2019 15:43:17 1.5 C 32 %
672 29-12-2019 15:53:18 1.1 C 32 %
673 29-12-2019 16:03:17 0.5 C 35 %
674 29-12-2019 16:13:17 0.2 C 38 %
675 29-12-2019 16:23:17 0.2 C 39 %
Sensor: Nr:Datum:Temp:Feuchte:
Aussen-T/F 676 29-12-2019 16:33:18 -0.3 C 39 %
677 29-12-2019 16:43:18 -0.1 C 40 %
678 29-12-2019 16:53:17 -0.2 C 40 %
679 29-12-2019 17:03:17 -0.2 C 40 %
680 29-12-2019 17:13:17 -0.3 C 39 %
681 29-12-2019 17:23:17 -0.3 C 37 %
682 29-12-2019 17:33:17 -0.3 C 37 %
683 29-12-2019 17:43:17 -0.1 C 36 %
684 29-12-2019 17:53:17 -0.2 C 38 %
685 29-12-2019 18:03:17 -0.1 C 37 %
686 29-12-2019 18:13:17 0.1 C 37 %
687 29-12-2019 18:23:17 0.2 C 36 %
688 29-12-2019 18:33:17 -0.2 C 38 %
689 29-12-2019 18:43:17 -0.5 C 40 %
690 29-12-2019 18:53:17 -0.8 C 40 %
691 29-12-2019 19:03:17 -0.5 C 41 %
692 29-12-2019 19:13:17 -0.7 C 38 %
693 29-12-2019 19:23:18 -0.6 C 37 %
694 29-12-2019 19:33:18 -0.6 C 35 %
695 29-12-2019 19:43:18 -1 C 35 %
696 29-12-2019 19:53:17 -1.1 C 36 %
697 29-12-2019 20:03:18 -0.9 C 34 %
698 29-12-2019 20:13:18 -1.2 C 36 %
699 29-12-2019 20:23:17 -0.7 C 35 %
700 29-12-2019 20:33:17 -1.3 C 37 %
Sensor: Nr:Datum:Temp:Feuchte:
Aussen-T/F 701 29-12-2019 20:43:17 -0.9 C 39 %
702 29-12-2019 20:53:17 -1.5 C 39 %
703 29-12-2019 21:03:17 -1.2 C 38 %
704 29-12-2019 21:13:17 -1.8 C 37 %
705 29-12-2019 21:23:17 -1.8 C 40 %
706 29-12-2019 21:33:18 -1.8 C 41 %
707 29-12-2019 21:43:18 -2.1 C 42 %
708 29-12-2019 21:53:17 -2.3 C 42 %
709 29-12-2019 22:03:17 -2.2 C 43 %
710 29-12-2019 22:13:17 -2.1 C 43 %
711 29-12-2019 22:23:17 -2.4 C 42 %
712 29-12-2019 22:33:17 -2.7 C 42 %
713 29-12-2019 22:43:18 -2.7 C 43 %
714 29-12-2019 22:53:17 -2.7 C 43 %
715 29-12-2019 23:03:17 -2.8 C 43 %
716 29-12-2019 23:13:17 -2.7 C 44 %
717 29-12-2019 23:23:17 -2.8 C 43 %
718 29-12-2019 23:33:18 -3 C 43 %
719 29-12-2019 23:43:18 -3 C 43 %
720 29-12-2019 23:53:17 -3 C 42 %
721 30-12-2019 00:03:17 -3 C 42 %
722 30-12-2019 00:13:17 -3.1 C 41 %
723 30-12-2019 00:23:17 -3.1 C 41 %
724 30-12-2019 00:33:17 -3 C 42 %
725 30-12-2019 00:43:17 -3.2 C 42 %
Sensor: Nr:Datum:Temp:Feuchte:
Aussen-T/F 726 30-12-2019 00:53:17 -3.2 C 42 %
727 30-12-2019 01:03:17 -3.2 C 42 %
728 30-12-2019 01:13:18 -3.1 C 44 %
729 30-12-2019 01:23:17 -3.1 C 43 %
730 30-12-2019 01:33:18 -3.2 C 42 %
731 30-12-2019 01:43:18 -3.4 C 42 %
732 30-12-2019 01:53:17 -3.5 C 42 %
733 30-12-2019 02:03:17 -3.2 C 43 %
734 30-12-2019 02:13:17 -3.4 C 43 %
735 30-12-2019 02:23:17 -3.4 C 43 %
736 30-12-2019 02:33:18 -3.4 C 43 %
737 30-12-2019 02:43:18 -3.4 C 43 %
738 30-12-2019 02:53:17 -3.4 C 43 %
739 30-12-2019 03:03:17 -3.3 C 43 %
740 30-12-2019 03:13:17 -3.4 C 43 %
741 30-12-2019 03:23:17 -3.1 C 43 %
742 30-12-2019 03:33:18 -3.2 C 43 %
743 30-12-2019 03:43:18 -3.3 C 43 %
744 30-12-2019 03:53:17 -3.5 C 43 %
745 30-12-2019 04:03:17 -3.7 C 42 %
746 30-12-2019 04:13:17 -3.8 C 42 %
747 30-12-2019 04:23:17 -3.8 C 42 %
748 30-12-2019 04:33:17 -3.9 C 42 %
749 30-12-2019 04:43:17 -3.9 C 42 %
750 30-12-2019 04:53:17 -4 C 42 %
Sensor: Nr:Datum:Temp:Feuchte:
Aussen-T/F 751 30-12-2019 05:03:17 -3.9 C 42 %
752 30-12-2019 05:13:17 -3.8 C 42 %
753 30-12-2019 05:23:17 -3.9 C 42 %
754 30-12-2019 05:33:17 -3.7 C 43 %
755 30-12-2019 05:43:17 -3.8 C 43 %
756 30-12-2019 05:53:18 -4 C 42 %
757 30-12-2019 06:03:17 -4 C 42 %
758 30-12-2019 06:13:17 -4 C 42 %
759 30-12-2019 06:23:17 -3.9 C 42 %
760 30-12-2019 06:33:17 -3.7 C 43 %
761 30-12-2019 06:43:17 -3.9 C 42 %
762 30-12-2019 06:53:17 -4 C 42 %
763 30-12-2019 07:03:17 -4 C 42 %
764 30-12-2019 07:13:17 -4.2 C 41 %
765 30-12-2019 07:23:17 -4.4 C 42 %
766 30-12-2019 07:33:18 -4.4 C 41 %
767 30-12-2019 07:43:18 -4.4 C 42 %
768 30-12-2019 07:53:17 -4.2 C 42 %
769 30-12-2019 08:03:17 -4.4 C 41 %
770 30-12-2019 08:13:17 -4.3 C 42 %
771 30-12-2019 08:23:17 -4.4 C 42 %
772 30-12-2019 08:33:17 -4.5 C 41 %
773 30-12-2019 08:43:17 -4 C 43 %
774 30-12-2019 08:53:17 -4.2 C 41 %
775 30-12-2019 09:03:18 -4.1 C 42 %
Sensor: Nr:Datum:Temp:Feuchte:
Aussen-T/F 776 30-12-2019 09:13:18 -3.9 C 42 %
777 30-12-2019 09:23:17 -3.8 C 42 %
778 30-12-2019 09:33:17 -3.6 C 43 %
779 30-12-2019 09:43:17 -3.7 C 42 %
780 30-12-2019 09:53:17 -3.7 C 42 %
781 30-12-2019 10:03:17 -3.5 C 42 %
782 30-12-2019 10:13:17 -3.3 C 43 %
783 30-12-2019 10:23:17 -3.3 C 42 %
784 30-12-2019 10:33:17 -3.3 C 42 %
785 30-12-2019 10:43:17 -3 C 43 %
786 30-12-2019 10:53:17 -2.9 C 42 %
787 30-12-2019 11:03:17 -2.9 C 42 %
788 30-12-2019 11:13:17 -2.8 C 42 %
789 30-12-2019 11:23:17 -2.4 C 43 %
790 30-12-2019 11:33:17 -2.1 C 42 %
791 30-12-2019 11:43:17 -2 C 41 %
792 30-12-2019 11:53:18 -2.1 C 40 %
793 30-12-2019 12:03:17 -1.7 C 41 %
794 30-12-2019 12:13:17 -1.5 C 40 %
795 30-12-2019 12:23:17 -1.6 C 40 %
796 30-12-2019 12:33:17 -1.4 C 41 %
797 30-12-2019 12:43:17 -0.7 C 39 %
798 30-12-2019 12:53:17 -0.8 C 39 %
799 30-12-2019 13:03:17 -0.8 C 38 %
800 30-12-2019 13:13:17 -1 C 40 %
Sensor: Nr:Datum:Temp:Feuchte:
Aussen-T/F 801 30-12-2019 13:23:17 -1 C 41 %
802 30-12-2019 13:33:17 -1 C 42 %
803 30-12-2019 13:43:17 -0.6 C 42 %
804 30-12-2019 13:53:17 -0.2 C 41 %
805 30-12-2019 14:03:17 0.3 C 37 %
806 30-12-2019 14:13:17 0.1 C 35 %
807 30-12-2019 14:23:17 0.6 C 35 %
808 30-12-2019 14:33:17 0.5 C 35 %
809 30-12-2019 14:43:17 1 C 32 %
810 30-12-2019 14:53:17 0.6 C 35 %
811 30-12-2019 15:03:17 0.9 C 36 %
812 30-12-2019 15:13:17 1.1 C 33 %
813 30-12-2019 15:23:17 0.6 C 35 %
814 30-12-2019 15:33:18 0.6 C 36 %
815 30-12-2019 15:43:18 0.7 C 35 %
816 30-12-2019 15:53:17 1.6 C 32 %
817 30-12-2019 16:03:18 1.7 C 32 %
818 30-12-2019 16:13:18 1.9 C 31 %
819 30-12-2019 16:23:18 1.6 C 33 %
820 30-12-2019 16:33:17 1.1 C 35 %
821 30-12-2019 16:43:17 0.8 C 37 %
822 30-12-2019 16:53:17 0.6 C 40 %
823 30-12-2019 17:03:17 0.7 C 40 %
824 30-12-2019 17:13:17 0.7 C 40 %
825 30-12-2019 17:23:18 0.6 C 40 %
Sensor: Nr:Datum:Temp:Feuchte:
Aussen-T/F 826 30-12-2019 17:33:17 0.5 C 40 %
827 30-12-2019 17:43:17 0.5 C 40 %
828 30-12-2019 17:53:17 0.5 C 37 %
829 30-12-2019 18:03:17 0.3 C 36 %
830 30-12-2019 18:13:17 -0.3 C 36 %
831 30-12-2019 18:23:18 -0.7 C 37 %
832 30-12-2019 18:33:18 -0.4 C 36 %
833 30-12-2019 18:43:18 -0.2 C 36 %
834 30-12-2019 18:53:17 -0.6 C 34 %
835 30-12-2019 19:03:17 -1.3 C 36 %
836 30-12-2019 19:13:17 -1 C 36 %
837 30-12-2019 19:23:18 -1.4 C 36 %
838 30-12-2019 19:33:17 -1.4 C 39 %
839 30-12-2019 19:43:17 -0.4 C 33 %
840 30-12-2019 19:53:18 0 C 32 %
841 30-12-2019 20:03:17 -0.3 C 31 %
842 30-12-2019 20:13:17 -1.2 C 32 %
843 30-12-2019 20:23:17 -1.6 C 35 %
844 30-12-2019 20:33:17 -1.6 C 36 %
845 30-12-2019 20:43:17 -1.7 C 36 %
846 30-12-2019 20:53:17 -1.5 C 37 %
847 30-12-2019 21:03:17 -1.9 C 37 %
848 30-12-2019 21:13:17 -0.8 C 35 %
849 30-12-2019 21:23:17 -1.1 C 35 %
850 30-12-2019 21:33:17 -0.9 C 35 %
Sensor: Nr:Datum:Temp:Feuchte:
Aussen-T/F 851 30-12-2019 21:43:17 -0.8 C 36 %
852 30-12-2019 21:53:17 -1.1 C 33 %
853 30-12-2019 22:03:17 -1.5 C 35 %
854 30-12-2019 22:13:17 -1.7 C 35 %
855 30-12-2019 22:23:17 -1.7 C 35 %
856 30-12-2019 22:33:17 -2.3 C 35 %
857 30-12-2019 22:43:17 -1.8 C 35 %
858 30-12-2019 22:53:17 -2 C 36 %
859 30-12-2019 23:03:17 -2.3 C 36 %
860 30-12-2019 23:13:17 -1.5 C 36 %
861 30-12-2019 23:23:17 -0.9 C 32 %
862 30-12-2019 23:33:17 -0.3 C 31 %
863 30-12-2019 23:43:17 -0.9 C 31 %
864 30-12-2019 23:53:17 -1 C 31 %
865 31-12-2019 00:03:17 -1.2 C 32 %
866 31-12-2019 00:13:18 -1.4 C 34 %
867 31-12-2019 00:23:17 -1.6 C 36 %
868 31-12-2019 00:33:18 -1.2 C 35 %
869 31-12-2019 00:43:18 -1.5 C 35 %
870 31-12-2019 00:53:17 -1.5 C 36 %
871 31-12-2019 01:03:17 -1.5 C 36 %
872 31-12-2019 01:13:17 -0.8 C 34 %
873 31-12-2019 01:23:18 -1.3 C 34 %
874 31-12-2019 01:33:17 -1.6 C 37 %
875 31-12-2019 01:43:17 -2 C 37 %
Sensor: Nr:Datum:Temp:Feuchte:
Aussen-T/F 876 31-12-2019 01:53:17 -2.3 C 38 %
877 31-12-2019 02:03:17 -2.5 C 40 %
878 31-12-2019 02:13:17 -2.7 C 40 %
879 31-12-2019 02:23:18 -2.8 C 41 %
880 31-12-2019 02:33:17 -3 C 41 %
881 31-12-2019 02:43:17 -2.9 C 43 %
882 31-12-2019 02:53:17 -2 C 45 %
883 31-12-2019 03:03:17 -1.7 C 42 %
884 31-12-2019 03:13:18 -2 C 40 %
885 31-12-2019 03:23:17 -2.4 C 40 %
886 31-12-2019 03:33:18 -2.5 C 41 %
887 31-12-2019 03:43:18 -2.9 C 41 %
888 31-12-2019 03:53:17 -2.8 C 42 %
889 31-12-2019 04:03:17 -2.6 C 43 %
890 31-12-2019 04:13:17 -3.1 C 42 %
891 31-12-2019 04:23:17 -3.2 C 42 %
892 31-12-2019 04:33:17 -3.3 C 42 %
893 31-12-2019 04:43:18 -3.3 C 42 %
894 31-12-2019 04:53:17 -3.2 C 43 %
895 31-12-2019 05:03:17 -3.3 C 42 %
896 31-12-2019 05:13:17 -3.6 C 42 %
897 31-12-2019 05:23:17 -3.4 C 43 %
898 31-12-2019 05:33:17 -3.1 C 44 %
899 31-12-2019 05:43:17 -3 C 44 %
900 31-12-2019 05:53:17 -2.9 C 44 %
Sensor: Nr:Datum:Temp:Feuchte:
Aussen-T/F 901 31-12-2019 06:03:17 -3.1 C 43 %
902 31-12-2019 06:13:17 -3.3 C 43 %
903 31-12-2019 06:23:17 -3.2 C 43 %
904 31-12-2019 06:33:17 -3.3 C 43 %
905 31-12-2019 06:43:17 -3.4 C 43 %
906 31-12-2019 06:53:18 -3.2 C 44 %
907 31-12-2019 07:03:17 -3.2 C 44 %
908 31-12-2019 07:13:17 -3 C 44 %
909 31-12-2019 07:23:17 -3.1 C 44 %
910 31-12-2019 07:33:17 -3 C 44 %
911 31-12-2019 07:43:17 -2.6 C 45 %
912 31-12-2019 07:53:18 -2.1 C 45 %
913 31-12-2019 08:03:17 -2 C 45 %
914 31-12-2019 08:13:17 -2 C 45 %
915 31-12-2019 08:23:17 -1.3 C 45 %
916 31-12-2019 08:33:17 -1 C 44 %
917 31-12-2019 08:43:17 -1 C 43 %
918 31-12-2019 08:53:17 -1.1 C 42 %
919 31-12-2019 09:03:17 -1 C 43 %
920 31-12-2019 09:13:17 -0.9 C 44 %
921 31-12-2019 09:23:17 -1.1 C 42 %
922 31-12-2019 09:33:17 -1.1 C 42 %
923 31-12-2019 09:43:17 -1.1 C 42 %
924 31-12-2019 09:53:17 -0.9 C 43 %
925 31-12-2019 10:03:17 -0.6 C 44 %
Sensor: Nr:Datum:Temp:Feuchte:
Aussen-T/F 926 31-12-2019 10:13:17 -0.2 C 43 %
927 31-12-2019 10:23:17 0.1 C 41 %
928 31-12-2019 10:33:17 0.3 C 40 %
929 31-12-2019 10:43:17 0.3 C 38 %
930 31-12-2019 10:53:18 0.5 C 40 %
931 31-12-2019 11:03:17 0.8 C 41 %
932 31-12-2019 11:13:17 0.7 C 41 %
933 31-12-2019 11:23:17 1.2 C 40 %
934 31-12-2019 11:33:17 1.1 C 38 %
935 31-12-2019 11:43:17 1.5 C 40 %
936 31-12-2019 11:53:17 1.5 C 40 %
937 31-12-2019 12:03:18 1.8 C 31 %
938 31-12-2019 12:13:18 2.4 C 35 %
939 31-12-2019 12:23:17 2.6 C 33 %
940 31-12-2019 12:33:18 2.4 C 32 %
941 31-12-2019 12:43:18 2.8 C 30 %
942 31-12-2019 12:53:17 2.3 C 29 %
943 31-12-2019 13:03:18 2.4 C 28 %
944 31-12-2019 13:13:18 2.4 C 27 %
945 31-12-2019 13:23:17 2.8 C 27 %
946 31-12-2019 13:33:17 2.8 C 26 %
947 31-12-2019 13:43:17 3.3 C 26 %
948 31-12-2019 13:53:17 2.9 C 26 %
949 31-12-2019 14:03:18 2.7 C 27 %
950 31-12-2019 14:13:18 2.9 C 27 %
Sensor: Nr:Datum:Temp:Feuchte:
Aussen-T/F 951 31-12-2019 14:23:17 3.1 C 26 %
952 31-12-2019 14:33:17 3.4 C 26 %
953 31-12-2019 14:43:17 3.2 C 26 %
954 31-12-2019 14:53:17 3 C 26 %
955 31-12-2019 15:03:17 2.8 C 27 %
956 31-12-2019 15:13:17 2.9 C 27 %
957 31-12-2019 15:23:18 3 C 27 %
958 31-12-2019 15:33:17 3 C 27 %
959 31-12-2019 15:43:17 2.9 C 28 %
960 31-12-2019 15:53:17 2.7 C 29 %
961 31-12-2019 16:03:17 2.1 C 30 %
962 31-12-2019 16:13:17 0.9 C 35 %
963 31-12-2019 16:23:18 0.6 C 38 %
964 31-12-2019 16:33:17 0.3 C 40 %
965 31-12-2019 16:43:17 0.2 C 39 %
966 31-12-2019 16:53:18 0.2 C 40 %
967 31-12-2019 17:03:17 -0.1 C 41 %
968 31-12-2019 17:13:17 -0.4 C 41 %
969 31-12-2019 17:23:17 -0.3 C 40 %
970 31-12-2019 17:33:17 -0.3 C 41 %
971 31-12-2019 17:43:17 -0.6 C 43 %
972 31-12-2019 17:53:18 -0.7 C 43 %
973 31-12-2019 18:03:17 -1.1 C 43 %
974 31-12-2019 18:13:17 -1.2 C 45 %
975 31-12-2019 18:23:17 -0.9 C 45 %
Sensor: Nr:Datum:Temp:Feuchte:
Aussen-T/F 976 31-12-2019 18:33:17 -0.8 C 45 %
977 31-12-2019 18:43:17 -0.4 C 46 %
978 31-12-2019 18:53:18 -0.4 C 46 %
979 31-12-2019 19:03:17 -0.3 C 45 %
980 31-12-2019 19:13:17 -0.1 C 46 %
981 31-12-2019 19:23:18 0 C 45 %
982 31-12-2019 19:33:17 0.1 C 45 %
983 31-12-2019 19:43:17 0.2 C 45 %
984 31-12-2019 19:53:17 0.4 C 45 %
985 31-12-2019 20:03:18 0.5 C 45 %
986 31-12-2019 20:13:18 0.5 C 45 %
987 31-12-2019 20:23:17 0.4 C 45 %
988 31-12-2019 20:33:17 0.4 C 45 %
989 31-12-2019 20:43:17 0.3 C 43 %
990 31-12-2019 20:53:17 0.2 C 43 %
991 31-12-2019 21:03:17 0.2 C 43 %
992 31-12-2019 21:13:17 0.4 C 44 %
993 31-12-2019 21:23:18 0.4 C 44 %
994 31-12-2019 21:33:17 0.5 C 44 %
995 31-12-2019 21:43:17 0.6 C 43 %
996 31-12-2019 21:53:17 0.5 C 43 %
997 31-12-2019 22:03:17 0.6 C 42 %
998 31-12-2019 22:13:17 0.5 C 42 %
999 31-12-2019 22:23:18 0.2 C 41 %
1000 31-12-2019 22:33:17 0 C 41 %
Sensor: Nr:Datum:Temp:Feuchte:
Aussen-T/F 1001 31-12-2019 22:43:17 -0.2 C 42 %
1002 31-12-2019 22:53:17 -0.4 C 43 %
1003 31-12-2019 23:03:17 -0.3 C 44 %
1004 31-12-2019 23:13:17 -0.1 C 45 %
1005 31-12-2019 23:23:18 0 C 45 %
1006 31-12-2019 23:33:17 0 C 45 %
1007 31-12-2019 23:43:17 0.4 C 45 %
1008 31-12-2019 23:53:18 0.3 C 45 %
1009 01-01-2020 00:03:17 0.4 C 45 %
1010 01-01-2020 00:13:17 0.4 C 45 %
1011 01-01-2020 00:23:17 0.3 C 45 %
1012 01-01-2020 00:33:17 -0.9 C 41 %
1013 01-01-2020 00:43:17 -0.3 C 45 %
1014 01-01-2020 00:53:18 -0.5 C 44 %
1015 01-01-2020 01:03:17 -0.5 C 44 %
1016 01-01-2020 01:13:17 -0.6 C 44 %
1017 01-01-2020 01:23:17 -0.6 C 45 %
1018 01-01-2020 01:33:17 -0.7 C 45 %
1019 01-01-2020 01:43:17 -1.1 C 44 %
1020 01-01-2020 01:53:18 -0.9 C 45 %
1021 01-01-2020 02:03:17 -0.9 C 45 %
1022 01-01-2020 02:13:17 -0.5 C 46 %
1023 01-01-2020 02:23:17 -0.2 C 45 %
1024 01-01-2020 02:33:18 -0.1 C 45 %
1025 01-01-2020 02:43:18 0 C 45 %
Sensor: Nr:Datum:Temp:Feuchte:
Aussen-T/F 1026 01-01-2020 02:53:17 0.1 C 45 %
1027 01-01-2020 03:03:17 0.1 C 45 %
1028 01-01-2020 03:13:18 0.1 C 45 %
1029 01-01-2020 03:23:17 0.2 C 45 %
1030 01-01-2020 03:33:18 0.1 C 45 %
1031 01-01-2020 03:43:18 0.1 C 45 %
1032 01-01-2020 03:53:17 0.1 C 45 %
1033 01-01-2020 04:03:18 0.2 C 45 %
1034 01-01-2020 04:13:18 0.2 C 45 %
1035 01-01-2020 04:23:17 0.3 C 45 %
1036 01-01-2020 04:33:18 0.3 C 45 %
1037 01-01-2020 04:43:18 0.3 C 44 %
1038 01-01-2020 04:53:17 0.3 C 44 %
1039 01-01-2020 05:03:18 0.4 C 44 %
1040 01-01-2020 05:13:18 0.5 C 44 %
1041 01-01-2020 05:23:17 0.4 C 44 %
1042 01-01-2020 05:33:18 0.4 C 44 %
1043 01-01-2020 05:43:18 0.4 C 44 %
1044 01-01-2020 05:53:17 0.4 C 43 %
1045 01-01-2020 06:03:17 0.4 C 43 %
1046 01-01-2020 06:13:17 0.5 C 43 %
1047 01-01-2020 06:23:17 0.4 C 42 %
1048 01-01-2020 06:33:17 0.6 C 42 %
1049 01-01-2020 06:43:17 0.6 C 42 %
1050 01-01-2020 06:53:17 0.6 C 42 %
Sensor: Nr:Datum:Temp:Feuchte:
Aussen-T/F 1051 01-01-2020 07:03:18 0.6 C 41 %
1052 01-01-2020 07:13:18 0.6 C 41 %
1053 01-01-2020 07:23:17 0.6 C 41 %
1054 01-01-2020 07:33:17 0.6 C 41 %
1055 01-01-2020 07:43:17 0.6 C 41 %
1056 01-01-2020 07:53:17 0.6 C 41 %
1057 01-01-2020 08:03:17 0.6 C 41 %
1058 01-01-2020 08:13:17 0.6 C 41 %
1059 01-01-2020 08:23:18 0.7 C 40 %
1060 01-01-2020 08:33:17 0.7 C 40 %
1061 01-01-2020 08:43:17 0.7 C 40 %
1062 01-01-2020 08:53:17 0.8 C 40 %
1063 01-01-2020 09:03:17 0.8 C 40 %
1064 01-01-2020 09:13:17 1.1 C 38 %
1065 01-01-2020 09:23:17 1.3 C 38 %
1066 01-01-2020 09:33:17 1.4 C 37 %
1067 01-01-2020 09:43:17 1.5 C 37 %
1068 01-01-2020 09:53:17 1.7 C 36 %
1069 01-01-2020 10:03:18 1.9 C 36 %
1070 01-01-2020 10:13:18 2 C 34 %
1071 01-01-2020 10:23:17 2.1 C 33 %
1072 01-01-2020 10:33:17 2.2 C 32 %
1073 01-01-2020 10:43:17 2.3 C 32 %
1074 01-01-2020 10:53:17 2.4 C 32 %
1075 01-01-2020 11:03:17 2.4 C 31 %
Sensor: Nr:Datum:Temp:Feuchte:
Aussen-T/F 1076 01-01-2020 11:13:17 2.7 C 31 %
1077 01-01-2020 11:23:18 2.7 C 30 %
1078 01-01-2020 11:33:17 2.7 C 30 %
1079 01-01-2020 11:43:17 2.8 C 30 %
1080 01-01-2020 11:53:18 2.9 C 30 %
1081 01-01-2020 12:03:17 3.2 C 28 %
1082 01-01-2020 12:13:17 3 C 29 %
1083 01-01-2020 12:23:18 2.7 C 30 %
1084 01-01-2020 12:33:17 2.7 C 30 %
1085 01-01-2020 12:43:17 2.5 C 30 %
1086 01-01-2020 12:53:18 2.1 C 32 %
1087 01-01-2020 13:03:17 1.6 C 36 %
1088 01-01-2020 13:13:17 1.6 C 37 %
1089 01-01-2020 13:23:18 1.4 C 37 %
1090 01-01-2020 13:33:17 1.5 C 38 %
1091 01-01-2020 13:43:17 1.5 C 38 %
1092 01-01-2020 13:53:17 1.6 C 39 %
1093 01-01-2020 14:03:17 1.6 C 39 %
1094 01-01-2020 14:13:17 1.6 C 39 %
1095 01-01-2020 14:23:17 1.6 C 40 %
1096 01-01-2020 14:33:17 1.4 C 40 %
1097 01-01-2020 14:43:17 1.3 C 41 %
1098 01-01-2020 14:53:17 1.2 C 41 %
1099 01-01-2020 15:03:17 1.3 C 41 %
1100 01-01-2020 15:13:17 1.2 C 41 %
Sensor: Nr:Datum:Temp:Feuchte:
Aussen-T/F 1101 01-01-2020 15:23:17 1.6 C 41 %
1102 01-01-2020 15:33:17 1.7 C 38 %
1103 01-01-2020 15:43:17 1.1 C 38 %
1104 01-01-2020 15:53:17 0.7 C 40 %
1105 01-01-2020 16:03:17 0.5 C 43 %
1106 01-01-2020 16:13:17 -0.1 C 43 %
1107 01-01-2020 16:23:17 -0.3 C 44 %
1108 01-01-2020 16:33:18 -0.7 C 44 %
1109 01-01-2020 16:43:18 -0.7 C 45 %
1110 01-01-2020 16:53:17 -0.8 C 45 %
1111 01-01-2020 17:03:17 -1 C 45 %
1112 01-01-2020 17:13:17 -1.3 C 45 %
1113 01-01-2020 17:23:18 -1.5 C 45 %
1114 01-01-2020 17:33:17 -1.8 C 45 %
1115 01-01-2020 17:43:17 -1.9 C 45 %
1116 01-01-2020 17:53:18 -1.8 C 45 %
1117 01-01-2020 18:03:17 -1.9 C 45 %
1118 01-01-2020 18:13:17 -1.9 C 45 %
1119 01-01-2020 18:23:17 -2.1 C 45 %
1120 01-01-2020 18:33:17 -2.1 C 45 %
1121 01-01-2020 18:43:18 -2.1 C 45 %
1122 01-01-2020 18:53:17 -2.2 C 45 %
1123 01-01-2020 19:03:17 -2.4 C 45 %
1124 01-01-2020 19:13:18 -2.5 C 45 %
1125 01-01-2020 19:23:17 -2.4 C 45 %
Sensor: Nr:Datum:Temp:Feuchte:
Aussen-T/F 1126 01-01-2020 19:33:17 -2.3 C 45 %
1127 01-01-2020 19:43:17 -2.2 C 45 %
1128 01-01-2020 19:53:17 -2.4 C 45 %
1129 01-01-2020 20:03:17 -2.2 C 45 %
1130 01-01-2020 20:13:17 -2.1 C 45 %
1131 01-01-2020 20:23:18 -2.3 C 45 %
1132 01-01-2020 20:33:17 -2.1 C 45 %
1133 01-01-2020 20:43:17 -2.6 C 43 %
1134 01-01-2020 20:53:17 -2.8 C 43 %
1135 01-01-2020 21:03:17 -2.8 C 43 %
1136 01-01-2020 21:13:17 -3 C 43 %
1137 01-01-2020 21:23:18 -3.1 C 43 %
1138 01-01-2020 21:33:17 -3.1 C 43 %
1139 01-01-2020 21:43:17 -3.2 C 42 %
1140 01-01-2020 21:53:17 -2.8 C 43 %
1141 01-01-2020 22:03:17 -3.1 C 42 %
1142 01-01-2020 22:13:17 -3.2 C 42 %
1143 01-01-2020 22:23:17 -3 C 43 %
1144 01-01-2020 22:33:17 -2.8 C 43 %
1145 01-01-2020 22:43:17 -2.8 C 43 %
1146 01-01-2020 22:53:17 -3.2 C 42 %
1147 01-01-2020 23:03:17 -3.2 C 42 %
1148 01-01-2020 23:13:17 -2.7 C 44 %
1149 01-01-2020 23:23:17 -2.3 C 45 %
1150 01-01-2020 23:33:17 -2.4 C 44 %
Sensor: Nr:Datum:Temp:Feuchte:
Aussen-T/F 1151 01-01-2020 23:43:17 -2.2 C 45 %
1152 01-01-2020 23:53:17 -2.2 C 45 %
1153 02-01-2020 00:03:17 -2.3 C 44 %
1154 02-01-2020 00:13:17 -2.4 C 44 %
1155 02-01-2020 00:23:17 -2.6 C 43 %
1156 02-01-2020 00:33:17 -2.4 C 43 %
1157 02-01-2020 00:43:17 -2.4 C 44 %
1158 02-01-2020 00:53:17 -2.6 C 43 %
1159 02-01-2020 01:03:17 -2.3 C 44 %
1160 02-01-2020 01:13:17 -2.1 C 45 %
1161 02-01-2020 01:23:17 -1.9 C 45 %
1162 02-01-2020 01:33:17 -1.9 C 45 %
1163 02-01-2020 01:43:17 -1.8 C 45 %
1164 02-01-2020 01:53:17 -1.7 C 45 %
1165 02-01-2020 02:03:17 -1.6 C 45 %
1166 02-01-2020 02:13:17 -1.5 C 45 %
1167 02-01-2020 02:23:17 -1.4 C 45 %
1168 02-01-2020 02:33:17 -1.3 C 45 %
1169 02-01-2020 02:43:17 -1.3 C 45 %
1170 02-01-2020 02:53:17 -1.3 C 45 %
1171 02-01-2020 03:03:17 -1.2 C 45 %
1172 02-01-2020 03:13:18 -1.1 C 45 %
1173 02-01-2020 03:23:17 -1.1 C 45 %
1174 02-01-2020 03:33:18 -1 C 45 %
1175 02-01-2020 03:43:18 -0.9 C 45 %
Sensor: Nr:Datum:Temp:Feuchte:
Aussen-T/F 1176 02-01-2020 03:53:17 -0.9 C 45 %
1177 02-01-2020 04:03:18 -0.8 C 45 %
1178 02-01-2020 04:13:18 -0.7 C 45 %
1179 02-01-2020 04:23:17 -0.7 C 45 %
1180 02-01-2020 04:33:17 -0.7 C 45 %
1181 02-01-2020 04:43:17 -0.7 C 45 %
1182 02-01-2020 04:53:17 -0.8 C 45 %
1183 02-01-2020 05:03:17 -0.9 C 45 %
1184 02-01-2020 05:13:17 -0.9 C 45 %
1185 02-01-2020 05:23:18 -0.9 C 45 %
1186 02-01-2020 05:33:17 -0.9 C 45 %
1187 02-01-2020 05:43:17 -0.8 C 44 %
1188 02-01-2020 05:53:18 -0.8 C 44 %
1189 02-01-2020 06:03:17 -0.9 C 44 %
1190 02-01-2020 06:13:17 -0.9 C 43 %
1191 02-01-2020 06:23:17 -0.9 C 43 %
1192 02-01-2020 06:33:18 -0.7 C 42 %
1193 02-01-2020 06:43:18 -0.7 C 41 %
1194 02-01-2020 06:53:17 -0.7 C 40 %
1195 02-01-2020 07:03:18 -0.7 C 40 %
1196 02-01-2020 07:13:18 -0.7 C 40 %
1197 02-01-2020 07:23:17 -0.7 C 39 %
1198 02-01-2020 07:33:17 -0.7 C 39 %
1199 02-01-2020 07:43:17 -0.7 C 40 %
1200 02-01-2020 07:53:17 -0.6 C 41 %
Sensor: Nr:Datum:Temp:Feuchte:
Aussen-T/F 1201 02-01-2020 08:03:18 -0.6 C 41 %
1202 02-01-2020 08:13:18 -0.5 C 41 %
1203 02-01-2020 08:23:17 -0.4 C 41 %
1204 02-01-2020 08:33:17 -0.3 C 40 %
1205 02-01-2020 08:43:17 -0.3 C 41 %
1206 02-01-2020 08:53:17 -0.2 C 42 %
1207 02-01-2020 09:03:17 -0.1 C 42 %
1208 02-01-2020 09:13:17 0.1 C 42 %
1209 02-01-2020 09:23:17 0.1 C 40 %
1210 02-01-2020 09:33:18 0.4 C 38 %
1211 02-01-2020 09:43:18 0.5 C 37 %
1212 02-01-2020 09:53:17 0.4 C 39 %
1213 02-01-2020 10:03:17 0.4 C 40 %
1214 02-01-2020 10:13:18 0.7 C 41 %
1215 02-01-2020 10:23:17 1.1 C 42 %
1216 02-01-2020 10:33:18 1.1 C 39 %
1217 02-01-2020 10:43:18 1.3 C 39 %
1218 02-01-2020 10:53:17 1.5 C 38 %
1219 02-01-2020 11:03:18 1.7 C 38 %
1220 02-01-2020 11:13:18 1.6 C 35 %
1221 02-01-2020 11:23:17 1.9 C 37 %
1222 02-01-2020 11:33:17 2.1 C 36 %
1223 02-01-2020 11:43:17 2.1 C 35 %
1224 02-01-2020 11:53:17 2.1 C 34 %
1225 02-01-2020 12:03:17 2.2 C 34 %
Sensor: Nr:Datum:Temp:Feuchte:
Aussen-T/F 1226 02-01-2020 12:13:17 2.3 C 35 %
1227 02-01-2020 12:23:17 2.3 C 35 %
1228 02-01-2020 12:33:17 2.6 C 34 %
1229 02-01-2020 12:43:17 3 C 35 %
1230 02-01-2020 12:53:17 2.8 C 32 %
1231 02-01-2020 13:03:17 2.9 C 31 %
1232 02-01-2020 13:13:17 3.1 C 30 %
1233 02-01-2020 13:23:17 3.3 C 29 %
1234 02-01-2020 13:33:17 3.6 C 29 %
1235 02-01-2020 13:43:17 3.3 C 29 %
1236 02-01-2020 13:53:18 3.1 C 30 %
1237 02-01-2020 14:03:17 3.4 C 30 %
1238 02-01-2020 14:13:17 3.4 C 30 %
1239 02-01-2020 14:23:18 3.5 C 30 %
1240 02-01-2020 14:33:17 3.4 C 30 %
1241 02-01-2020 14:43:17 3.7 C 30 %
1242 02-01-2020 14:53:17 3.4 C 30 %
1243 02-01-2020 15:03:17 3.1 C 31 %
1244 02-01-2020 15:13:17 3 C 31 %
1245 02-01-2020 15:23:18 2.7 C 32 %
1246 02-01-2020 15:33:17 2.5 C 33 %
1247 02-01-2020 15:43:17 2.5 C 34 %
1248 02-01-2020 15:53:17 2.4 C 35 %
1249 02-01-2020 16:03:17 2.4 C 35 %
1250 02-01-2020 16:13:17 2.3 C 35 %
Sensor: Nr:Datum:Temp:Feuchte:
Aussen-T/F 1251 02-01-2020 16:23:18 2.2 C 36 %
1252 02-01-2020 16:33:17 2.2 C 37 %
1253 02-01-2020 16:43:17 2.3 C 37 %
1254 02-01-2020 16:53:17 2.2 C 37 %
1255 02-01-2020 17:03:17 2.1 C 38 %
1256 02-01-2020 17:13:17 2 C 38 %
1257 02-01-2020 17:23:18 2.1 C 40 %
1258 02-01-2020 17:33:17 2.1 C 40 %
1259 02-01-2020 17:43:17 2.1 C 40 %
1260 02-01-2020 17:53:17 2.1 C 40 %
1261 02-01-2020 18:03:17 2.1 C 40 %
1262 02-01-2020 18:13:17 2.1 C 40 %
1263 02-01-2020 18:23:17 2.1 C 40 %
1264 02-01-2020 18:33:17 2.1 C 40 %
1265 02-01-2020 18:43:18 2.2 C 39 %
1266 02-01-2020 18:53:17 2.3 C 40 %
1267 02-01-2020 19:03:17 2.2 C 40 %
1268 02-01-2020 19:13:18 2.2 C 40 %
1269 02-01-2020 19:23:17 2.3 C 40 %
1270 02-01-2020 19:33:17 2.3 C 40 %
1271 02-01-2020 19:43:18 2.3 C 40 %
1272 02-01-2020 19:53:17 2.3 C 40 %
1273 02-01-2020 20:03:18 2.3 C 40 %
1274 02-01-2020 20:13:18 2.4 C 40 %
1275 02-01-2020 20:23:17 2.5 C 40 %
Sensor: Nr:Datum:Temp:Feuchte:
Aussen-T/F 1276 02-01-2020 20:33:17 2.6 C 40 %
1277 02-01-2020 20:43:17 2.6 C 40 %
1278 02-01-2020 20:53:17 2.5 C 39 %
1279 02-01-2020 21:03:18 2.5 C 40 %
1280 02-01-2020 21:13:18 2.5 C 40 %
1281 02-01-2020 21:23:17 2.5 C 40 %
1282 02-01-2020 21:33:18 2.5 C 40 %
1283 02-01-2020 21:43:18 2.3 C 40 %
1284 02-01-2020 21:53:17 1.9 C 42 %
1285 02-01-2020 22:03:17 2.3 C 43 %
1286 02-01-2020 22:13:17 2.4 C 43 %
1287 02-01-2020 22:23:17 2.5 C 43 %
1288 02-01-2020 22:33:17 2.6 C 43 %
1289 02-01-2020 22:43:18 2.7 C 43 %
1290 02-01-2020 22:53:17 2.7 C 42 %
1291 02-01-2020 23:03:17 2.8 C 42 %
1292 02-01-2020 23:13:17 2.8 C 42 %
1293 02-01-2020 23:23:17 2.8 C 41 %
1294 02-01-2020 23:33:18 2.8 C 42 %
1295 02-01-2020 23:43:18 2.9 C 42 %
1296 02-01-2020 23:53:17 2.8 C 41 %
1297 03-01-2020 00:03:18 2.9 C 42 %
1298 03-01-2020 00:13:18 3 C 41 %
1299 03-01-2020 00:23:17 3.1 C 41 %
1300 03-01-2020 00:33:17 3.2 C 41 %
Sensor: Nr:Datum:Temp:Feuchte:
Aussen-T/F 1301 03-01-2020 00:43:17 3.2 C 41 %
1302 03-01-2020 00:53:17 3.4 C 42 %
1303 03-01-2020 01:03:17 3.4 C 42 %
1304 03-01-2020 01:13:17 3.5 C 42 %
1305 03-01-2020 01:23:18 3.5 C 42 %
1306 03-01-2020 01:33:17 3.5 C 42 %
1307 03-01-2020 01:43:17 3.6 C 42 %
1308 03-01-2020 01:53:18 3.6 C 42 %
1309 03-01-2020 02:03:17 3.7 C 42 %
1310 03-01-2020 02:13:17 3.7 C 42 %
1311 03-01-2020 02:23:17 3.9 C 42 %
1312 03-01-2020 02:33:17 3.7 C 42 %
1313 03-01-2020 02:43:18 3.7 C 43 %
1314 03-01-2020 02:53:17 3.9 C 44 %
1315 03-01-2020 03:03:17 3.8 C 44 %
1316 03-01-2020 03:13:17 3.8 C 44 %
1317 03-01-2020 03:23:17 3.8 C 44 %
1318 03-01-2020 03:33:17 3.9 C 44 %
1319 03-01-2020 03:43:17 3.9 C 44 %
1320 03-01-2020 03:53:18 3.9 C 44 %
1321 03-01-2020 04:03:17 4 C 43 %
1322 03-01-2020 04:13:17 4 C 43 %
1323 03-01-2020 04:23:18 4 C 42 %
1324 03-01-2020 04:33:17 4.1 C 42 %
1325 03-01-2020 04:43:17 4.1 C 42 %
Sensor: Nr:Datum:Temp:Feuchte:
Aussen-T/F 1326 03-01-2020 04:53:17 4.2 C 42 %
1327 03-01-2020 05:03:17 4.2 C 41 %
1328 03-01-2020 05:13:17 4.3 C 40 %
1329 03-01-2020 05:23:17 4.3 C 40 %
1330 03-01-2020 05:33:17 4.4 C 40 %
1331 03-01-2020 05:43:17 4.4 C 40 %
1332 03-01-2020 05:53:17 4.4 C 40 %
1333 03-01-2020 06:03:17 4.4 C 40 %
1334 03-01-2020 06:13:17 4.4 C 40 %
1335 03-01-2020 06:23:18 4.4 C 40 %
1336 03-01-2020 06:33:17 4.7 C 40 %
1337 03-01-2020 06:43:17 5.3 C 40 %
1338 03-01-2020 06:53:18 6.7 C 34 %
1339 03-01-2020 07:03:18 7.1 C 31 %
1340 03-01-2020 07:13:18 7.7 C 30 %
1341 03-01-2020 07:23:17 8 C 29 %
1342 03-01-2020 07:33:17 7.9 C 30 %
1343 03-01-2020 07:43:17 7.8 C 30 %
1344 03-01-2020 07:53:17 7.9 C 29 %
1345 03-01-2020 08:03:18 7.9 C 30 %
1346 03-01-2020 08:13:18 8 C 29 %
1347 03-01-2020 08:23:17 7.9 C 29 %
1348 03-01-2020 08:33:18 7.8 C 29 %
1349 03-01-2020 08:43:18 7.9 C 29 %
1350 03-01-2020 08:53:17 8 C 29 %
Sensor: Nr:Datum:Temp:Feuchte:
Aussen-T/F 1351 03-01-2020 09:03:17 8.2 C 28 %
1352 03-01-2020 09:13:17 8.2 C 28 %
1353 03-01-2020 09:23:17 8.2 C 28 %
1354 03-01-2020 09:33:17 8.4 C 28 %
1355 03-01-2020 09:43:17 8.4 C 27 %
1356 03-01-2020 09:53:17 8.4 C 27 %
1357 03-01-2020 10:03:17 8.6 C 27 %
1358 03-01-2020 10:13:17 8.6 C 27 %
1359 03-01-2020 10:23:17 8.6 C 27 %
1360 03-01-2020 10:33:17 8.6 C 27 %
1361 03-01-2020 10:43:18 8.6 C 27 %
1362 03-01-2020 10:53:17 8.6 C 27 %
1363 03-01-2020 11:03:18 8.3 C 27 %
1364 03-01-2020 11:13:18 8.5 C 27 %
1365 03-01-2020 11:23:18 8.6 C 27 %
1366 03-01-2020 11:33:17 8.9 C 27 %
1367 03-01-2020 11:43:17 8.9 C 27 %
1368 03-01-2020 11:53:17 8.7 C 27 %
1369 03-01-2020 12:03:17 8.6 C 27 %
1370 03-01-2020 12:13:17 8.4 C 27 %
1371 03-01-2020 12:23:17 8.6 C 27 %
1372 03-01-2020 12:33:17 8.7 C 27 %
1373 03-01-2020 12:43:17 8.5 C 27 %
1374 03-01-2020 12:53:17 8.6 C 27 %
1375 03-01-2020 13:03:17 8.5 C 27 %
Sensor: Nr:Datum:Temp:Feuchte:
Aussen-T/F 1376 03-01-2020 13:13:18 8.5 C 28 %
1377 03-01-2020 13:23:17 8.6 C 28 %
1378 03-01-2020 13:33:17 8.8 C 27 %
1379 03-01-2020 13:43:18 8.8 C 28 %
1380 03-01-2020 13:53:17 8.7 C 28 %
1381 03-01-2020 14:03:17 8.7 C 28 %
1382 03-01-2020 14:13:17 8.5 C 28 %
1383 03-01-2020 14:23:18 8.5 C 29 %
1384 03-01-2020 14:33:17 8.5 C 29 %
1385 03-01-2020 14:43:17 8.5 C 29 %
1386 03-01-2020 14:53:17 8.5 C 30 %
1387 03-01-2020 15:03:17 9 C 28 %
1388 03-01-2020 15:13:17 9 C 28 %
1389 03-01-2020 15:23:17 9 C 28 %
1390 03-01-2020 15:33:17 9.1 C 28 %
1391 03-01-2020 15:43:18 9.2 C 28 %
1392 03-01-2020 15:53:17 9 C 28 %
1393 03-01-2020 16:03:17 9 C 28 %
1394 03-01-2020 16:13:17 9 C 29 %
1395 03-01-2020 16:23:17 8.9 C 30 %
1396 03-01-2020 16:33:17 9 C 29 %
1397 03-01-2020 16:43:17 9 C 29 %
1398 03-01-2020 16:53:17 9 C 29 %
1399 03-01-2020 17:03:17 8.6 C 31 %
1400 03-01-2020 17:13:17 8.6 C 31 %
Sensor: Nr:Datum:Temp:Feuchte:
Aussen-T/F 1401 03-01-2020 17:23:17 8.9 C 31 %
1402 03-01-2020 17:33:17 8.8 C 30 %
1403 03-01-2020 17:43:17 8.9 C 30 %
1404 03-01-2020 17:53:17 9 C 30 %
1405 03-01-2020 18:03:17 9 C 30 %
1406 03-01-2020 18:13:18 9.1 C 30 %
1407 03-01-2020 18:23:18 9.3 C 30 %
1408 03-01-2020 18:33:18 9.3 C 30 %
1409 03-01-2020 18:43:18 9.2 C 30 %
1410 03-01-2020 18:53:17 9.3 C 30 %
1411 03-01-2020 19:03:18 9.2 C 30 %
1412 03-01-2020 19:13:18 8.9 C 32 %
1413 03-01-2020 19:23:17 8.9 C 32 %
1414 03-01-2020 19:33:17 9.2 C 31 %
1415 03-01-2020 19:43:17 9.3 C 31 %
1416 03-01-2020 19:53:17 9.2 C 31 %
1417 03-01-2020 20:03:18 9 C 31 %
1418 03-01-2020 20:13:18 8.9 C 35 %
1419 03-01-2020 20:23:17 8.9 C 35 %
1420 03-01-2020 20:33:17 8.8 C 35 %
1421 03-01-2020 20:43:17 8.7 C 36 %
1422 03-01-2020 20:53:18 8.6 C 39 %
1423 03-01-2020 21:03:17 8.2 C 37 %
1424 03-01-2020 21:13:17 7.8 C 35 %
1425 03-01-2020 21:23:17 7.5 C 35 %
Sensor: Nr:Datum:Temp:Feuchte:
Aussen-T/F 1426 03-01-2020 21:33:18 7.4 C 36 %
1427 03-01-2020 21:43:18 7.2 C 35 %
1428 03-01-2020 21:53:17 6.8 C 35 %
1429 03-01-2020 22:03:18 6.8 C 34 %
1430 03-01-2020 22:13:18 6.7 C 35 %
1431 03-01-2020 22:23:17 6.5 C 33 %
1432 03-01-2020 22:33:17 6.4 C 34 %
1433 03-01-2020 22:43:17 6 C 33 %
1434 03-01-2020 22:53:17 6 C 34 %
1435 03-01-2020 23:03:17 5.7 C 35 %
1436 03-01-2020 23:13:17 5.9 C 34 %
1437 03-01-2020 23:23:17 5.8 C 35 %
1438 03-01-2020 23:33:17 5.8 C 33 %
1439 03-01-2020 23:43:17 5.7 C 35 %
1440 03-01-2020 23:53:17 5.8 C 35 %
1441 04-01-2020 00:03:18 5.7 C 35 %
1442 04-01-2020 00:13:18 5.6 C 35 %
1443 04-01-2020 00:23:17 5.4 C 35 %
1444 04-01-2020 00:33:17 5.6 C 33 %
1445 04-01-2020 00:43:17 5.6 C 33 %
1446 04-01-2020 00:53:17 5.4 C 34 %
1447 04-01-2020 01:03:17 5.3 C 34 %
1448 04-01-2020 01:13:17 4.6 C 36 %
1449 04-01-2020 01:23:17 4.6 C 36 %
1450 04-01-2020 01:33:17 4.6 C 36 %
Sensor: Nr:Datum:Temp:Feuchte:
Aussen-T/F 1451 04-01-2020 01:43:17 3.6 C 37 %
1452 04-01-2020 01:53:18 3.6 C 41 %
1453 04-01-2020 02:03:17 3.5 C 41 %
1454 04-01-2020 02:13:17 3.9 C 37 %
1455 04-01-2020 02:23:17 3.8 C 35 %
1456 04-01-2020 02:33:17 3.5 C 37 %
1457 04-01-2020 02:43:17 3.4 C 40 %
1458 04-01-2020 02:53:17 3.8 C 39 %
1459 04-01-2020 03:03:18 3.7 C 39 %
1460 04-01-2020 03:13:18 3.9 C 40 %
1461 04-01-2020 03:23:17 3.3 C 39 %
1462 04-01-2020 03:33:17 3 C 41 %
1463 04-01-2020 03:43:17 3.4 C 42 %
1464 04-01-2020 03:53:17 3.7 C 36 %
1465 04-01-2020 04:03:17 3.7 C 35 %
1466 04-01-2020 04:13:17 3.4 C 35 %
1467 04-01-2020 04:23:17 3.3 C 36 %
1468 04-01-2020 04:33:17 3.1 C 37 %
1469 04-01-2020 04:43:17 2.8 C 38 %
1470 04-01-2020 04:53:17 2.6 C 39 %
1471 04-01-2020 05:03:17 2.9 C 40 %
1472 04-01-2020 05:13:17 2.4 C 38 %
1473 04-01-2020 05:23:17 2.5 C 40 %
1474 04-01-2020 05:33:17 1.8 C 40 %
1475 04-01-2020 05:43:18 2 C 41 %
Sensor: Nr:Datum:Temp:Feuchte:
Aussen-T/F 1476 04-01-2020 05:53:17 2.3 C 40 %
1477 04-01-2020 06:03:17 2.2 C 39 %
1478 04-01-2020 06:13:17 2.8 C 36 %
1479 04-01-2020 06:23:17 2.6 C 35 %
1480 04-01-2020 06:33:17 2.4 C 37 %
1481 04-01-2020 06:43:17 2.7 C 37 %
1482 04-01-2020 06:53:17 2.7 C 34 %
1483 04-01-2020 07:03:17 2.7 C 34 %
1484 04-01-2020 07:13:17 2.5 C 34 %
1485 04-01-2020 07:23:17 2.5 C 34 %
1486 04-01-2020 07:33:17 2 C 36 %
1487 04-01-2020 07:43:17 2 C 36 %
1488 04-01-2020 07:53:17 2.1 C 37 %
1489 04-01-2020 08:03:17 1.7 C 39 %
1490 04-01-2020 08:13:17 1.6 C 41 %
1491 04-01-2020 08:23:17 1.3 C 41 %
1492 04-01-2020 08:33:17 1.2 C 43 %
1493 04-01-2020 08:43:17 1.3 C 42 %
1494 04-01-2020 08:53:17 1.2 C 41 %
1495 04-01-2020 09:03:17 1 C 41 %
1496 04-01-2020 09:13:17 0.8 C 44 %
1497 04-01-2020 09:23:17 1 C 44 %
1498 04-01-2020 09:33:18 1.4 C 45 %
1499 04-01-2020 09:43:18 1.7 C 44 %
1500 04-01-2020 09:53:17 1.9 C 41 %
Sensor: Nr:Datum:Temp:Feuchte:
Aussen-T/F 1501 04-01-2020 10:03:18 2.1 C 39 %
1502 04-01-2020 10:13:18 2.3 C 38 %
1503 04-01-2020 10:23:17 3.1 C 35 %
1504 04-01-2020 10:33:17 3.6 C 33 %
1505 04-01-2020 10:43:17 5.1 C 27 %
1506 04-01-2020 10:53:17 5.1 C 27 %
1507 04-01-2020 11:03:17 5.4 C 27 %
1508 04-01-2020 11:13:17 5.4 C 27 %
1509 04-01-2020 11:23:17 5.6 C 27 %
1510 04-01-2020 11:33:17 5.6 C 27 %
1511 04-01-2020 11:43:17 5.6 C 26 %
1512 04-01-2020 11:53:17 5.8 C 26 %
1513 04-01-2020 12:03:17 5.9 C 26 %
1514 04-01-2020 12:13:18 6 C 26 %
1515 04-01-2020 12:23:17 6.2 C 26 %
1516 04-01-2020 12:33:17 6.2 C 26 %
1517 04-01-2020 12:43:17 6.3 C 26 %
1518 04-01-2020 12:53:17 6.5 C 26 %
1519 04-01-2020 13:03:17 6.7 C 26 %
1520 04-01-2020 13:13:17 6.7 C 26 %
1521 04-01-2020 13:23:17 6.7 C 26 %
1522 04-01-2020 13:33:17 6.8 C 25 %
1523 04-01-2020 13:43:17 7 C 25 %
1524 04-01-2020 13:53:18 7 C 25 %
1525 04-01-2020 14:03:18 7 C 25 %
Sensor: Nr:Datum:Temp:Feuchte:
Aussen-T/F 1526 04-01-2020 14:13:18 7 C 25 %
1527 04-01-2020 14:23:18 7.1 C 25 %
1528 04-01-2020 14:33:17 7.1 C 25 %
1529 04-01-2020 14:43:18 7 C 25 %
1530 04-01-2020 14:53:17 7 C 25 %
1531 04-01-2020 15:03:17 7.1 C 25 %
1532 04-01-2020 15:13:17 7 C 25 %
1533 04-01-2020 15:23:17 7 C 25 %
1534 04-01-2020 15:33:18 7 C 25 %
1535 04-01-2020 15:43:18 7 C 25 %
1536 04-01-2020 15:53:18 6.9 C 25 %
1537 04-01-2020 16:03:17 6.9 C 25 %
1538 04-01-2020 16:13:18 6.9 C 25 %
1539 04-01-2020 16:23:17 6.9 C 25 %
1540 04-01-2020 16:33:17 6.8 C 25 %
1541 04-01-2020 16:43:17 6.8 C 25 %
1542 04-01-2020 16:53:17 6.8 C 25 %
1543 04-01-2020 17:03:17 6.8 C 25 %
1544 04-01-2020 17:13:17 6.8 C 25 %
1545 04-01-2020 17:23:17 6.7 C 25 %
1546 04-01-2020 17:33:18 6.7 C 25 %
1547 04-01-2020 17:43:18 6.6 C 25 %
1548 04-01-2020 17:53:17 6.6 C 25 %
1549 04-01-2020 18:03:17 6.7 C 25 %
1550 04-01-2020 18:13:17 6.6 C 25 %
Sensor: Nr:Datum:Temp:Feuchte:
Aussen-T/F 1551 04-01-2020 18:23:17 6.8 C 25 %
1552 04-01-2020 18:33:17 6.7 C 25 %
1553 04-01-2020 18:43:17 6.6 C 25 %
1554 04-01-2020 18:53:17 6.5 C 25 %
1555 04-01-2020 19:03:17 6.6 C 25 %
1556 04-01-2020 19:13:17 6.7 C 25 %
1557 04-01-2020 19:23:17 6.5 C 26 %
1558 04-01-2020 19:33:17 6 C 27 %
1559 04-01-2020 19:43:17 5.8 C 30 %
1560 04-01-2020 19:53:17 5.6 C 30 %
1561 04-01-2020 20:03:17 5.5 C 31 %
1562 04-01-2020 20:13:17 5.6 C 31 %
1563 04-01-2020 20:23:18 5.7 C 30 %
1564 04-01-2020 20:33:18 5.8 C 30 %
1565 04-01-2020 20:43:18 6 C 29 %
1566 04-01-2020 20:53:17 6.1 C 29 %
1567 04-01-2020 21:03:17 5.8 C 30 %
1568 04-01-2020 21:13:17 5.5 C 33 %
1569 04-01-2020 21:23:17 5.3 C 35 %
1570 04-01-2020 21:33:17 5.3 C 38 %
1571 04-01-2020 21:43:17 5.2 C 37 %
1572 04-01-2020 21:53:18 5.3 C 40 %
1573 04-01-2020 22:03:17 5.3 C 40 %
1574 04-01-2020 22:13:17 5.3 C 39 %
1575 04-01-2020 22:23:17 5.3 C 37 %
Sensor: Nr:Datum:Temp:Feuchte:
Aussen-T/F 1576 04-01-2020 22:33:17 5.4 C 37 %
1577 04-01-2020 22:43:17 5.4 C 37 %
1578 04-01-2020 22:53:17 5.4 C 36 %
1579 04-01-2020 23:03:17 5.5 C 35 %
1580 04-01-2020 23:13:17 5.6 C 35 %
1581 04-01-2020 23:23:17 5.6 C 34 %
1582 04-01-2020 23:33:18 5.6 C 35 %
1583 04-01-2020 23:43:18 5.7 C 34 %
1584 04-01-2020 23:53:17 5.6 C 35 %
1585 05-01-2020 00:03:17 5.6 C 33 %
1586 05-01-2020 00:13:17 5.5 C 35 %
1587 05-01-2020 00:23:17 5.4 C 35 %
1588 05-01-2020 00:33:18 5.4 C 35 %
1589 05-01-2020 00:43:18 5.3 C 36 %
1590 05-01-2020 00:53:17 5.3 C 36 %
1591 05-01-2020 01:03:17 5.1 C 37 %
1592 05-01-2020 01:13:17 5 C 40 %
1593 05-01-2020 01:23:17 4.9 C 42 %
1594 05-01-2020 01:33:17 4.8 C 41 %
1595 05-01-2020 01:43:18 4.8 C 42 %
1596 05-01-2020 01:53:17 4.7 C 42 %
1597 05-01-2020 02:03:18 4.8 C 41 %
1598 05-01-2020 02:13:18 4.7 C 41 %
1599 05-01-2020 02:23:17 4.6 C 43 %
1600 05-01-2020 02:33:17 4.5 C 44 %
Sensor: Nr:Datum:Temp:Feuchte:
Aussen-T/F 1601 05-01-2020 02:43:17 4.6 C 44 %
1602 05-01-2020 02:53:17 4.6 C 42 %
1603 05-01-2020 03:03:17 4.6 C 42 %
1604 05-01-2020 03:13:17 4.6 C 41 %
1605 05-01-2020 03:23:17 4.3 C 42 %
1606 05-01-2020 03:33:17 4.3 C 43 %
1607 05-01-2020 03:43:17 4.4 C 44 %
1608 05-01-2020 03:53:17 4.5 C 44 %
1609 05-01-2020 04:03:17 4.4 C 43 %
1610 05-01-2020 04:13:17 4.4 C 43 %
1611 05-01-2020 04:23:17 4.3 C 42 %
1612 05-01-2020 04:33:17 4.3 C 43 %
1613 05-01-2020 04:43:17 4.4 C 43 %
1614 05-01-2020 04:53:17 4.4 C 42 %
1615 05-01-2020 05:03:17 4.4 C 42 %
1616 05-01-2020 05:13:17 4.4 C 42 %
1617 05-01-2020 05:23:17 4.4 C 42 %
1618 05-01-2020 05:33:18 4.5 C 43 %
1619 05-01-2020 05:43:18 4.6 C 43 %
1620 05-01-2020 05:53:17 4.5 C 43 %
1621 05-01-2020 06:03:17 4.6 C 43 %
1622 05-01-2020 06:13:17 4.6 C 43 %
1623 05-01-2020 06:23:17 4.6 C 42 %
1624 05-01-2020 06:33:17 4.7 C 41 %
1625 05-01-2020 06:43:17 4.7 C 40 %
Sensor: Nr:Datum:Temp:Feuchte:
Aussen-T/F 1626 05-01-2020 06:53:17 4.6 C 41 %
1627 05-01-2020 07:03:17 4.6 C 41 %
1628 05-01-2020 07:13:17 4.6 C 42 %
1629 05-01-2020 07:23:17 4.5 C 42 %
1630 05-01-2020 07:33:17 4.5 C 41 %
1631 05-01-2020 07:43:17 4.4 C 41 %
1632 05-01-2020 07:53:17 4.4 C 41 %
1633 05-01-2020 08:03:18 4.3 C 42 %
1634 05-01-2020 08:13:18 4.3 C 42 %
1635 05-01-2020 08:23:17 4.3 C 41 %
1636 05-01-2020 08:33:17 4.4 C 42 %
1637 05-01-2020 08:43:17 4.4 C 41 %
1638 05-01-2020 08:53:17 4.6 C 40 %
1639 05-01-2020 09:03:18 4.6 C 39 %
1640 05-01-2020 09:13:18 4.6 C 40 %
1641 05-01-2020 09:23:17 4.7 C 38 %
1642 05-01-2020 09:33:18 4.8 C 38 %
1643 05-01-2020 09:43:18 5 C 36 %
1644 05-01-2020 09:53:17 5.1 C 35 %
1645 05-01-2020 10:03:17 5.3 C 35 %
1646 05-01-2020 10:13:18 5.4 C 34 %
1647 05-01-2020 10:23:18 5.4 C 34 %
1648 05-01-2020 10:33:18 5.5 C 33 %
1649 05-01-2020 10:43:18 5.5 C 33 %
1650 05-01-2020 10:53:17 5.5 C 34 %
Sensor: Nr:Datum:Temp:Feuchte:
Aussen-T/F 1651 05-01-2020 11:03:17 5.7 C 34 %
1652 05-01-2020 11:13:17 5.7 C 33 %
1653 05-01-2020 11:23:17 5.7 C 33 %
1654 05-01-2020 11:33:17 5.9 C 32 %
1655 05-01-2020 11:43:17 5.9 C 32 %
1656 05-01-2020 11:53:17 6 C 32 %
1657 05-01-2020 12:03:17 6 C 31 %
1658 05-01-2020 12:13:17 6 C 31 %
1659 05-01-2020 12:23:17 6.1 C 31 %
1660 05-01-2020 12:33:17 6.2 C 31 %
1661 05-01-2020 12:43:17 6.2 C 31 %
1662 05-01-2020 12:53:17 6.2 C 31 %
1663 05-01-2020 13:03:17 6.3 C 31 %
1664 05-01-2020 13:13:17 6.5 C 30 %
1665 05-01-2020 13:23:17 6.5 C 30 %
1666 05-01-2020 13:33:18 6.5 C 30 %
1667 05-01-2020 13:43:18 6.6 C 30 %
1668 05-01-2020 13:53:18 6.6 C 30 %
1669 05-01-2020 14:03:18 6.7 C 30 %
1670 05-01-2020 14:13:18 6.6 C 30 %
1671 05-01-2020 14:23:18 6.7 C 30 %
1672 05-01-2020 14:33:18 6.7 C 30 %
1673 05-01-2020 14:43:18 6.7 C 30 %
1674 05-01-2020 14:53:17 6.7 C 30 %
1675 05-01-2020 15:03:18 6.6 C 30 %
Sensor: Nr:Datum:Temp:Feuchte:
Aussen-T/F 1676 05-01-2020 15:13:18 6.6 C 30 %
1677 05-01-2020 15:23:18 6.5 C 31 %
1678 05-01-2020 15:33:18 6.3 C 33 %
1679 05-01-2020 15:43:18 6.1 C 34 %
1680 05-01-2020 15:53:18 6 C 35 %
1681 05-01-2020 16:03:18 6 C 35 %
1682 05-01-2020 16:13:18 5.9 C 36 %
1683 05-01-2020 16:23:17 5.8 C 36 %
1684 05-01-2020 16:33:17 5.7 C 36 %
1685 05-01-2020 16:43:17 5.7 C 35 %
1686 05-01-2020 16:53:18 5.6 C 36 %
1687 05-01-2020 17:03:18 5.6 C 35 %
1688 05-01-2020 17:13:18 5.6 C 34 %
1689 05-01-2020 17:23:18 5.7 C 31 %
1690 05-01-2020 17:33:18 5.6 C 31 %
1691 05-01-2020 17:43:18 5.6 C 31 %
1692 05-01-2020 17:53:17 5.7 C 31 %
1693 05-01-2020 18:03:17 5.6 C 31 %
1694 05-01-2020 18:13:17 5.5 C 31 %
1695 05-01-2020 18:23:17 5.6 C 30 %
1696 05-01-2020 18:33:17 5.7 C 29 %
1697 05-01-2020 18:43:17 5.5 C 30 %
1698 05-01-2020 18:53:17 5.6 C 30 %
1699 05-01-2020 19:03:17 5.5 C 30 %
1700 05-01-2020 19:13:17 5.6 C 30 %
Sensor: Nr:Datum:Temp:Feuchte:
Aussen-T/F 1701 05-01-2020 19:23:17 5.4 C 31 %
1702 05-01-2020 19:33:17 5.3 C 31 %
1703 05-01-2020 19:43:17 5.4 C 31 %
1704 05-01-2020 19:53:18 5.3 C 31 %
1705 05-01-2020 20:03:18 5.2 C 32 %
1706 05-01-2020 20:13:18 5.5 C 29 %
1707 05-01-2020 20:23:18 5.3 C 30 %
1708 05-01-2020 20:33:18 5.3 C 30 %
1709 05-01-2020 20:43:18 5.2 C 31 %
1710 05-01-2020 20:53:18 5.2 C 31 %
1711 05-01-2020 21:03:18 5 C 32 %
1712 05-01-2020 21:13:18 5.1 C 32 %
1713 05-01-2020 21:23:18 5 C 32 %
1714 05-01-2020 21:33:17 4.9 C 34 %
1715 05-01-2020 21:43:17 4.8 C 35 %
1716 05-01-2020 21:53:17 4.8 C 35 %
1717 05-01-2020 22:03:17 4.8 C 35 %
1718 05-01-2020 22:13:17 4.8 C 35 %
1719 05-01-2020 22:23:17 4.7 C 35 %
1720 05-01-2020 22:33:17 4.7 C 35 %
1721 05-01-2020 22:43:17 4.7 C 35 %
1722 05-01-2020 22:53:17 4.6 C 36 %
1723 05-01-2020 23:03:17 4.5 C 36 %
1724 05-01-2020 23:13:17 4.4 C 37 %
1725 05-01-2020 23:23:17 4.4 C 36 %
Sensor: Nr:Datum:Temp:Feuchte:
Aussen-T/F 1726 05-01-2020 23:33:17 4.5 C 36 %
1727 05-01-2020 23:43:17 4.4 C 35 %
1728 05-01-2020 23:53:17 4.5 C 33 %
1729 06-01-2020 00:03:18 4.4 C 33 %
1730 06-01-2020 00:13:18 4.5 C 33 %
1731 06-01-2020 00:23:18 4.4 C 32 %
1732 06-01-2020 00:33:18 4.4 C 34 %
1733 06-01-2020 00:43:18 4.4 C 32 %
1734 06-01-2020 00:53:18 4.3 C 33 %
1735 06-01-2020 01:03:18 4.3 C 32 %
1736 06-01-2020 01:13:18 4.3 C 32 %
1737 06-01-2020 01:23:17 4.4 C 31 %
1738 06-01-2020 01:33:18 4.2 C 32 %
1739 06-01-2020 01:43:18 4.2 C 32 %
1740 06-01-2020 01:53:17 4.1 C 33 %
1741 06-01-2020 02:03:18 4.2 C 31 %
1742 06-01-2020 02:13:18 4.2 C 32 %
1743 06-01-2020 02:23:18 4.3 C 32 %
1744 06-01-2020 02:33:18 4.1 C 32 %
1745 06-01-2020 02:43:18 4.2 C 31 %
1746 06-01-2020 02:53:18 4.1 C 30 %
1747 06-01-2020 03:03:18 4.2 C 30 %
1748 06-01-2020 03:13:18 4.2 C 31 %
1749 06-01-2020 03:23:17 4.1 C 31 %
1750 06-01-2020 03:33:18 4.1 C 32 %
Sensor: Nr:Datum:Temp:Feuchte:
Aussen-T/F 1751 06-01-2020 03:43:18 3.9 C 32 %
1752 06-01-2020 03:53:18 4.1 C 31 %
1753 06-01-2020 04:03:18 4.1 C 31 %
1754 06-01-2020 04:13:18 4.1 C 29 %
1755 06-01-2020 04:23:18 4.1 C 30 %
1756 06-01-2020 04:33:18 3.8 C 32 %
1757 06-01-2020 04:43:18 3.8 C 34 %
1758 06-01-2020 04:53:17 3.7 C 33 %
1759 06-01-2020 05:03:18 3.8 C 33 %
1760 06-01-2020 05:13:18 3.8 C 33 %
1761 06-01-2020 05:23:18 3.5 C 35 %
1762 06-01-2020 05:33:18 3.6 C 35 %
1763 06-01-2020 05:43:18 3.6 C 35 %
1764 06-01-2020 05:53:18 3.5 C 35 %
1765 06-01-2020 06:03:18 3.5 C 33 %
1766 06-01-2020 06:13:18 3.5 C 33 %
1767 06-01-2020 06:23:18 3.3 C 35 %
1768 06-01-2020 06:33:18 3.3 C 35 %
1769 06-01-2020 06:43:18 3.2 C 36 %
1770 06-01-2020 06:53:18 3 C 36 %
1771 06-01-2020 07:03:18 3 C 35 %
1772 06-01-2020 07:13:18 2.8 C 36 %
1773 06-01-2020 07:23:18 2.9 C 37 %
1774 06-01-2020 07:33:17 2.7 C 38 %
1775 06-01-2020 07:43:17 2.6 C 38 %
Sensor: Nr:Datum:Temp:Feuchte:
Aussen-T/F 1776 06-01-2020 07:53:18 2.6 C 38 %
1777 06-01-2020 08:03:17 2.7 C 35 %
1778 06-01-2020 08:13:17 2.6 C 35 %
1779 06-01-2020 08:23:17 2.4 C 35 %
1780 06-01-2020 08:33:17 2.2 C 36 %
1781 06-01-2020 08:43:17 2.3 C 38 %
1782 06-01-2020 08:53:17 2.4 C 38 %
1783 06-01-2020 09:03:17 2.6 C 38 %
1784 06-01-2020 09:13:17 2.8 C 36 %
1785 06-01-2020 09:23:18 3 C 35 %
1786 06-01-2020 09:33:18 3.2 C 32 %
1787 06-01-2020 09:43:18 2.7 C 33 %
1788 06-01-2020 09:53:17 2.7 C 34 %
1789 06-01-2020 10:03:18 3.4 C 35 %
1790 06-01-2020 10:13:18 3.3 C 31 %
1791 06-01-2020 10:23:17 3 C 31 %
1792 06-01-2020 10:33:18 2.7 C 32 %
1793 06-01-2020 10:43:18 2.4 C 34 %
1794 06-01-2020 10:53:17 1.9 C 37 %
1795 06-01-2020 11:03:17 1.6 C 40 %
1796 06-01-2020 11:13:17 1.6 C 41 %
1797 06-01-2020 11:23:17 1.7 C 42 %
1798 06-01-2020 11:33:17 2.2 C 40 %
1799 06-01-2020 11:43:17 2 C 37 %
1800 06-01-2020 11:53:17 1.9 C 40 %
Sensor: Nr:Datum:Temp:Feuchte:
Aussen-T/F 1801 06-01-2020 12:03:17 2 C 38 %
1802 06-01-2020 12:13:17 2 C 38 %
1803 06-01-2020 12:23:18 2.1 C 39 %
1804 06-01-2020 12:33:18 2.1 C 38 %
1805 06-01-2020 12:43:18 2.3 C 38 %
1806 06-01-2020 12:53:17 2.3 C 38 %
1807 06-01-2020 13:03:18 2.5 C 38 %
1808 06-01-2020 13:13:18 2.4 C 38 %
1809 06-01-2020 13:23:17 2.1 C 39 %
1810 06-01-2020 13:33:17 2.4 C 40 %
1811 06-01-2020 13:43:17 2.7 C 39 %
1812 06-01-2020 13:53:17 2.6 C 37 %
1813 06-01-2020 14:03:17 2.5 C 38 %
1814 06-01-2020 14:13:17 2.6 C 39 %
1815 06-01-2020 14:23:17 2.5 C 39 %
1816 06-01-2020 14:33:18 2.4 C 39 %
1817 06-01-2020 14:43:18 2.8 C 40 %
1818 06-01-2020 14:53:17 2.7 C 40 %
1819 06-01-2020 15:03:18 2.6 C 39 %
1820 06-01-2020 15:13:18 2.8 C 38 %
1821 06-01-2020 15:23:18 2.8 C 39 %
1822 06-01-2020 15:33:18 2.7 C 39 %
1823 06-01-2020 15:43:18 2.6 C 40 %
1824 06-01-2020 15:53:18 2.4 C 39 %
1825 06-01-2020 16:03:18 2 C 40 %
Sensor: Nr:Datum:Temp:Feuchte:
Aussen-T/F 1826 06-01-2020 16:13:18 1.7 C 42 %
1827 06-01-2020 16:23:17 1.8 C 43 %
1828 06-01-2020 16:33:17 1.8 C 42 %
1829 06-01-2020 16:43:17 1.2 C 41 %
1830 06-01-2020 16:53:18 1.2 C 44 %
1831 06-01-2020 17:03:18 1.3 C 43 %
1832 06-01-2020 17:13:18 0.5 C 43 %
1833 06-01-2020 17:23:18 0.8 C 45 %
1834 06-01-2020 17:33:18 0.8 C 45 %
1835 06-01-2020 17:43:18 0.5 C 43 %
1836 06-01-2020 17:53:17 0.1 C 44 %
1837 06-01-2020 18:03:18 0 C 45 %
1838 06-01-2020 18:13:18 -0.1 C 45 %
1839 06-01-2020 18:23:18 0 C 45 %
1840 06-01-2020 18:33:17 -0.4 C 45 %
1841 06-01-2020 18:43:17 -0.1 C 45 %
1842 06-01-2020 18:53:17 -0.2 C 45 %
1843 06-01-2020 19:03:18 -0.2 C 45 %
1844 06-01-2020 19:13:18 -0.5 C 44 %
1845 06-01-2020 19:23:17 -0.6 C 44 %
1846 06-01-2020 19:33:17 -1.3 C 43 %
1847 06-01-2020 19:43:17 -1 C 45 %
1848 06-01-2020 19:53:18 -1.1 C 45 %
1849 06-01-2020 20:03:18 -1.5 C 44 %
1850 06-01-2020 20:13:18 -1 C 45 %
Sensor: Nr:Datum:Temp:Feuchte:
Aussen-T/F 1851 06-01-2020 20:23:18 -0.8 C 45 %
1852 06-01-2020 20:33:18 -0.7 C 45 %
1853 06-01-2020 20:43:18 -0.8 C 45 %
1854 06-01-2020 20:53:18 -0.9 C 44 %
1855 06-01-2020 21:03:18 -1.1 C 44 %
1856 06-01-2020 21:13:18 -1.1 C 44 %
1857 06-01-2020 21:23:18 -1.3 C 44 %
1858 06-01-2020 21:33:18 -1.2 C 45 %
1859 06-01-2020 21:43:18 -0.8 C 45 %
1860 06-01-2020 21:53:18 -0.5 C 46 %
1861 06-01-2020 22:03:18 -0.3 C 46 %
1862 06-01-2020 22:13:18 0.2 C 46 %
1863 06-01-2020 22:23:17 0.5 C 45 %
1864 06-01-2020 22:33:17 0.6 C 42 %
1865 06-01-2020 22:43:17 0.5 C 42 %
1866 06-01-2020 22:53:18 0.6 C 42 %
1867 06-01-2020 23:03:18 0.7 C 44 %
1868 06-01-2020 23:13:18 0.8 C 44 %
1869 06-01-2020 23:23:18 0.7 C 43 %
1870 06-01-2020 23:33:18 0.6 C 44 %
1871 06-01-2020 23:43:18 0.8 C 45 %
1872 06-01-2020 23:53:18 1 C 43 %
1873 07-01-2020 00:03:18 1.2 C 43 %
1874 07-01-2020 00:13:18 1.8 C 39 %
1875 07-01-2020 00:23:17 2 C 37 %
Sensor: Nr:Datum:Temp:Feuchte:
Aussen-T/F 1876 07-01-2020 00:33:17 1.8 C 39 %
1877 07-01-2020 00:43:17 2.3 C 36 %
1878 07-01-2020 00:53:17 2.5 C 35 %
1879 07-01-2020 01:03:17 2.5 C 36 %
1880 07-01-2020 01:13:17 2.6 C 35 %
1881 07-01-2020 01:23:17 2.8 C 35 %
1882 07-01-2020 01:33:17 3 C 34 %
1883 07-01-2020 01:43:17 3 C 34 %
1884 07-01-2020 01:53:18 3 C 35 %
1885 07-01-2020 02:03:18 3.3 C 33 %
1886 07-01-2020 02:13:18 3.1 C 33 %
1887 07-01-2020 02:23:17 2.8 C 37 %
1888 07-01-2020 02:33:17 2.8 C 38 %
1889 07-01-2020 02:43:17 2.8 C 38 %
1890 07-01-2020 02:53:18 2.8 C 38 %
1891 07-01-2020 03:03:18 2.8 C 38 %
1892 07-01-2020 03:13:18 2.7 C 39 %
1893 07-01-2020 03:23:18 2.7 C 40 %
1894 07-01-2020 03:33:18 2.7 C 40 %
1895 07-01-2020 03:43:18 2.7 C 39 %
1896 07-01-2020 03:53:18 2.9 C 39 %
1897 07-01-2020 04:03:18 2.9 C 40 %
1898 07-01-2020 04:13:18 3 C 37 %
1899 07-01-2020 04:23:18 3 C 37 %
1900 07-01-2020 04:33:18 3.2 C 36 %
Sensor: Nr:Datum:Temp:Feuchte:
Aussen-T/F 1901 07-01-2020 04:43:18 3.2 C 36 %
1902 07-01-2020 04:53:18 3.3 C 38 %
1903 07-01-2020 05:03:18 3.5 C 37 %
1904 07-01-2020 05:13:18 3.3 C 37 %
1905 07-01-2020 05:23:17 3.4 C 37 %
1906 07-01-2020 05:33:17 3.5 C 37 %
1907 07-01-2020 05:43:17 3.5 C 38 %
1908 07-01-2020 05:53:18 3.6 C 37 %
1909 07-01-2020 06:03:18 3.6 C 37 %
1910 07-01-2020 06:13:18 3.7 C 36 %
1911 07-01-2020 06:23:18 3.9 C 36 %
1912 07-01-2020 06:33:18 4 C 35 %
1913 07-01-2020 06:43:18 4.3 C 34 %
1914 07-01-2020 06:53:17 4.3 C 34 %
1915 07-01-2020 07:03:18 4.3 C 34 %
1916 07-01-2020 07:13:18 4.4 C 34 %
1917 07-01-2020 07:23:18 4.4 C 34 %
1918 07-01-2020 07:33:18 4.4 C 34 %
1919 07-01-2020 07:43:18 4.3 C 34 %
1920 07-01-2020 07:53:18 4.3 C 35 %
1921 07-01-2020 08:03:18 4.4 C 35 %
1922 07-01-2020 08:13:18 4.4 C 35 %
1923 07-01-2020 08:23:17 4.3 C 35 %
1924 07-01-2020 08:33:17 3.9 C 37 %
1925 07-01-2020 08:43:17 3.6 C 40 %
Sensor: Nr:Datum:Temp:Feuchte:
Aussen-T/F 1926 07-01-2020 08:53:17 3.8 C 41 %
1927 07-01-2020 09:03:18 4 C 38 %
1928 07-01-2020 09:13:18 3.9 C 40 %
1929 07-01-2020 09:23:17 4 C 37 %
1930 07-01-2020 09:33:17 4.2 C 37 %
1931 07-01-2020 09:43:17 4.5 C 35 %
1932 07-01-2020 09:53:18 4.6 C 35 %
1933 07-01-2020 10:03:17 4.8 C 35 %
1934 07-01-2020 10:13:17 4.9 C 35 %
1935 07-01-2020 10:23:17 5.1 C 33 %
1936 07-01-2020 10:33:17 5.4 C 33 %
1937 07-01-2020 10:43:17 5.5 C 33 %
1938 07-01-2020 10:53:17 5.6 C 33 %
1939 07-01-2020 11:03:17 5.9 C 32 %
1940 07-01-2020 11:13:17 6.1 C 31 %
1941 07-01-2020 11:23:18 6.3 C 31 %
1942 07-01-2020 11:33:18 6.3 C 31 %
1943 07-01-2020 11:43:18 6.4 C 31 %
1944 07-01-2020 11:53:17 6.4 C 30 %
1945 07-01-2020 12:03:18 6.6 C 30 %
1946 07-01-2020 12:13:18 6.8 C 30 %
1947 07-01-2020 12:23:18 6.8 C 29 %
1948 07-01-2020 12:33:17 6.7 C 29 %
1949 07-01-2020 12:43:17 6.5 C 30 %
1950 07-01-2020 12:53:18 6.5 C 30 %
Sensor: Nr:Datum:Temp:Feuchte:
Aussen-T/F 1951 07-01-2020 13:03:17 6.8 C 29 %
1952 07-01-2020 13:13:17 7 C 27 %
1953 07-01-2020 13:23:17 6.9 C 29 %
1954 07-01-2020 13:33:17 6.9 C 28 %
1955 07-01-2020 13:43:17 6.8 C 29 %
1956 07-01-2020 13:53:17 7 C 27 %
1957 07-01-2020 14:03:18 7.1 C 27 %
1958 07-01-2020 14:13:18 7 C 27 %
1959 07-01-2020 14:23:17 7.1 C 27 %
1960 07-01-2020 14:33:17 7.3 C 26 %
1961 07-01-2020 14:43:17 6.8 C 28 %
1962 07-01-2020 14:53:17 7.2 C 26 %
1963 07-01-2020 15:03:17 6.7 C 28 %
1964 07-01-2020 15:13:17 6.4 C 28 %
1965 07-01-2020 15:23:17 6.3 C 28 %
1966 07-01-2020 15:33:17 6 C 29 %
1967 07-01-2020 15:43:17 5.7 C 30 %
1968 07-01-2020 15:53:17 5.5 C 31 %
1969 07-01-2020 16:03:17 5.3 C 31 %
1970 07-01-2020 16:13:17 5.4 C 31 %
1971 07-01-2020 16:23:17 5.4 C 31 %
1972 07-01-2020 16:33:17 4.5 C 35 %
1973 07-01-2020 16:43:17 4 C 37 %
1974 07-01-2020 16:53:17 4.1 C 37 %
1975 07-01-2020 17:03:18 3.6 C 40 %
Sensor: Nr:Datum:Temp:Feuchte:
Aussen-T/F 1976 07-01-2020 17:13:18 3.5 C 40 %
1977 07-01-2020 17:23:18 3.3 C 41 %
1978 07-01-2020 17:33:18 3.3 C 42 %
1979 07-01-2020 17:43:18 3.1 C 41 %
1980 07-01-2020 17:53:17 2.9 C 43 %
1981 07-01-2020 18:03:18 3.1 C 43 %
1982 07-01-2020 18:13:18 3.2 C 43 %
1983 07-01-2020 18:23:18 2.9 C 43 %
1984 07-01-2020 18:33:18 2.7 C 43 %
1985 07-01-2020 18:43:18 2.9 C 44 %
1986 07-01-2020 18:53:18 2.7 C 43 %
1987 07-01-2020 19:03:17 2.8 C 44 %
1988 07-01-2020 19:13:17 2.5 C 43 %
1989 07-01-2020 19:23:17 2.5 C 43 %
1990 07-01-2020 19:33:18 2.5 C 43 %
1991 07-01-2020 19:43:18 2.5 C 43 %
1992 07-01-2020 19:53:17 3 C 43 %
1993 07-01-2020 20:03:18 3.6 C 42 %
1994 07-01-2020 20:13:18 4.1 C 38 %
1995 07-01-2020 20:23:18 3.6 C 38 %
1996 07-01-2020 20:33:18 3.6 C 39 %
1997 07-01-2020 20:43:18 4 C 37 %
1998 07-01-2020 20:53:17 4.7 C 35 %
1999 07-01-2020 21:03:18 5.1 C 32 %
2000 07-01-2020 21:13:18 5.1 C 32 %
Sensor: Nr:Datum:Temp:Feuchte:
Aussen-T/F 2001 07-01-2020 21:23:18 5.3 C 31 %
2002 07-01-2020 21:33:18 5.7 C 31 %
2003 07-01-2020 21:43:18 5.7 C 30 %
2004 07-01-2020 21:53:17 5.7 C 30 %
2005 07-01-2020 22:03:18 6 C 28 %
2006 07-01-2020 22:13:18 5.8 C 29 %
2007 07-01-2020 22:24:17 5.9 C 29 %
2008 07-01-2020 22:33:17 5.7 C 29 %
2009 07-01-2020 22:43:17 5.7 C 30 %
2010 07-01-2020 22:53:17 5.9 C 29 %
2011 07-01-2020 23:03:18 6 C 28 %
2012 07-01-2020 23:13:18 6 C 28 %
2013 07-01-2020 23:23:18 6.1 C 28 %
2014 07-01-2020 23:33:18 5.9 C 28 %
2015 07-01-2020 23:43:18 5.6 C 30 %
2016 07-01-2020 23:53:18 5.7 C 29 %
2017 08-01-2020 00:04:17 5.7 C 29 %
2018 08-01-2020 00:14:17 5.4 C 30 %
2019 08-01-2020 00:24:17 5.6 C 29 %
2020 08-01-2020 00:34:17 5.6 C 28 %
2021 08-01-2020 00:44:17 5.5 C 29 %
2022 08-01-2020 00:53:18 5.7 C 28 %
2023 08-01-2020 01:03:18 5.4 C 28 %
2024 08-01-2020 01:13:18 5.6 C 28 %
2025 08-01-2020 01:24:17 5.4 C 28 %
Sensor: Nr:Datum:Temp:Feuchte:
Aussen-T/F 2026 08-01-2020 01:33:18 5.4 C 28 %
2027 08-01-2020 01:43:18 5.3 C 28 %
2028 08-01-2020 01:53:17 4.7 C 30 %
2029 08-01-2020 02:03:18 4.7 C 30 %
2030 08-01-2020 02:13:18 5 C 30 %
2031 08-01-2020 02:23:18 5 C 30 %
2032 08-01-2020 02:33:18 5.3 C 30 %
2033 08-01-2020 02:43:18 5.4 C 30 %
2034 08-01-2020 02:53:18 5.5 C 30 %
2035 08-01-2020 03:03:18 5.9 C 30 %
2036 08-01-2020 03:13:18 5.8 C 30 %
2037 08-01-2020 03:23:18 5.9 C 30 %
2038 08-01-2020 03:33:18 5.8 C 30 %
2039 08-01-2020 03:43:18 6 C 30 %
2040 08-01-2020 03:53:17 5.9 C 30 %
2041 08-01-2020 04:03:18 5.9 C 30 %
2042 08-01-2020 04:13:18 5.8 C 31 %
2043 08-01-2020 04:23:18 5.8 C 31 %
2044 08-01-2020 04:33:18 5.7 C 32 %
2045 08-01-2020 04:43:18 5.7 C 32 %
2046 08-01-2020 04:54:17 5.6 C 33 %
2047 08-01-2020 05:04:17 5.6 C 33 %
2048 08-01-2020 05:14:17 5.7 C 33 %
2049 08-01-2020 05:24:17 5.8 C 34 %
2050 08-01-2020 05:34:17 5.7 C 34 %
Sensor: Nr:Datum:Temp:Feuchte:
Aussen-T/F 2051 08-01-2020 05:44:17 5.8 C 35 %
2052 08-01-2020 05:54:17 5.8 C 35 %
2053 08-01-2020 06:04:17 6 C 35 %
2054 08-01-2020 06:14:17 5.9 C 35 %
2055 08-01-2020 06:24:17 6 C 35 %
2056 08-01-2020 06:34:17 6.2 C 35 %
2057 08-01-2020 06:44:17 6.1 C 36 %
2058 08-01-2020 06:54:17 6 C 39 %
2059 08-01-2020 07:04:17 5.8 C 41 %
2060 08-01-2020 07:14:17 5.9 C 42 %
2061 08-01-2020 07:24:18 6 C 42 %
2062 08-01-2020 07:34:18 6.1 C 42 %
2063 08-01-2020 07:44:18 6.2 C 42 %
2064 08-01-2020 07:54:17 6.2 C 42 %
2065 08-01-2020 08:04:17 6.3 C 42 %
2066 08-01-2020 08:14:17 6.2 C 42 %
2067 08-01-2020 08:24:17 6.2 C 42 %
2068 08-01-2020 08:34:18 6.1 C 42 %
2069 08-01-2020 08:44:18 6.6 C 41 %
2070 08-01-2020 08:54:17 6.7 C 39 %
2071 08-01-2020 09:04:17 6.8 C 39 %
2072 08-01-2020 09:14:17 6.8 C 39 %
2073 08-01-2020 09:24:17 6.7 C 39 %
2074 08-01-2020 09:34:17 6.7 C 40 %
2075 08-01-2020 09:44:17 6.9 C 39 %
Sensor: Nr:Datum:Temp:Feuchte:
Aussen-T/F 2076 08-01-2020 09:54:17 7.1 C 38 %
2077 08-01-2020 10:04:17 7.1 C 38 %
2078 08-01-2020 10:14:17 7.2 C 37 %
2079 08-01-2020 10:24:17 7.4 C 36 %
2080 08-01-2020 10:34:17 7.3 C 36 %
2081 08-01-2020 10:44:17 7.4 C 36 %
2082 08-01-2020 10:54:17 7.5 C 35 %
2083 08-01-2020 11:04:17 7.7 C 35 %
2084 08-01-2020 11:14:17 7.8 C 35 %
2085 08-01-2020 11:24:17 7.9 C 34 %
2086 08-01-2020 11:34:17 7.8 C 35 %
2087 08-01-2020 11:44:17 7.9 C 34 %
2088 08-01-2020 11:54:17 7.7 C 35 %
2089 08-01-2020 12:04:17 7.6 C 36 %
2090 08-01-2020 12:14:17 7.7 C 36 %
2091 08-01-2020 12:24:16 7.9 C 35 %
2092 08-01-2020 12:34:17 8 C 34 %
2093 08-01-2020 12:44:17 8.1 C 34 %
2094 08-01-2020 12:54:17 8.8 C 33 %
2095 08-01-2020 13:04:17 9 C 31 %
2096 08-01-2020 13:14:17 8.8 C 32 %
2097 08-01-2020 13:24:17 8.7 C 32 %
2098 08-01-2020 13:34:17 8.8 C 32 %
2099 08-01-2020 13:44:17 8.8 C 32 %
2100 08-01-2020 13:54:17 8.7 C 32 %
Sensor: Nr:Datum:Temp:Feuchte:
Aussen-T/F 2101 08-01-2020 14:04:16 8.9 C 32 %
2102 08-01-2020 14:14:16 9 C 32 %
2103 08-01-2020 14:24:16 9 C 32 %
2104 08-01-2020 14:34:16 9 C 32 %
2105 08-01-2020 14:44:16 9.1 C 32 %
2106 08-01-2020 14:54:16 9.3 C 31 %
2107 08-01-2020 15:04:16 9.4 C 31 %
2108 08-01-2020 15:14:16 9.4 C 31 %
2109 08-01-2020 15:24:16 9.4 C 31 %
2110 08-01-2020 15:34:16 9.3 C 32 %
2111 08-01-2020 15:44:16 9.3 C 32 %
2112 08-01-2020 15:54:16 9.4 C 32 %
2113 08-01-2020 16:04:17 9.3 C 32 %
2114 08-01-2020 16:14:17 9.3 C 32 %
2115 08-01-2020 16:24:17 9.2 C 33 %
2116 08-01-2020 16:34:17 9.2 C 33 %
2117 08-01-2020 16:44:17 9.3 C 33 %
2118 08-01-2020 16:54:17 9.3 C 34 %
2119 08-01-2020 17:04:17 9.3 C 34 %
2120 08-01-2020 17:14:17 9.3 C 34 %
2121 08-01-2020 17:24:17 9.3 C 34 %
2122 08-01-2020 17:34:17 9.2 C 35 %
2123 08-01-2020 17:44:17 9.2 C 35 %
2124 08-01-2020 17:54:17 9.1 C 35 %
2125 08-01-2020 18:04:17 9.2 C 35 %
Sensor: Nr:Datum:Temp:Feuchte:
Aussen-T/F 2126 08-01-2020 18:14:17 9.1 C 36 %
2127 08-01-2020 18:24:17 9.1 C 36 %
2128 08-01-2020 18:34:17 9.2 C 35 %
2129 08-01-2020 18:44:17 9.4 C 35 %
2130 08-01-2020 18:54:17 9.4 C 35 %
2131 08-01-2020 19:04:17 9.5 C 36 %
2132 08-01-2020 19:14:17 9.6 C 35 %
2133 08-01-2020 19:24:17 9.7 C 35 %
2134 08-01-2020 19:34:17 9.6 C 35 %
2135 08-01-2020 19:44:17 9.5 C 35 %
2136 08-01-2020 19:54:17 9.3 C 36 %
2137 08-01-2020 20:04:17 9.7 C 36 %
2138 08-01-2020 20:14:17 9.7 C 35 %
2139 08-01-2020 20:24:17 9.9 C 35 %
2140 08-01-2020 20:34:17 9.8 C 35 %
2141 08-01-2020 20:44:17 9.9 C 35 %
2142 08-01-2020 20:54:16 9.9 C 35 %
2143 08-01-2020 21:04:17 10 C 35 %
2144 08-01-2020 21:14:17 9.8 C 35 %
2145 08-01-2020 21:24:17 9.8 C 35 %
2146 08-01-2020 21:34:17 9.9 C 36 %
2147 08-01-2020 21:44:17 10 C 35 %
2148 08-01-2020 21:54:16 9.6 C 37 %
2149 08-01-2020 22:04:16 9.5 C 37 %
2150 08-01-2020 22:14:16 9.6 C 38 %
Sensor: Nr:Datum:Temp:Feuchte:
Aussen-T/F 2151 08-01-2020 22:24:16 9.9 C 36 %
2152 08-01-2020 22:34:16 9.8 C 36 %
2153 08-01-2020 22:44:16 9.6 C 37 %
2154 08-01-2020 22:54:16 9.6 C 38 %
2155 08-01-2020 23:04:16 9.7 C 38 %
2156 08-01-2020 23:14:16 9.5 C 38 %
2157 08-01-2020 23:24:16 9.5 C 39 %
2158 08-01-2020 23:34:16 9.5 C 39 %
2159 08-01-2020 23:44:16 9.5 C 39 %
2160 08-01-2020 23:54:16 9.5 C 40 %
2161 09-01-2020 00:04:16 9.1 C 40 %
2162 09-01-2020 00:14:16 9.2 C 40 %
2163 09-01-2020 00:24:16 9.2 C 40 %
2164 09-01-2020 00:34:16 9.1 C 41 %
2165 09-01-2020 00:44:16 9 C 41 %
2166 09-01-2020 00:54:16 9 C 41 %
2167 09-01-2020 01:04:16 9.1 C 42 %
2168 09-01-2020 01:14:16 9 C 41 %
2169 09-01-2020 01:24:16 9 C 42 %
2170 09-01-2020 01:34:16 8.9 C 42 %
2171 09-01-2020 01:44:16 8.9 C 42 %
2172 09-01-2020 01:54:16 8.9 C 42 %
2173 09-01-2020 02:04:16 8.9 C 42 %
2174 09-01-2020 02:14:16 8.7 C 42 %
2175 09-01-2020 02:24:16 8.8 C 42 %
Sensor: Nr:Datum:Temp:Feuchte:
Aussen-T/F 2176 09-01-2020 02:34:16 8.7 C 42 %
2177 09-01-2020 02:44:16 8.8 C 42 %
2178 09-01-2020 02:54:18 8.8 C 41 %
2179 09-01-2020 03:04:18 8.8 C 40 %
2180 09-01-2020 03:14:18 8.7 C 40 %
2181 09-01-2020 03:24:17 8.7 C 40 %
2182 09-01-2020 03:34:17 8.7 C 40 %
2183 09-01-2020 03:44:17 8.6 C 40 %
2184 09-01-2020 03:54:17 8.5 C 40 %
2185 09-01-2020 04:04:17 8.4 C 41 %
2186 09-01-2020 04:14:17 8.5 C 42 %
2187 09-01-2020 04:24:17 8.5 C 42 %
2188 09-01-2020 04:34:17 8.5 C 42 %
2189 09-01-2020 04:44:17 8.6 C 42 %
2190 09-01-2020 04:54:17 8.5 C 42 %
2191 09-01-2020 05:04:17 8.5 C 42 %
2192 09-01-2020 05:14:17 8.5 C 42 %
2193 09-01-2020 05:24:17 8.5 C 42 %
2194 09-01-2020 05:34:17 8.5 C 41 %
2195 09-01-2020 05:44:17 8.5 C 42 %
2196 09-01-2020 05:54:18 8.5 C 42 %
2197 09-01-2020 06:04:18 8.5 C 41 %
2198 09-01-2020 06:14:18 8.5 C 41 %
2199 09-01-2020 06:24:18 8.6 C 41 %
2200 09-01-2020 06:34:18 8.6 C 41 %
Sensor: Nr:Datum:Temp:Feuchte:
Aussen-T/F 2201 09-01-2020 06:44:18 8.6 C 41 %
2202 09-01-2020 06:54:18 8.7 C 41 %
2203 09-01-2020 07:04:18 8.7 C 41 %
2204 09-01-2020 07:14:18 8.8 C 41 %
2205 09-01-2020 07:24:18 8.8 C 41 %
2206 09-01-2020 07:34:18 9 C 41 %
2207 09-01-2020 07:44:18 9 C 41 %
2208 09-01-2020 07:54:18 9 C 41 %
2209 09-01-2020 08:04:18 9 C 41 %
2210 09-01-2020 08:14:18 9 C 41 %
2211 09-01-2020 08:24:18 9.3 C 41 %
2212 09-01-2020 08:34:18 9.2 C 41 %
2213 09-01-2020 08:44:18 9.5 C 41 %
2214 09-01-2020 08:54:18 9.6 C 41 %
2215 09-01-2020 09:04:18 9.8 C 40 %
2216 09-01-2020 09:14:18 10 C 40 %
2217 09-01-2020 09:24:18 9.8 C 40 %
2218 09-01-2020 09:34:17 9.8 C 39 %
2219 09-01-2020 09:44:17 10.1 C 39 %
2220 09-01-2020 09:54:17 10.3 C 37 %
2221 09-01-2020 10:04:17 10.7 C 35 %
2222 09-01-2020 10:14:17 10.8 C 35 %
2223 09-01-2020 10:24:17 11.1 C 33 %
2224 09-01-2020 10:34:18 11.4 C 32 %
2225 09-01-2020 10:44:18 11.5 C 32 %
Sensor: Nr:Datum:Temp:Feuchte:
Aussen-T/F 2226 09-01-2020 10:54:17 11.6 C 32 %
2227 09-01-2020 11:04:18 11.8 C 31 %
2228 09-01-2020 11:14:18 12 C 30 %
2229 09-01-2020 11:24:18 12.2 C 30 %
2230 09-01-2020 11:34:18 12.3 C 30 %
2231 09-01-2020 11:44:18 12.5 C 30 %
2232 09-01-2020 11:54:17 12.7 C 29 %
2233 09-01-2020 12:04:17 12.8 C 29 %
2234 09-01-2020 12:14:17 12.9 C 28 %
2235 09-01-2020 12:24:17 13 C 27 %
2236 09-01-2020 12:34:17 13 C 27 %
2237 09-01-2020 12:44:17 13.1 C 27 %
2238 09-01-2020 12:54:17 13.2 C 27 %
2239 09-01-2020 13:04:17 13.2 C 27 %
2240 09-01-2020 13:14:17 13.2 C 27 %
2241 09-01-2020 13:24:17 13.2 C 26 %
2242 09-01-2020 13:34:18 13.3 C 27 %
2243 09-01-2020 13:44:18 13.3 C 26 %
2244 09-01-2020 13:54:18 13.1 C 26 %
2245 09-01-2020 14:04:18 13 C 26 %
2246 09-01-2020 14:14:18 12.7 C 28 %
2247 09-01-2020 14:24:17 12.3 C 29 %
2248 09-01-2020 14:34:17 12.2 C 29 %
2249 09-01-2020 14:44:17 12.1 C 30 %
2250 09-01-2020 14:54:17 12.2 C 30 %
Sensor: Nr:Datum:Temp:Feuchte:
Aussen-T/F 2251 09-01-2020 15:04:17 12.3 C 30 %
2252 09-01-2020 15:14:18 12.1 C 29 %
2253 09-01-2020 15:24:18 12.4 C 28 %
2254 09-01-2020 15:34:17 12.4 C 29 %
2255 09-01-2020 15:44:17 12.4 C 29 %
2256 09-01-2020 15:54:17 12.4 C 29 %
2257 09-01-2020 16:04:17 12.4 C 29 %
2258 09-01-2020 16:14:17 12.5 C 28 %
2259 09-01-2020 16:24:17 12.1 C 29 %
2260 09-01-2020 16:34:17 12.3 C 28 %
2261 09-01-2020 16:44:17 12.2 C 29 %
2262 09-01-2020 16:54:17 12 C 29 %
2263 09-01-2020 17:04:17 12.2 C 29 %
2264 09-01-2020 17:14:17 12.3 C 28 %
2265 09-01-2020 17:24:18 12.1 C 28 %
2266 09-01-2020 17:34:17 12.1 C 28 %
2267 09-01-2020 17:44:17 12 C 28 %
2268 09-01-2020 17:54:18 11.7 C 30 %
2269 09-01-2020 18:04:18 11.4 C 30 %
2270 09-01-2020 18:14:18 11.3 C 31 %
2271 09-01-2020 18:24:17 10.9 C 32 %
2272 09-01-2020 18:34:17 11.1 C 30 %
2273 09-01-2020 18:44:17 11 C 30 %
2274 09-01-2020 18:54:17 11 C 30 %
2275 09-01-2020 19:04:17 11.4 C 29 %
Sensor: Nr:Datum:Temp:Feuchte:
Aussen-T/F 2276 09-01-2020 19:14:17 11.3 C 29 %
2277 09-01-2020 19:24:17 11 C 30 %
2278 09-01-2020 19:34:18 10.7 C 31 %
2279 09-01-2020 19:44:18 10.8 C 31 %
2280 09-01-2020 19:54:17 10.1 C 35 %
2281 09-01-2020 20:04:18 10 C 37 %
2282 09-01-2020 20:14:18 9.7 C 37 %
2283 09-01-2020 20:24:17 9.7 C 35 %
2284 09-01-2020 20:34:17 9.9 C 37 %
2285 09-01-2020 20:44:17 9.7 C 36 %
2286 09-01-2020 20:54:17 9.6 C 35 %
2287 09-01-2020 21:04:17 9.4 C 37 %
2288 09-01-2020 21:14:18 9.3 C 38 %
2289 09-01-2020 21:24:18 9.2 C 39 %
2290 09-01-2020 21:34:18 9.1 C 40 %
2291 09-01-2020 21:44:18 9.3 C 37 %
2292 09-01-2020 21:54:17 9.2 C 37 %
2293 09-01-2020 22:04:18 9.2 C 38 %
2294 09-01-2020 22:14:18 9.2 C 38 %
2295 09-01-2020 22:24:17 9.2 C 38 %
2296 09-01-2020 22:34:18 9.2 C 38 %
2297 09-01-2020 22:44:18 9.3 C 36 %
2298 09-01-2020 22:54:18 9.4 C 34 %
2299 09-01-2020 23:04:18 9.8 C 32 %
2300 09-01-2020 23:14:18 9.8 C 31 %
Sensor: Nr:Datum:Temp:Feuchte:
Aussen-T/F 2301 09-01-2020 23:24:18 9.7 C 31 %
2302 09-01-2020 23:34:18 9.6 C 32 %
2303 09-01-2020 23:44:18 10 C 30 %
2304 09-01-2020 23:54:17 10.2 C 30 %
2305 10-01-2020 00:04:17 10.1 C 30 %
2306 10-01-2020 00:14:17 10.1 C 30 %
2307 10-01-2020 00:24:17 9.9 C 30 %
2308 10-01-2020 00:34:17 9.8 C 31 %
2309 10-01-2020 00:44:17 9.6 C 32 %
2310 10-01-2020 00:54:17 9.5 C 32 %
2311 10-01-2020 01:04:17 9.9 C 30 %
2312 10-01-2020 01:14:17 9.7 C 31 %
2313 10-01-2020 01:24:17 9.7 C 31 %
2314 10-01-2020 01:34:17 9.6 C 31 %
2315 10-01-2020 01:44:17 9.3 C 31 %
2316 10-01-2020 01:54:17 9.6 C 31 %
2317 10-01-2020 02:04:17 9.5 C 31 %
2318 10-01-2020 02:14:17 9.7 C 31 %
2319 10-01-2020 02:24:18 9.7 C 30 %
2320 10-01-2020 02:34:17 9.8 C 30 %
2321 10-01-2020 02:44:17 9.8 C 30 %
2322 10-01-2020 02:54:18 9.6 C 30 %
2323 10-01-2020 03:04:17 10.1 C 29 %
2324 10-01-2020 03:14:17 9.8 C 30 %
2325 10-01-2020 03:24:17 9.8 C 30 %
Sensor: Nr:Datum:Temp:Feuchte:
Aussen-T/F 2326 10-01-2020 03:34:18 10.1 C 28 %
2327 10-01-2020 03:44:18 10 C 27 %
2328 10-01-2020 03:54:17 10 C 27 %
2329 10-01-2020 04:04:18 10.1 C 26 %
2330 10-01-2020 04:14:18 10.2 C 26 %
2331 10-01-2020 04:24:18 10 C 26 %
2332 10-01-2020 04:34:18 9.9 C 26 %
2333 10-01-2020 04:44:18 9.8 C 26 %
2334 10-01-2020 04:54:17 9.7 C 26 %
2335 10-01-2020 05:04:18 9.5 C 26 %
2336 10-01-2020 05:14:18 9.8 C 26 %
2337 10-01-2020 05:24:18 9.7 C 26 %
2338 10-01-2020 05:34:18 9.1 C 27 %
2339 10-01-2020 05:44:18 9.2 C 27 %
2340 10-01-2020 05:54:18 9.3 C 27 %
2341 10-01-2020 06:04:18 9.2 C 27 %
2342 10-01-2020 06:14:18 8.9 C 28 %
2343 10-01-2020 06:24:18 8.3 C 32 %
2344 10-01-2020 06:34:17 8 C 36 %
2345 10-01-2020 06:44:17 8 C 39 %
2346 10-01-2020 06:54:17 7.8 C 40 %
2347 10-01-2020 07:04:17 7.8 C 40 %
2348 10-01-2020 07:14:17 7.8 C 40 %
2349 10-01-2020 07:24:17 7.8 C 41 %
2350 10-01-2020 07:34:17 7.7 C 41 %
Sensor: Nr:Datum:Temp:Feuchte:
Aussen-T/F 2351 10-01-2020 07:44:17 7.7 C 40 %
2352 10-01-2020 07:54:18 7.7 C 40 %
2353 10-01-2020 08:04:18 7.7 C 40 %
2354 10-01-2020 08:14:18 7.8 C 38 %
2355 10-01-2020 08:24:17 7.6 C 38 %
2356 10-01-2020 08:34:17 7.7 C 39 %
2357 10-01-2020 08:44:17 8 C 35 %
2358 10-01-2020 08:54:17 8 C 35 %
2359 10-01-2020 09:04:17 8.5 C 32 %
2360 10-01-2020 09:14:17 8.4 C 32 %
2361 10-01-2020 09:24:17 8.7 C 31 %
2362 10-01-2020 09:34:17 8.9 C 31 %
2363 10-01-2020 09:44:17 9 C 30 %
2364 10-01-2020 09:54:17 9.1 C 30 %
2365 10-01-2020 10:04:18 9.1 C 30 %
2366 10-01-2020 10:14:18 9.1 C 30 %
2367 10-01-2020 10:24:18 9.2 C 30 %
2368 10-01-2020 10:34:17 9.2 C 30 %
2369 10-01-2020 10:44:17 9.5 C 30 %
2370 10-01-2020 10:54:18 9.5 C 29 %
2371 10-01-2020 11:04:18 10.2 C 26 %
2372 10-01-2020 11:14:18 10.2 C 26 %
2373 10-01-2020 11:24:17 10.2 C 26 %
2374 10-01-2020 11:34:17 10.4 C 26 %
2375 10-01-2020 11:44:17 10.3 C 26 %
Sensor: Nr:Datum:Temp:Feuchte:
Aussen-T/F 2376 10-01-2020 11:54:17 10.7 C 26 %
2377 10-01-2020 12:04:17 10.8 C 26 %
2378 10-01-2020 12:14:17 11 C 26 %
2379 10-01-2020 12:24:17 10.1 C 27 %
2380 10-01-2020 12:34:17 10.4 C 27 %
2381 10-01-2020 12:44:17 10.6 C 26 %
2382 10-01-2020 12:54:17 9.4 C 31 %
2383 10-01-2020 13:04:17 8.7 C 31 %
2384 10-01-2020 13:14:17 8.3 C 34 %
2385 10-01-2020 13:24:17 8.4 C 32 %
2386 10-01-2020 13:34:17 8.7 C 33 %
2387 10-01-2020 13:44:17 8.7 C 33 %
2388 10-01-2020 13:54:17 8.6 C 35 %
2389 10-01-2020 14:04:18 8.4 C 32 %
2390 10-01-2020 14:14:18 8.8 C 30 %
2391 10-01-2020 14:24:29 9 C 29 %
2392 10-01-2020 14:34:17 9 C 28 %
2393 10-01-2020 14:44:17 9 C 27 %
2394 10-01-2020 14:54:17 9 C 26 %
2395 10-01-2020 15:04:20 8.9 C 27 %
2396 10-01-2020 15:14:20 8.8 C 27 %
2397 10-01-2020 15:24:17 8.7 C 27 %
2398 10-01-2020 15:34:18 8.6 C 27 %
2399 10-01-2020 15:44:18 8.6 C 27 %
2400 10-01-2020 15:54:17 8.6 C 27 %
Sensor: Nr:Datum:Temp:Feuchte:
Aussen-T/F 2401 10-01-2020 16:04:17 8.3 C 28 %
2402 10-01-2020 16:14:17 7.6 C 31 %
2403 10-01-2020 16:24:17 7.5 C 34 %
2404 10-01-2020 16:34:18 7.4 C 32 %
2405 10-01-2020 16:44:18 7.2 C 33 %
2406 10-01-2020 16:54:17 7 C 32 %
2407 10-01-2020 17:04:18 6.7 C 34 %
2408 10-01-2020 17:14:18 6.8 C 34 %
2409 10-01-2020 17:24:17 6.9 C 32 %
2410 10-01-2020 17:34:18 6.7 C 32 %
2411 10-01-2020 17:44:18 6.6 C 32 %
2412 10-01-2020 17:54:17 6.9 C 31 %
2413 10-01-2020 18:04:17 7 C 31 %
2414 10-01-2020 18:14:17 7 C 30 %
2415 10-01-2020 18:24:18 6.8 C 31 %
2416 10-01-2020 18:34:17 7 C 30 %
2417 10-01-2020 18:44:17 7.1 C 30 %
2418 10-01-2020 18:54:17 6.6 C 32 %
2419 10-01-2020 19:04:17 6.5 C 33 %
2420 10-01-2020 19:14:18 6.3 C 35 %
2421 10-01-2020 19:24:17 6 C 37 %
2422 10-01-2020 19:34:17 6 C 36 %
2423 10-01-2020 19:44:17 5.9 C 39 %
2424 10-01-2020 19:54:17 5.8 C 36 %
2425 10-01-2020 20:04:17 5.9 C 38 %
Sensor: Nr:Datum:Temp:Feuchte:
Aussen-T/F 2426 10-01-2020 20:14:18 6 C 34 %
2427 10-01-2020 20:24:17 6 C 34 %
2428 10-01-2020 20:34:18 6 C 32 %
2429 10-01-2020 20:44:18 6 C 31 %
2430 10-01-2020 20:54:17 6 C 31 %
2431 10-01-2020 21:04:17 6.1 C 30 %
2432 10-01-2020 21:14:17 5.8 C 31 %
2433 10-01-2020 21:24:17 5.8 C 31 %
2434 10-01-2020 21:34:17 6 C 30 %
2435 10-01-2020 21:44:17 6.2 C 30 %
2436 10-01-2020 21:54:17 6 C 30 %
2437 10-01-2020 22:04:18 6.1 C 30 %
2438 10-01-2020 22:14:18 6.2 C 30 %
2439 10-01-2020 22:24:17 6.2 C 30 %
2440 10-01-2020 22:34:17 6.2 C 30 %
2441 10-01-2020 22:44:17 6.2 C 29 %
2442 10-01-2020 22:54:17 6.1 C 30 %
2443 10-01-2020 23:04:17 6.2 C 30 %
2444 10-01-2020 23:14:17 6.2 C 30 %
2445 10-01-2020 23:24:17 6.1 C 30 %
2446 10-01-2020 23:34:17 5.9 C 30 %
2447 10-01-2020 23:44:17 5.8 C 30 %
2448 10-01-2020 23:54:18 5.8 C 30 %
2449 11-01-2020 00:04:17 5.5 C 30 %
2450 11-01-2020 00:14:17 5.3 C 30 %
Sensor: Nr:Datum:Temp:Feuchte:
Aussen-T/F 2451 11-01-2020 00:24:17 5.4 C 30 %
2452 11-01-2020 00:34:18 5 C 30 %
2453 11-01-2020 00:44:18 4.7 C 32 %
2454 11-01-2020 00:54:17 4.1 C 35 %
2455 11-01-2020 01:04:18 3.5 C 37 %
2456 11-01-2020 01:14:18 3.8 C 39 %
2457 11-01-2020 01:24:17 4.1 C 38 %
2458 11-01-2020 01:34:17 4.3 C 36 %
2459 11-01-2020 01:44:17 4.5 C 36 %
2460 11-01-2020 01:54:17 4.3 C 35 %
2461 11-01-2020 02:04:17 3.7 C 38 %
2462 11-01-2020 02:14:17 3.7 C 39 %
2463 11-01-2020 02:24:17 3.3 C 39 %
2464 11-01-2020 02:34:18 2.7 C 41 %
2465 11-01-2020 02:44:18 2.9 C 42 %
2466 11-01-2020 02:54:17 3.2 C 42 %
2467 11-01-2020 03:04:18 3 C 41 %
2468 11-01-2020 03:14:18 2.6 C 41 %
2469 11-01-2020 03:24:17 2.3 C 44 %
2470 11-01-2020 03:34:17 2.9 C 45 %
2471 11-01-2020 03:44:17 3 C 43 %
2472 11-01-2020 03:54:17 2.9 C 44 %
2473 11-01-2020 04:04:17 2.9 C 44 %
2474 11-01-2020 04:14:17 3 C 43 %
2475 11-01-2020 04:24:17 3.1 C 44 %
Sensor: Nr:Datum:Temp:Feuchte:
Aussen-T/F 2476 11-01-2020 04:34:18 3.4 C 40 %
2477 11-01-2020 04:44:18 3.3 C 40 %
2478 11-01-2020 04:54:17 3.3 C 40 %
2479 11-01-2020 05:04:18 3.1 C 39 %
2480 11-01-2020 05:14:18 2.9 C 40 %
2481 11-01-2020 05:24:17 2.7 C 41 %
2482 11-01-2020 05:34:17 2.7 C 42 %
2483 11-01-2020 05:44:17 3 C 40 %
2484 11-01-2020 05:54:17 3 C 40 %
2485 11-01-2020 06:04:17 2.9 C 40 %
2486 11-01-2020 06:14:17 2.9 C 40 %
2487 11-01-2020 06:24:17 2.9 C 40 %
2488 11-01-2020 06:34:17 2.8 C 40 %
2489 11-01-2020 06:44:18 2.7 C 40 %
2490 11-01-2020 06:54:17 2.7 C 40 %
2491 11-01-2020 07:04:17 2.8 C 40 %
2492 11-01-2020 07:14:17 2.6 C 40 %
2493 11-01-2020 07:24:17 2.4 C 40 %
2494 11-01-2020 07:34:17 2.5 C 41 %
2495 11-01-2020 07:44:18 1.9 C 41 %
2496 11-01-2020 07:54:17 1 C 40 %
2497 11-01-2020 08:04:17 1 C 45 %
2498 11-01-2020 08:14:17 0.6 C 45 %
2499 11-01-2020 08:24:17 0.4 C 45 %
2500 11-01-2020 08:34:17 0.5 C 46 %
Sensor: Nr:Datum:Temp:Feuchte:
Aussen-T/F 2501 11-01-2020 08:44:18 0.9 C 47 %
2502 11-01-2020 08:54:17 0.2 C 45 %
2503 11-01-2020 09:04:17 1 C 46 %
2504 11-01-2020 09:14:17 1 C 45 %
2505 11-01-2020 09:24:17 1.3 C 45 %
2506 11-01-2020 09:34:17 1.8 C 43 %
2507 11-01-2020 09:44:17 1.9 C 40 %
2508 11-01-2020 09:54:18 1.9 C 40 %
2509 11-01-2020 10:04:18 2 C 38 %
2510 11-01-2020 10:14:18 2.2 C 38 %
2511 11-01-2020 10:24:17 2.4 C 38 %
2512 11-01-2020 10:34:17 2.4 C 37 %
2513 11-01-2020 10:44:17 2.5 C 37 %
2514 11-01-2020 10:54:18 2.7 C 38 %
2515 11-01-2020 11:04:17 3.4 C 37 %
2516 11-01-2020 11:14:17 4.1 C 34 %
2517 11-01-2020 11:24:17 4.1 C 32 %
2518 11-01-2020 11:34:18 4.4 C 30 %
2519 11-01-2020 11:44:18 4.9 C 30 %
2520 11-01-2020 11:54:17 5.5 C 29 %
2521 11-01-2020 12:04:17 5.9 C 29 %
2522 11-01-2020 12:14:17 6.2 C 28 %
2523 11-01-2020 12:24:17 6.6 C 23 %
2524 11-01-2020 12:34:18 7 C 20 %
2525 11-01-2020 12:44:18 7 C 20 %
Sensor: Nr:Datum:Temp:Feuchte:
Aussen-T/F 2526 11-01-2020 12:54:17 7.3 C 20 %
2527 11-01-2020 13:04:17 7.2 C 20 %
2528 11-01-2020 13:14:17 7.2 C 20 %
2529 11-01-2020 13:24:18 7 C 20 %
2530 11-01-2020 13:34:17 7 C 20 %
2531 11-01-2020 13:44:17 6.9 C 20 %
2532 11-01-2020 13:54:17 6.8 C 20 %
2533 11-01-2020 14:04:17 6.9 C 20 %
2534 11-01-2020 14:14:18 6.8 C 20 %
2535 11-01-2020 14:24:17 6.8 C 20 %
2536 11-01-2020 14:34:18 6.7 C 20 %
2537 11-01-2020 14:44:18 6.7 C 20 %
2538 11-01-2020 14:54:17 6.6 C 20 %
2539 11-01-2020 15:04:17 6.6 C 20 %
2540 11-01-2020 15:14:17 6.5 C 20 %
2541 11-01-2020 15:24:18 6.6 C 20 %
2542 11-01-2020 15:34:17 6.4 C 20 %
2543 11-01-2020 15:44:17 6.4 C 20 %
2544 11-01-2020 15:54:17 6.6 C 20 %
2545 11-01-2020 16:04:18 6.4 C 20 %
2546 11-01-2020 16:14:18 6.2 C 20 %
2547 11-01-2020 16:24:17 6.2 C 20 %
2548 11-01-2020 16:34:41 6.1 C 20 %
2549 11-01-2020 16:44:41 6.1 C 20 %
2550 11-01-2020 16:54:17 6 C 20 %
Sensor: Nr:Datum:Temp:Feuchte:
Aussen-T/F 2551 11-01-2020 17:04:18 5.9 C 20 %
2552 11-01-2020 17:14:18 5.8 C 20 %
2553 11-01-2020 17:24:17 5.7 C 20 %
2554 11-01-2020 17:34:18 5.2 C 20 %
2555 11-01-2020 17:44:18 5.3 C 20 %
2556 11-01-2020 17:54:17 5 C 23 %
2557 11-01-2020 18:04:17 5.1 C 20 %
2558 11-01-2020 18:14:17 5 C 20 %
2559 11-01-2020 18:24:17 4.5 C 26 %
2560 11-01-2020 18:34:17 4.1 C 27 %
2561 11-01-2020 18:44:17 3.9 C 30 %
2562 11-01-2020 18:54:17 3.8 C 31 %
2563 11-01-2020 19:04:17 3.6 C 31 %
2564 11-01-2020 19:14:17 3 C 33 %
2565 11-01-2020 19:24:17 2.8 C 35 %
2566 11-01-2020 19:34:17 2.7 C 35 %
2567 11-01-2020 19:44:17 2.7 C 34 %
2568 11-01-2020 19:54:17 2.8 C 34 %
2569 11-01-2020 20:04:17 2.5 C 34 %
2570 11-01-2020 20:14:18 2.4 C 35 %
2571 11-01-2020 20:24:17 2.4 C 34 %
2572 11-01-2020 20:34:17 1.9 C 36 %
2573 11-01-2020 20:44:17 2.2 C 36 %
2574 11-01-2020 20:54:17 2.1 C 36 %
2575 11-01-2020 21:04:17 2.1 C 36 %
Sensor: Nr:Datum:Temp:Feuchte:
Aussen-T/F 2576 11-01-2020 21:14:17 1.9 C 37 %
2577 11-01-2020 21:24:17 1.7 C 37 %
2578 11-01-2020 21:34:17 1.5 C 38 %
2579 11-01-2020 21:44:17 1.1 C 40 %
2580 11-01-2020 21:54:17 1.5 C 40 %
2581 11-01-2020 22:04:17 1.3 C 40 %
2582 11-01-2020 22:14:18 1.1 C 40 %
2583 11-01-2020 22:24:17 0.9 C 42 %
2584 11-01-2020 22:34:17 0.8 C 43 %
2585 11-01-2020 22:44:17 1.2 C 41 %
2586 11-01-2020 22:54:17 0.9 C 41 %
2587 11-01-2020 23:04:17 0.9 C 42 %
2588 11-01-2020 23:14:17 1.7 C 39 %
2589 11-01-2020 23:24:17 1.2 C 38 %
2590 11-01-2020 23:34:17 0.8 C 41 %
2591 11-01-2020 23:44:17 0.5 C 42 %
2592 11-01-2020 23:54:17 0.5 C 43 %
2593 12-01-2020 00:04:17 0.7 C 44 %
2594 12-01-2020 00:14:17 1.1 C 42 %
2595 12-01-2020 00:24:17 0.8 C 41 %
2596 12-01-2020 00:34:17 1.3 C 40 %
2597 12-01-2020 00:44:17 0.7 C 41 %
2598 12-01-2020 00:54:17 0.7 C 42 %
2599 12-01-2020 01:04:17 0.7 C 42 %
2600 12-01-2020 01:14:17 0.8 C 43 %
Sensor: Nr:Datum:Temp:Feuchte:
Aussen-T/F 2601 12-01-2020 01:24:17 1.1 C 42 %
2602 12-01-2020 01:34:17 0.8 C 41 %
2603 12-01-2020 01:44:17 1.2 C 40 %
2604 12-01-2020 01:54:17 1.8 C 39 %
2605 12-01-2020 02:04:17 1.7 C 37 %
2606 12-01-2020 02:14:17 1.9 C 36 %
2607 12-01-2020 02:24:17 1.9 C 36 %
2608 12-01-2020 02:34:17 1.8 C 37 %
2609 12-01-2020 02:44:17 1.9 C 35 %
2610 12-01-2020 02:54:17 1.4 C 37 %
2611 12-01-2020 03:04:17 2.2 C 35 %
2612 12-01-2020 03:14:17 1.5 C 37 %
2613 12-01-2020 03:24:17 1.7 C 36 %
2614 12-01-2020 03:34:17 1.4 C 37 %
2615 12-01-2020 03:44:17 1 C 40 %
2616 12-01-2020 03:54:17 1.5 C 41 %
2617 12-01-2020 04:04:17 1.4 C 41 %
2618 12-01-2020 04:14:17 1.5 C 40 %
2619 12-01-2020 04:24:17 1.8 C 41 %
2620 12-01-2020 04:34:17 2.1 C 38 %
2621 12-01-2020 04:44:17 2.3 C 37 %
2622 12-01-2020 04:54:17 2.7 C 35 %
2623 12-01-2020 05:04:17 3 C 33 %
2624 12-01-2020 05:14:18 3.3 C 31 %
2625 12-01-2020 05:24:17 3.2 C 31 %
Sensor: Nr:Datum:Temp:Feuchte:
Aussen-T/F 2626 12-01-2020 05:34:17 3.2 C 31 %
2627 12-01-2020 05:44:17 3.5 C 31 %
2628 12-01-2020 05:54:17 3.6 C 30 %
2629 12-01-2020 06:04:18 3.7 C 30 %
2630 12-01-2020 06:14:18 3.6 C 30 %
2631 12-01-2020 06:24:17 3.6 C 30 %
2632 12-01-2020 06:34:17 3.7 C 30 %
2633 12-01-2020 06:44:17 3.6 C 30 %
2634 12-01-2020 06:54:17 3.7 C 30 %
2635 12-01-2020 07:04:17 3.7 C 30 %
2636 12-01-2020 07:14:17 4.1 C 29 %
2637 12-01-2020 07:24:17 3.7 C 30 %
2638 12-01-2020 07:34:17 3.7 C 30 %
2639 12-01-2020 07:44:17 3.8 C 29 %
2640 12-01-2020 07:54:17 3.8 C 29 %
2641 12-01-2020 08:04:18 3.7 C 29 %
2642 12-01-2020 08:14:18 3.7 C 29 %
2643 12-01-2020 08:24:17 3.7 C 29 %
2644 12-01-2020 08:34:17 4 C 28 %
2645 12-01-2020 08:44:17 4.2 C 27 %
2646 12-01-2020 08:54:17 4.2 C 27 %
2647 12-01-2020 09:04:17 4.2 C 27 %
2648 12-01-2020 09:14:17 4.2 C 27 %
2649 12-01-2020 09:24:17 4.3 C 27 %
2650 12-01-2020 09:34:17 4.5 C 26 %
Sensor: Nr:Datum:Temp:Feuchte:
Aussen-T/F 2651 12-01-2020 09:44:17 4.7 C 26 %
2652 12-01-2020 09:54:17 4.7 C 26 %
2653 12-01-2020 10:04:17 4.8 C 26 %
2654 12-01-2020 10:14:17 4.8 C 26 %
2655 12-01-2020 10:24:17 4.9 C 25 %
2656 12-01-2020 10:34:18 4.9 C 25 %
2657 12-01-2020 10:44:18 4.9 C 25 %
2658 12-01-2020 10:54:17 5 C 25 %
2659 12-01-2020 11:04:17 5.3 C 23 %
2660 12-01-2020 11:14:17 5.3 C 23 %
2661 12-01-2020 11:24:18 5.3 C 23 %
2662 12-01-2020 11:34:17 5.3 C 23 %
2663 12-01-2020 11:44:17 5.3 C 23 %
2664 12-01-2020 11:54:17 5.5 C 23 %
2665 12-01-2020 12:04:18 5.7 C 23 %
2666 12-01-2020 12:14:18 5.8 C 23 %
2667 12-01-2020 12:24:17 6.1 C 21 %
2668 12-01-2020 12:34:17 6.4 C 21 %
2669 12-01-2020 12:44:17 6.1 C 21 %
2670 12-01-2020 12:54:17 6.1 C 21 %
2671 12-01-2020 13:04:18 6.2 C 21 %
2672 12-01-2020 13:14:18 6.3 C 21 %
2673 12-01-2020 13:24:17 6.5 C 21 %
2674 12-01-2020 13:34:17 6.8 C 21 %
2675 12-01-2020 13:44:17 6.7 C 23 %
Sensor: Nr:Datum:Temp:Feuchte:
Aussen-T/F 2676 12-01-2020 13:54:18 6.7 C 23 %
2677 12-01-2020 14:04:17 6.9 C 21 %
2678 12-01-2020 14:14:17 6.8 C 23 %
2679 12-01-2020 14:24:17 6.9 C 23 %
2680 12-01-2020 14:34:18 6.9 C 25 %
2681 12-01-2020 14:44:18 6.8 C 25 %
2682 12-01-2020 14:54:17 6.8 C 25 %
2683 12-01-2020 15:04:17 6.7 C 25 %
2684 12-01-2020 15:14:17 6.8 C 25 %
2685 12-01-2020 15:24:18 6.8 C 25 %
2686 12-01-2020 15:34:17 6.8 C 25 %
2687 12-01-2020 15:44:17 6.7 C 25 %
2688 12-01-2020 15:54:17 6.6 C 25 %
2689 12-01-2020 16:04:18 6.7 C 25 %
2690 12-01-2020 16:14:18 6.5 C 25 %
2691 12-01-2020 16:24:18 6.3 C 26 %
2692 12-01-2020 16:34:17 6.3 C 27 %
2693 12-01-2020 16:44:17 6.1 C 27 %
2694 12-01-2020 16:54:17 6.1 C 27 %
2695 12-01-2020 17:04:18 6.1 C 27 %
2696 12-01-2020 17:14:18 6 C 27 %
2697 12-01-2020 17:24:17 6 C 28 %
2698 12-01-2020 17:34:17 6 C 28 %
2699 12-01-2020 17:44:17 5.9 C 29 %
2700 12-01-2020 17:54:18 5.7 C 30 %
Sensor: Nr:Datum:Temp:Feuchte:
Aussen-T/F 2701 12-01-2020 18:04:18 5.4 C 30 %
2702 12-01-2020 18:14:18 5.5 C 30 %
2703 12-01-2020 18:24:17 5.4 C 30 %
2704 12-01-2020 18:34:17 5.6 C 30 %
2705 12-01-2020 18:44:17 5.6 C 30 %
2706 12-01-2020 18:54:18 5.7 C 30 %
2707 12-01-2020 19:04:17 5 C 31 %
2708 12-01-2020 19:14:17 4.7 C 34 %
2709 12-01-2020 19:24:17 4.9 C 36 %
2710 12-01-2020 19:34:18 5.6 C 33 %
2711 12-01-2020 19:44:18 5.9 C 32 %
2712 12-01-2020 19:54:17 6 C 31 %
2713 12-01-2020 20:04:18 6 C 31 %
2714 12-01-2020 20:14:18 5.9 C 31 %
2715 12-01-2020 20:24:17 5.7 C 32 %
2716 12-01-2020 20:34:17 5.6 C 32 %
2717 12-01-2020 20:44:17 5.8 C 33 %
2718 12-01-2020 20:54:17 6 C 32 %
2719 12-01-2020 21:04:17 6.1 C 32 %
2720 12-01-2020 21:14:17 6.2 C 32 %
2721 12-01-2020 21:24:17 6.2 C 32 %
2722 12-01-2020 21:34:18 6.1 C 32 %
2723 12-01-2020 21:44:18 6.5 C 31 %
2724 12-01-2020 21:54:17 6.5 C 31 %
2725 12-01-2020 22:04:18 6.4 C 31 %
Sensor: Nr:Datum:Temp:Feuchte:
Aussen-T/F 2726 12-01-2020 22:14:18 6.3 C 32 %
2727 12-01-2020 22:24:17 6 C 32 %
2728 12-01-2020 22:34:17 6.3 C 32 %
2729 12-01-2020 22:44:17 6.2 C 33 %
2730 12-01-2020 22:54:17 5.8 C 33 %
2731 12-01-2020 23:04:17 5.6 C 36 %
2732 12-01-2020 23:14:17 5.2 C 35 %
2733 12-01-2020 23:24:17 5 C 39 %
2734 12-01-2020 23:34:18 6 C 35 %
2735 12-01-2020 23:44:18 5.7 C 33 %
2736 12-01-2020 23:54:17 5.9 C 34 %
2737 13-01-2020 00:04:18 6.3 C 32 %
2738 13-01-2020 00:14:18 5.9 C 33 %
2739 13-01-2020 00:24:17 6.4 C 32 %
2740 13-01-2020 00:34:17 6.5 C 32 %
2741 13-01-2020 00:44:17 6.7 C 31 %
2742 13-01-2020 00:54:18 6.4 C 32 %
2743 13-01-2020 01:04:17 6.1 C 36 %
2744 13-01-2020 01:14:17 5.9 C 37 %
2745 13-01-2020 01:24:17 5.7 C 40 %
2746 13-01-2020 01:34:18 5.6 C 41 %
2747 13-01-2020 01:44:18 5.6 C 42 %
2748 13-01-2020 01:54:17 5.7 C 40 %
2749 13-01-2020 02:04:17 5.9 C 39 %
2750 13-01-2020 02:14:17 5.9 C 38 %
Sensor: Nr:Datum:Temp:Feuchte:
Aussen-T/F 2751 13-01-2020 02:24:18 6 C 36 %
2752 13-01-2020 02:34:17 5.7 C 37 %
2753 13-01-2020 02:44:17 5.9 C 37 %
2754 13-01-2020 02:54:17 5.6 C 39 %
2755 13-01-2020 03:04:18 5.6 C 40 %
2756 13-01-2020 03:14:18 5.7 C 39 %
2757 13-01-2020 03:24:17 5.1 C 38 %
2758 13-01-2020 03:34:17 4.7 C 41 %
2759 13-01-2020 03:44:17 4 C 41 %
2760 13-01-2020 03:54:17 4.1 C 42 %
2761 13-01-2020 04:04:17 3.5 C 44 %
2762 13-01-2020 04:14:17 3.5 C 44 %
2763 13-01-2020 04:24:17 4 C 43 %
2764 13-01-2020 04:34:18 4.1 C 43 %
2765 13-01-2020 04:44:18 3.7 C 43 %
2766 13-01-2020 04:54:17 4 C 43 %
2767 13-01-2020 05:04:18 4.3 C 43 %
2768 13-01-2020 05:14:18 4.3 C 42 %
2769 13-01-2020 05:24:18 4.5 C 42 %
2770 13-01-2020 05:34:17 4.6 C 42 %
2771 13-01-2020 05:44:17 4.6 C 42 %
2772 13-01-2020 05:54:17 4.9 C 42 %
2773 13-01-2020 06:04:17 4.9 C 42 %
2774 13-01-2020 06:14:17 4.8 C 40 %
2775 13-01-2020 06:24:17 4.6 C 40 %
Sensor: Nr:Datum:Temp:Feuchte:
Aussen-T/F 2776 13-01-2020 06:34:17 4.2 C 40 %
2777 13-01-2020 06:44:17 4.7 C 41 %
2778 13-01-2020 06:54:17 4.7 C 40 %
2779 13-01-2020 07:04:17 4.4 C 37 %
2780 13-01-2020 07:14:17 4.1 C 38 %
2781 13-01-2020 07:24:18 4.2 C 39 %
2782 13-01-2020 07:34:17 3.9 C 41 %
2783 13-01-2020 07:44:17 3.9 C 42 %
2784 13-01-2020 07:54:17 3.8 C 42 %
2785 13-01-2020 08:04:18 3.9 C 42 %
2786 13-01-2020 08:14:18 4.3 C 40 %
2787 13-01-2020 08:24:17 4.2 C 40 %
2788 13-01-2020 08:34:17 4.7 C 40 %
2789 13-01-2020 08:44:17 4.8 C 38 %
2790 13-01-2020 08:54:17 4.9 C 38 %
2791 13-01-2020 09:04:17 5.2 C 36 %
2792 13-01-2020 09:14:17 5.4 C 35 %
2793 13-01-2020 09:24:17 5.6 C 34 %
2794 13-01-2020 09:34:18 5.7 C 33 %
2795 13-01-2020 09:44:18 5.8 C 33 %
2796 13-01-2020 09:54:18 5.9 C 33 %
2797 13-01-2020 10:04:17 5.9 C 34 %
2798 13-01-2020 10:14:17 6.2 C 32 %
2799 13-01-2020 10:24:17 6.4 C 32 %
2800 13-01-2020 10:34:18 6.7 C 31 %
Sensor: Nr:Datum:Temp:Feuchte:
Aussen-T/F 2801 13-01-2020 10:44:18 6.8 C 31 %
2802 13-01-2020 10:54:17 6.8 C 31 %
2803 13-01-2020 11:04:17 6.9 C 31 %
2804 13-01-2020 11:14:17 7.1 C 30 %
2805 13-01-2020 11:24:17 7.5 C 29 %
2806 13-01-2020 11:34:17 7.8 C 29 %
2807 13-01-2020 11:44:17 7.8 C 29 %
2808 13-01-2020 11:54:17 7.9 C 29 %
2809 13-01-2020 12:04:18 8 C 29 %
2810 13-01-2020 12:14:18 8 C 28 %
2811 13-01-2020 12:24:18 8.1 C 28 %
2812 13-01-2020 12:34:17 8.1 C 28 %
2813 13-01-2020 12:44:18 8.1 C 28 %
2814 13-01-2020 12:54:17 7.8 C 28 %
2815 13-01-2020 13:04:17 7.4 C 30 %
2816 13-01-2020 13:14:17 7.3 C 30 %
2817 13-01-2020 13:24:17 7.3 C 30 %
2818 13-01-2020 13:34:17 7.5 C 30 %
2819 13-01-2020 13:44:17 7.7 C 30 %
2820 13-01-2020 13:54:17 6.9 C 33 %
2821 13-01-2020 14:04:17 6.9 C 36 %
2822 13-01-2020 14:14:17 7 C 36 %
2823 13-01-2020 14:24:17 7.3 C 35 %
2824 13-01-2020 14:34:17 7.3 C 33 %
2825 13-01-2020 14:44:17 7.3 C 31 %
Sensor: Nr:Datum:Temp:Feuchte:
Aussen-T/F 2826 13-01-2020 14:54:17 7 C 30 %
2827 13-01-2020 15:04:18 7.2 C 31 %
2828 13-01-2020 15:14:18 7.5 C 29 %
2829 13-01-2020 15:24:17 7.5 C 28 %
2830 13-01-2020 15:34:17 7.5 C 28 %
2831 13-01-2020 15:44:17 7.4 C 28 %
2832 13-01-2020 15:54:17 7.4 C 27 %
2833 13-01-2020 16:04:17 7.2 C 29 %
2834 13-01-2020 16:14:17 7.1 C 28 %
2835 13-01-2020 16:24:17 7 C 29 %
2836 13-01-2020 16:34:17 6.9 C 30 %
2837 13-01-2020 16:44:17 6.6 C 30 %
2838 13-01-2020 16:54:17 6.7 C 30 %
2839 13-01-2020 17:04:18 6.6 C 31 %
2840 13-01-2020 17:14:18 6.5 C 30 %
2841 13-01-2020 17:24:17 6.2 C 31 %
2842 13-01-2020 17:34:18 5.8 C 32 %
2843 13-01-2020 17:44:18 5.4 C 33 %
2844 13-01-2020 17:54:17 5.3 C 35 %
2845 13-01-2020 18:04:17 5.3 C 36 %
2846 13-01-2020 18:14:17 5.3 C 36 %
2847 13-01-2020 18:24:18 5.6 C 35 %
2848 13-01-2020 18:34:17 5.7 C 34 %
2849 13-01-2020 18:44:17 5.6 C 34 %
2850 13-01-2020 18:54:17 5.3 C 35 %
Sensor: Nr:Datum:Temp:Feuchte:
Aussen-T/F 2851 13-01-2020 19:04:18 5.5 C 35 %
2852 13-01-2020 19:14:18 5.8 C 34 %
2853 13-01-2020 19:24:17 5.9 C 33 %
2854 13-01-2020 19:34:17 6.2 C 31 %
2855 13-01-2020 19:44:17 6.1 C 32 %
2856 13-01-2020 19:54:17 5.6 C 34 %
2857 13-01-2020 20:04:17 5.6 C 35 %
2858 13-01-2020 20:14:17 5.5 C 35 %
2859 13-01-2020 20:24:17 5.5 C 35 %
2860 13-01-2020 20:34:18 5.6 C 35 %
2861 13-01-2020 20:44:18 5.7 C 35 %
2862 13-01-2020 20:54:17 5.7 C 35 %
2863 13-01-2020 21:04:17 5.7 C 35 %
2864 13-01-2020 21:14:17 5.7 C 35 %
2865 13-01-2020 21:24:17 5.4 C 36 %
2866 13-01-2020 21:34:17 5.6 C 37 %
2867 13-01-2020 21:44:17 5.5 C 36 %
2868 13-01-2020 21:54:17 5.4 C 37 %
2869 13-01-2020 22:04:18 5.6 C 37 %
2870 13-01-2020 22:14:18 5.7 C 37 %
2871 13-01-2020 22:24:17 5.9 C 36 %
2872 13-01-2020 22:34:17 6 C 35 %
2873 13-01-2020 22:44:17 6.1 C 34 %
2874 13-01-2020 22:54:18 6.3 C 34 %
2875 13-01-2020 23:04:17 6.2 C 35 %
Sensor: Nr:Datum:Temp:Feuchte:
Aussen-T/F 2876 13-01-2020 23:14:17 6 C 35 %
2877 13-01-2020 23:24:17 6 C 35 %
2878 13-01-2020 23:34:17 6.2 C 35 %
2879 13-01-2020 23:44:17 6.1 C 37 %
2880 13-01-2020 23:54:17 6.3 C 36 %
2881 14-01-2020 00:04:18 6.4 C 36 %
2882 14-01-2020 00:14:18 6.5 C 35 %
2883 14-01-2020 00:24:18 6.7 C 35 %
2884 14-01-2020 00:34:17 6.5 C 35 %
2885 14-01-2020 00:44:17 6.6 C 35 %
2886 14-01-2020 00:54:17 6.5 C 35 %
2887 14-01-2020 01:04:18 6.3 C 36 %
2888 14-01-2020 01:14:18 6 C 36 %
2889 14-01-2020 01:24:17 5.8 C 38 %
2890 14-01-2020 01:34:17 5.6 C 40 %
2891 14-01-2020 01:44:17 6.1 C 37 %
2892 14-01-2020 01:54:17 6 C 36 %
2893 14-01-2020 02:04:17 6.2 C 35 %
2894 14-01-2020 02:14:17 6.5 C 33 %
2895 14-01-2020 02:24:17 6.5 C 32 %
2896 14-01-2020 02:34:18 6.4 C 32 %
2897 14-01-2020 02:44:18 6.3 C 33 %
2898 14-01-2020 02:54:17 6.4 C 32 %
2899 14-01-2020 03:04:17 6.5 C 32 %
2900 14-01-2020 03:14:17 6.7 C 32 %
Sensor: Nr:Datum:Temp:Feuchte:
Aussen-T/F 2901 14-01-2020 03:24:17 6.6 C 31 %
2902 14-01-2020 03:34:17 6.5 C 31 %
2903 14-01-2020 03:44:17 6.7 C 30 %
2904 14-01-2020 03:54:17 7 C 30 %
2905 14-01-2020 04:04:18 7.1 C 30 %
2906 14-01-2020 04:14:18 6.8 C 30 %
2907 14-01-2020 04:24:17 6.7 C 30 %
2908 14-01-2020 04:34:17 6.5 C 31 %
2909 14-01-2020 04:44:17 6.6 C 32 %
2910 14-01-2020 04:54:17 6.6 C 31 %
2911 14-01-2020 05:04:17 7.2 C 29 %
2912 14-01-2020 05:14:17 7.3 C 28 %
2913 14-01-2020 05:24:17 7.6 C 27 %
2914 14-01-2020 05:34:17 7.4 C 28 %
2915 14-01-2020 05:44:17 7.2 C 27 %
2916 14-01-2020 05:54:18 7.2 C 27 %
2917 14-01-2020 06:04:17 7.3 C 27 %
2918 14-01-2020 06:14:17 7.3 C 27 %
2919 14-01-2020 06:24:17 6.9 C 29 %
2920 14-01-2020 06:34:18 7 C 28 %
2921 14-01-2020 06:44:18 7.2 C 27 %
2922 14-01-2020 06:54:17 7.2 C 27 %
2923 14-01-2020 07:04:17 7.3 C 26 %
2924 14-01-2020 07:14:17 6.8 C 28 %
2925 14-01-2020 07:24:17 7 C 27 %
Sensor: Nr:Datum:Temp:Feuchte:
Aussen-T/F 2926 14-01-2020 07:34:18 6.9 C 28 %
2927 14-01-2020 07:44:18 7.1 C 26 %
2928 14-01-2020 07:54:17 7.3 C 26 %
2929 14-01-2020 08:04:17 7.6 C 25 %
2930 14-01-2020 08:14:17 8 C 25 %
2931 14-01-2020 08:24:17 7.9 C 25 %
2932 14-01-2020 08:34:17 7.9 C 25 %
2933 14-01-2020 08:44:17 7.9 C 25 %
2934 14-01-2020 08:54:18 8.1 C 25 %
2935 14-01-2020 09:04:18 8.5 C 23 %
2936 14-01-2020 09:14:18 8.3 C 25 %
2937 14-01-2020 09:24:17 8.6 C 25 %
2938 14-01-2020 09:34:17 8.4 C 25 %
2939 14-01-2020 09:44:17 8.7 C 25 %
2940 14-01-2020 09:54:17 8.9 C 25 %
2941 14-01-2020 10:04:18 9.4 C 21 %
2942 14-01-2020 10:14:18 9.5 C 20 %
2943 14-01-2020 10:24:18 9.2 C 20 %
2944 14-01-2020 10:34:18 9.1 C 20 %
2945 14-01-2020 10:44:18 9.1 C 21 %
2946 14-01-2020 10:54:17 9.2 C 20 %
2947 14-01-2020 11:04:17 9.4 C 20 %
2948 14-01-2020 11:14:17 9.5 C 20 %
2949 14-01-2020 11:24:17 9.8 C 20 %
2950 14-01-2020 11:34:18 9.9 C 20 %
Sensor: Nr:Datum:Temp:Feuchte:
Aussen-T/F 2951 14-01-2020 11:44:18 9.9 C 20 %
2952 14-01-2020 11:54:17 9.7 C 20 %
2953 14-01-2020 12:04:17 9.8 C 20 %
2954 14-01-2020 12:14:17 9.8 C 20 %
2955 14-01-2020 12:24:17 10 C 20 %
2956 14-01-2020 12:34:17 10.1 C 20 %
2957 14-01-2020 12:44:17 10.1 C 20 %
2958 14-01-2020 12:54:18 10.2 C 20 %
2959 14-01-2020 13:04:18 10.2 C 20 %
2960 14-01-2020 13:14:18 10.1 C 20 %
2961 14-01-2020 13:24:18 10.4 C 20 %
2962 14-01-2020 13:34:17 10.5 C 20 %
2963 14-01-2020 13:44:17 10.8 C 20 %
2964 14-01-2020 13:54:17 11.5 C 20 %
2965 14-01-2020 14:04:17 12 C 20 %
2966 14-01-2020 14:14:17 12.1 C 20 %
2967 14-01-2020 14:24:17 12.1 C 20 %
2968 14-01-2020 14:34:17 12 C 20 %
2969 14-01-2020 14:44:17 12 C 20 %
2970 14-01-2020 14:54:17 12 C 20 %
2971 14-01-2020 15:04:17 12.2 C 20 %
2972 14-01-2020 15:14:17 12.2 C 20 %
2973 14-01-2020 15:24:17 12.1 C 20 %
2974 14-01-2020 15:34:18 11.9 C 20 %
2975 14-01-2020 15:44:18 11.5 C 20 %
Sensor: Nr:Datum:Temp:Feuchte:
Aussen-T/F 2976 14-01-2020 15:54:17 11.1 C 20 %
2977 14-01-2020 16:04:18 10.8 C 20 %
2978 14-01-2020 16:14:18 11.1 C 20 %
2979 14-01-2020 16:24:17 10.9 C 20 %
2980 14-01-2020 16:34:18 10.6 C 20 %
2981 14-01-2020 16:44:18 10.7 C 20 %
2982 14-01-2020 16:54:17 10.8 C 20 %
2983 14-01-2020 17:04:17 10.7 C 20 %
2984 14-01-2020 17:14:18 10.7 C 20 %
2985 14-01-2020 17:24:17 10.6 C 20 %
2986 14-01-2020 17:34:17 10.6 C 20 %
2987 14-01-2020 17:44:17 11 C 20 %
2988 14-01-2020 17:54:18 10.7 C 20 %
2989 14-01-2020 18:04:17 10.7 C 20 %
2990 14-01-2020 18:14:17 10.9 C 20 %
2991 14-01-2020 18:24:17 10.4 C 20 %
2992 14-01-2020 18:34:18 10.5 C 20 %
2993 14-01-2020 18:44:18 10.8 C 20 %
2994 14-01-2020 18:54:17 11.1 C 20 %
2995 14-01-2020 19:04:17 11.2 C 20 %
2996 14-01-2020 19:14:17 11 C 20 %
2997 14-01-2020 19:24:17 10.9 C 20 %
2998 14-01-2020 19:34:17 10.9 C 20 %
2999 14-01-2020 19:44:17 11 C 20 %
3000 14-01-2020 19:54:17 10.7 C 20 %
Sensor: Nr:Datum:Temp:Feuchte:
Aussen-T/F 3001 14-01-2020 20:04:18 10.8 C 20 %
3002 14-01-2020 20:14:18 10.8 C 20 %
3003 14-01-2020 20:24:18 11 C 20 %
3004 14-01-2020 20:34:17 11.5 C 20 %
3005 14-01-2020 20:44:17 11.5 C 20 %
3006 14-01-2020 20:54:17 11.5 C 20 %
3007 14-01-2020 21:04:18 11.7 C 20 %
3008 14-01-2020 21:14:18 11.4 C 20 %
3009 14-01-2020 21:24:17 11.6 C 20 %
3010 14-01-2020 21:34:18 12.2 C 20 %
3011 14-01-2020 21:44:18 11.7 C 20 %
3012 14-01-2020 21:54:18 11.5 C 20 %
3013 14-01-2020 22:04:17 11.7 C 20 %
3014 14-01-2020 22:14:17 11.7 C 20 %
3015 14-01-2020 22:24:17 11.4 C 20 %
3016 14-01-2020 22:34:18 11.7 C 20 %
3017 14-01-2020 22:44:18 11.1 C 20 %
3018 14-01-2020 22:54:17 11.3 C 20 %
3019 14-01-2020 23:04:18 11.7 C 20 %
3020 14-01-2020 23:14:18 11.6 C 20 %
3021 14-01-2020 23:24:17 11.8 C 20 %
3022 14-01-2020 23:34:18 11.7 C 20 %
3023 14-01-2020 23:44:18 11.3 C 20 %
3024 14-01-2020 23:54:17 11.2 C 20 %
3025 15-01-2020 00:04:17 11.3 C 20 %
Sensor: Nr:Datum:Temp:Feuchte:
Aussen-T/F 3026 15-01-2020 00:14:17 11.1 C 20 %
3027 15-01-2020 00:24:17 11.8 C 20 %
3028 15-01-2020 00:34:18 11.5 C 20 %
3029 15-01-2020 00:44:18 11.2 C 20 %
3030 15-01-2020 00:54:17 11.3 C 20 %
3031 15-01-2020 01:04:17 11.3 C 20 %
3032 15-01-2020 01:14:17 11.1 C 20 %
3033 15-01-2020 01:24:17 10.8 C 20 %
3034 15-01-2020 01:34:18 10.9 C 20 %
3035 15-01-2020 01:44:18 11 C 20 %
3036 15-01-2020 01:54:17 10.8 C 20 %
3037 15-01-2020 02:04:18 10.3 C 20 %
3038 15-01-2020 02:14:18 10.2 C 20 %
3039 15-01-2020 02:24:18 10.2 C 20 %
3040 15-01-2020 02:34:17 10.2 C 20 %
3041 15-01-2020 02:44:17 10 C 20 %
3042 15-01-2020 02:54:17 9.8 C 20 %
3043 15-01-2020 03:04:18 9.6 C 23 %
3044 15-01-2020 03:14:18 9.9 C 23 %
3045 15-01-2020 03:24:17 10 C 21 %
3046 15-01-2020 03:34:17 9.4 C 25 %
3047 15-01-2020 03:44:17 9.3 C 26 %
3048 15-01-2020 03:54:17 9.2 C 27 %
3049 15-01-2020 04:04:18 9.1 C 27 %
3050 15-01-2020 04:14:18 9.1 C 27 %
Sensor: Nr:Datum:Temp:Feuchte:
Aussen-T/F 3051 15-01-2020 04:24:17 9 C 27 %
3052 15-01-2020 04:34:17 8.7 C 29 %
3053 15-01-2020 04:44:17 8.5 C 28 %
3054 15-01-2020 04:54:17 8.2 C 28 %
3055 15-01-2020 05:04:17 8.3 C 28 %
3056 15-01-2020 05:14:17 8.6 C 27 %
3057 15-01-2020 05:24:17 9.2 C 25 %
3058 15-01-2020 05:34:17 9.7 C 25 %
3059 15-01-2020 05:44:17 9.6 C 25 %
3060 15-01-2020 05:54:17 9.8 C 23 %
3061 15-01-2020 06:04:17 9.8 C 21 %
3062 15-01-2020 06:14:17 9.7 C 21 %
3063 15-01-2020 06:24:17 9.8 C 20 %
3064 15-01-2020 06:34:18 9.1 C 20 %
3065 15-01-2020 06:44:18 8.7 C 21 %
3066 15-01-2020 06:54:17 8 C 25 %
3067 15-01-2020 07:04:17 7.5 C 25 %
3068 15-01-2020 07:14:17 7.3 C 26 %
3069 15-01-2020 07:24:17 7 C 27 %
3070 15-01-2020 07:34:18 7 C 27 %
3071 15-01-2020 07:44:18 7 C 27 %
3072 15-01-2020 07:54:18 6.2 C 29 %
3073 15-01-2020 08:04:17 6 C 31 %
3074 15-01-2020 08:14:18 5.8 C 31 %
3075 15-01-2020 08:24:17 5.8 C 31 %
Sensor: Nr:Datum:Temp:Feuchte:
Aussen-T/F 3076 15-01-2020 08:34:17 5.7 C 32 %
3077 15-01-2020 08:44:17 6.3 C 30 %
3078 15-01-2020 08:54:17 6.7 C 30 %
3079 15-01-2020 09:04:18 6.6 C 30 %
3080 15-01-2020 09:14:18 6.6 C 29 %
3081 15-01-2020 09:24:17 6.9 C 29 %
3082 15-01-2020 09:34:18 6.6 C 29 %
3083 15-01-2020 09:44:18 6.8 C 30 %
3084 15-01-2020 09:54:18 7.1 C 28 %
3085 15-01-2020 10:04:18 7.5 C 27 %
3086 15-01-2020 10:14:18 7.6 C 27 %
3087 15-01-2020 10:24:17 7.7 C 27 %
3088 15-01-2020 10:34:18 7.3 C 27 %
3089 15-01-2020 10:44:18 7.4 C 27 %
3090 15-01-2020 10:54:17 8.3 C 27 %
3091 15-01-2020 11:04:17 9.1 C 25 %
3092 15-01-2020 11:14:17 9.7 C 20 %
3093 15-01-2020 11:24:17 10 C 20 %
3094 15-01-2020 11:34:17 10.9 C 20 %
3095 15-01-2020 11:44:17 10.9 C 20 %
3096 15-01-2020 11:54:17 11 C 20 %
3097 15-01-2020 12:04:18 11.2 C 20 %
3098 15-01-2020 12:14:18 11.6 C 20 %
3099 15-01-2020 12:24:17 11.6 C 20 %
3100 15-01-2020 12:34:18 11.5 C 20 %
Sensor: Nr:Datum:Temp:Feuchte:
Aussen-T/F 3101 15-01-2020 12:44:18 11.1 C 20 %
3102 15-01-2020 12:54:18 11.6 C 20 %
3103 15-01-2020 13:04:18 12 C 20 %
3104 15-01-2020 13:14:18 12.2 C 20 %
3105 15-01-2020 13:24:18 12.5 C 20 %
3106 15-01-2020 13:34:17 12.5 C 20 %
3107 15-01-2020 13:44:17 12.2 C 20 %
3108 15-01-2020 13:54:17 11.8 C 20 %
3109 15-01-2020 14:04:17 11.4 C 20 %
3110 15-01-2020 14:14:17 11.2 C 20 %
3111 15-01-2020 14:24:17 11.6 C 20 %
3112 15-01-2020 14:34:18 11.7 C 20 %
3113 15-01-2020 14:44:18 12 C 20 %
3114 15-01-2020 14:54:18 12.7 C 20 %
3115 15-01-2020 15:04:17 13.1 C 20 %
3116 15-01-2020 15:14:17 13.1 C 20 %
3117 15-01-2020 15:24:17 13.1 C 20 %
3118 15-01-2020 15:34:17 13.2 C 20 %
3119 15-01-2020 15:44:17 12.9 C 20 %
3120 15-01-2020 15:54:17 13.2 C 20 %
3121 15-01-2020 16:04:17 12.9 C 20 %
3122 15-01-2020 16:14:17 12.7 C 20 %
3123 15-01-2020 16:24:17 12.5 C 20 %
3124 15-01-2020 16:34:18 12.6 C 20 %
3125 15-01-2020 16:44:18 12.1 C 20 %
Sensor: Nr:Datum:Temp:Feuchte:
Aussen-T/F 3126 15-01-2020 16:54:17 12 C 20 %
3127 15-01-2020 17:04:18 11.8 C 20 %
3128 15-01-2020 17:14:18 11.7 C 20 %
3129 15-01-2020 17:24:17 11.9 C 20 %
3130 15-01-2020 17:34:18 11.9 C 20 %
3131 15-01-2020 17:44:18 11.4 C 20 %
3132 15-01-2020 17:54:18 11.2 C 20 %
3133 15-01-2020 18:04:17 11.2 C 20 %
3134 15-01-2020 18:14:17 11.2 C 20 %
3135 15-01-2020 18:24:17 11.2 C 20 %
3136 15-01-2020 18:34:17 11.8 C 20 %
3137 15-01-2020 18:44:17 11.9 C 20 %
3138 15-01-2020 18:54:17 12.2 C 20 %
3139 15-01-2020 19:04:18 12 C 20 %
3140 15-01-2020 19:14:18 12.2 C 20 %
3141 15-01-2020 19:24:18 12 C 20 %
3142 15-01-2020 19:34:17 12.5 C 20 %
3143 15-01-2020 19:44:17 12.9 C 20 %
3144 15-01-2020 19:54:18 12.9 C 20 %
3145 15-01-2020 20:04:17 13 C 20 %
3146 15-01-2020 20:14:18 12.8 C 20 %
3147 15-01-2020 20:24:17 12.7 C 20 %
3148 15-01-2020 20:34:17 12.5 C 20 %
3149 15-01-2020 20:44:17 12.7 C 20 %
3150 15-01-2020 20:54:17 12.6 C 20 %
Sensor: Nr:Datum:Temp:Feuchte:
Aussen-T/F 3151 15-01-2020 21:04:18 12.7 C 20 %
3152 15-01-2020 21:14:18 12.8 C 20 %
3153 15-01-2020 21:24:18 12.5 C 20 %
3154 15-01-2020 21:34:17 12.4 C 20 %
3155 15-01-2020 21:44:17 10.8 C 25 %
3156 15-01-2020 21:54:17 10.2 C 28 %
3157 15-01-2020 22:04:18 10.1 C 30 %
3158 15-01-2020 22:14:18 9.8 C 35 %
3159 15-01-2020 22:24:18 9.4 C 38 %
3160 15-01-2020 22:34:17 9.3 C 40 %
3161 15-01-2020 22:44:17 9.3 C 40 %
3162 15-01-2020 22:54:17 9.1 C 40 %
3163 15-01-2020 23:04:18 9.1 C 40 %
3164 15-01-2020 23:14:18 9.1 C 38 %
3165 15-01-2020 23:24:17 9.1 C 36 %
3166 15-01-2020 23:34:17 8.9 C 37 %
3167 15-01-2020 23:44:17 8.6 C 36 %
3168 15-01-2020 23:54:17 8.4 C 37 %
3169 16-01-2020 00:04:17 8.7 C 34 %
3170 16-01-2020 00:14:17 8.4 C 36 %
3171 16-01-2020 00:24:17 9.2 C 33 %
3172 16-01-2020 00:34:17 8.6 C 36 %
3173 16-01-2020 00:44:17 8.7 C 37 %
3174 16-01-2020 00:54:18 8.8 C 37 %
3175 16-01-2020 01:04:17 8.9 C 37 %
Sensor: Nr:Datum:Temp:Feuchte:
Aussen-T/F 3176 16-01-2020 01:14:17 9 C 36 %
3177 16-01-2020 01:24:17 9.1 C 35 %
3178 16-01-2020 01:34:18 9 C 36 %
3179 16-01-2020 01:44:18 8.9 C 37 %
3180 16-01-2020 01:54:17 8.6 C 38 %
3181 16-01-2020 02:04:17 8.6 C 40 %
3182 16-01-2020 02:14:17 8.6 C 39 %
3183 16-01-2020 02:24:17 8.8 C 37 %
3184 16-01-2020 02:34:17 8.7 C 38 %
3185 16-01-2020 02:44:18 8.6 C 42 %
3186 16-01-2020 02:54:17 8.7 C 42 %
3187 16-01-2020 03:04:18 8.6 C 42 %
3188 16-01-2020 03:14:18 8.6 C 42 %
3189 16-01-2020 03:24:18 8.7 C 43 %
3190 16-01-2020 03:34:17 8.6 C 42 %
3191 16-01-2020 03:44:17 8.6 C 42 %
3192 16-01-2020 03:54:17 8.7 C 42 %
3193 16-01-2020 04:04:18 8.7 C 42 %
3194 16-01-2020 04:14:18 8.6 C 42 %
3195 16-01-2020 04:24:17 8.6 C 42 %
3196 16-01-2020 04:34:18 8.4 C 42 %
3197 16-01-2020 04:44:18 8.2 C 42 %
3198 16-01-2020 04:54:17 8.2 C 42 %
3199 16-01-2020 05:04:17 8.3 C 42 %
3200 16-01-2020 05:14:17 8.1 C 42 %
Sensor: Nr:Datum:Temp:Feuchte:
Aussen-T/F 3201 16-01-2020 05:24:17 8.1 C 42 %
3202 16-01-2020 05:34:17 7.7 C 42 %
3203 16-01-2020 05:44:17 7.1 C 42 %
3204 16-01-2020 05:54:17 7.9 C 42 %
3205 16-01-2020 06:04:17 8 C 42 %
3206 16-01-2020 06:14:17 7.6 C 42 %
3207 16-01-2020 06:24:17 7.2 C 41 %
3208 16-01-2020 06:34:18 7.1 C 42 %
3209 16-01-2020 06:44:18 7.3 C 42 %
3210 16-01-2020 06:54:17 6.8 C 42 %
3211 16-01-2020 07:04:17 6.2 C 41 %
3212 16-01-2020 07:14:17 5.6 C 42 %
3213 16-01-2020 07:24:17 6 C 42 %
3214 16-01-2020 07:34:18 6.7 C 43 %
3215 16-01-2020 07:44:18 6.9 C 42 %
3216 16-01-2020 07:54:17 6.9 C 42 %
3217 16-01-2020 08:04:17 6.7 C 42 %
3218 16-01-2020 08:14:17 6.4 C 42 %
3219 16-01-2020 08:24:17 5.9 C 42 %
3220 16-01-2020 08:34:17 5.9 C 42 %
3221 16-01-2020 08:44:17 5.6 C 42 %
3222 16-01-2020 08:54:18 5.4 C 42 %
3223 16-01-2020 09:04:17 5.2 C 42 %
3224 16-01-2020 09:14:17 5.2 C 42 %
3225 16-01-2020 09:24:17 5.6 C 42 %
Sensor: Nr:Datum:Temp:Feuchte:
Aussen-T/F 3226 16-01-2020 09:34:17 5.4 C 42 %
3227 16-01-2020 09:44:17 5.7 C 42 %
3228 16-01-2020 09:54:17 6.3 C 42 %
3229 16-01-2020 10:04:17 6.5 C 42 %
3230 16-01-2020 10:14:17 6.5 C 42 %
3231 16-01-2020 10:24:17 6.7 C 42 %
3232 16-01-2020 10:34:17 6.9 C 42 %
3233 16-01-2020 10:44:17 6.8 C 42 %
3234 16-01-2020 10:54:18 7.1 C 41 %
3235 16-01-2020 11:04:17 6.9 C 41 %
3236 16-01-2020 11:14:17 6.7 C 41 %
3237 16-01-2020 11:24:17 6.8 C 41 %
3238 16-01-2020 11:34:17 6.9 C 41 %
3239 16-01-2020 11:44:17 6.8 C 41 %
3240 16-01-2020 11:54:17 6.8 C 41 %
3241 16-01-2020 12:04:18 6.7 C 41 %
3242 16-01-2020 12:14:18 6.5 C 41 %
3243 16-01-2020 12:24:17 6.3 C 41 %
3244 16-01-2020 12:34:17 6.4 C 41 %
3245 16-01-2020 12:44:18 6.7 C 41 %
3246 16-01-2020 12:54:17 7.5 C 41 %
3247 16-01-2020 13:04:18 7.5 C 41 %
3248 16-01-2020 13:14:18 7.7 C 41 %
3249 16-01-2020 13:24:17 7.6 C 40 %
3250 16-01-2020 13:34:17 7.8 C 40 %
Sensor: Nr:Datum:Temp:Feuchte:
Aussen-T/F 3251 16-01-2020 13:44:17 7.8 C 40 %
3252 16-01-2020 13:54:18 7.9 C 40 %
3253 16-01-2020 14:04:17 8.1 C 38 %
3254 16-01-2020 14:14:17 8.3 C 37 %
3255 16-01-2020 14:24:17 9 C 36 %
3256 16-01-2020 14:34:17 9.1 C 36 %
3257 16-01-2020 14:44:17 8.9 C 35 %
3258 16-01-2020 14:54:17 8.7 C 35 %
3259 16-01-2020 15:04:17 8.9 C 35 %
3260 16-01-2020 15:14:17 8.6 C 35 %
3261 16-01-2020 15:24:17 8.5 C 35 %
3262 16-01-2020 15:34:18 8.4 C 35 %
3263 16-01-2020 15:44:18 8.4 C 35 %
3264 16-01-2020 15:54:17 8 C 35 %
3265 16-01-2020 16:04:17 7.6 C 37 %
3266 16-01-2020 16:14:17 7.5 C 37 %
3267 16-01-2020 16:24:17 7.5 C 37 %
3268 16-01-2020 16:34:17 7.1 C 37 %
3269 16-01-2020 16:44:17 7.5 C 39 %
3270 16-01-2020 16:54:18 7.1 C 38 %
3271 16-01-2020 17:04:17 6.8 C 40 %
3272 16-01-2020 17:14:17 7 C 40 %
3273 16-01-2020 17:24:17 6.9 C 40 %
3274 16-01-2020 17:34:18 6.9 C 40 %
3275 16-01-2020 17:44:18 7 C 40 %
Sensor: Nr:Datum:Temp:Feuchte:
Aussen-T/F 3276 16-01-2020 17:54:17 6.5 C 40 %
3277 16-01-2020 18:04:17 6.3 C 40 %
3278 16-01-2020 18:14:17 6.5 C 41 %
3279 16-01-2020 18:24:17 6.5 C 41 %
3280 16-01-2020 18:34:17 6.5 C 41 %
3281 16-01-2020 18:44:17 5.9 C 41 %
3282 16-01-2020 18:54:18 5.9 C 42 %
3283 16-01-2020 19:04:17 6.1 C 42 %
3284 16-01-2020 19:14:17 6.2 C 43 %
3285 16-01-2020 19:24:17 5.4 C 42 %
3286 16-01-2020 19:34:17 5.3 C 43 %
3287 16-01-2020 19:44:17 5.3 C 43 %
3288 16-01-2020 19:54:17 5.2 C 43 %
3289 16-01-2020 20:04:18 5.3 C 43 %
3290 16-01-2020 20:14:18 5.4 C 43 %
3291 16-01-2020 20:24:18 5.7 C 43 %
3292 16-01-2020 20:34:17 5.9 C 42 %
3293 16-01-2020 20:44:17 5.7 C 40 %
3294 16-01-2020 20:54:17 5.4 C 41 %
3295 16-01-2020 21:04:18 5.9 C 42 %
3296 16-01-2020 21:14:18 5.3 C 41 %
3297 16-01-2020 21:24:18 5.6 C 42 %
3298 16-01-2020 21:34:18 5.1 C 41 %
3299 16-01-2020 21:44:18 5 C 42 %
3300 16-01-2020 21:54:17 4.7 C 42 %
Sensor: Nr:Datum:Temp:Feuchte:
Aussen-T/F 3301 16-01-2020 22:04:17 5.2 C 42 %
3302 16-01-2020 22:14:17 5 C 42 %
3303 16-01-2020 22:24:18 5 C 42 %
3304 16-01-2020 22:34:18 5.1 C 42 %
3305 16-01-2020 22:44:18 5.5 C 42 %
3306 16-01-2020 22:54:17 5.1 C 40 %
3307 16-01-2020 23:04:17 5 C 41 %
3308 16-01-2020 23:14:17 5.6 C 41 %
3309 16-01-2020 23:24:17 6.8 C 36 %
3310 16-01-2020 23:34:17 7 C 34 %
3311 16-01-2020 23:44:17 6.4 C 35 %
3312 16-01-2020 23:54:17 5.8 C 36 %
3313 17-01-2020 00:04:17 5.6 C 37 %
3314 17-01-2020 00:14:17 5.3 C 39 %
3315 17-01-2020 00:24:17 5.7 C 40 %
3316 17-01-2020 00:34:18 5.2 C 40 %
3317 17-01-2020 00:44:18 5 C 40 %
3318 17-01-2020 00:54:17 5.1 C 41 %
3319 17-01-2020 01:04:17 5.2 C 41 %
3320 17-01-2020 01:14:17 5 C 41 %
3321 17-01-2020 01:24:17 4.9 C 42 %
3322 17-01-2020 01:34:18 4.8 C 42 %
3323 17-01-2020 01:44:18 4.6 C 41 %
3324 17-01-2020 01:54:17 4.6 C 41 %
3325 17-01-2020 02:04:17 5.5 C 41 %
Sensor: Nr:Datum:Temp:Feuchte:
Aussen-T/F 3326 17-01-2020 02:14:17 4.2 C 39 %
3327 17-01-2020 02:24:17 4 C 40 %
3328 17-01-2020 02:34:18 4 C 43 %
3329 17-01-2020 02:44:18 3.7 C 44 %
3330 17-01-2020 02:54:17 3.9 C 45 %
3331 17-01-2020 03:04:17 3.8 C 44 %
3332 17-01-2020 03:14:17 3.8 C 44 %
3333 17-01-2020 03:24:17 3.7 C 45 %
3334 17-01-2020 03:34:18 3.8 C 45 %
3335 17-01-2020 03:44:18 3.4 C 44 %
3336 17-01-2020 03:54:17 3.6 C 44 %
3337 17-01-2020 04:04:18 3.4 C 44 %
3338 17-01-2020 04:14:18 3.4 C 44 %
3339 17-01-2020 04:24:18 3.5 C 44 %
3340 17-01-2020 04:34:17 3.5 C 44 %
3341 17-01-2020 04:44:17 3.2 C 44 %
3342 17-01-2020 04:54:17 3 C 43 %
3343 17-01-2020 05:04:18 2.9 C 45 %
3344 17-01-2020 05:14:18 2.8 C 45 %
3345 17-01-2020 05:24:17 2.7 C 45 %
3346 17-01-2020 05:34:17 2.5 C 45 %
3347 17-01-2020 05:44:17 2.3 C 45 %
3348 17-01-2020 05:54:17 2.4 C 45 %
3349 17-01-2020 06:04:17 2.1 C 45 %
3350 17-01-2020 06:14:17 2 C 45 %
Sensor: Nr:Datum:Temp:Feuchte:
Aussen-T/F 3351 17-01-2020 06:24:17 1.8 C 45 %
3352 17-01-2020 06:34:17 1.8 C 45 %
3353 17-01-2020 06:44:17 1.8 C 46 %
3354 17-01-2020 06:54:17 1.7 C 45 %
3355 17-01-2020 07:04:18 1.8 C 45 %
3356 17-01-2020 07:14:18 1.5 C 45 %
3357 17-01-2020 07:24:17 1.3 C 45 %
3358 17-01-2020 07:34:17 1.2 C 45 %
3359 17-01-2020 07:44:17 1.4 C 45 %
3360 17-01-2020 07:54:17 1.6 C 46 %
3361 17-01-2020 08:04:18 1.9 C 46 %
3362 17-01-2020 08:14:18 2.2 C 45 %
3363 17-01-2020 08:24:17 2 C 45 %
3364 17-01-2020 08:34:17 2.2 C 45 %
3365 17-01-2020 08:44:17 2.3 C 45 %
3366 17-01-2020 08:54:18 2.3 C 45 %
3367 17-01-2020 09:04:17 2.4 C 45 %
3368 17-01-2020 09:14:17 2.2 C 44 %
3369 17-01-2020 09:24:17 2 C 44 %
3370 17-01-2020 09:34:17 2.1 C 44 %
3371 17-01-2020 09:44:17 2.9 C 45 %
3372 17-01-2020 09:54:17 3 C 44 %
3373 17-01-2020 10:04:17 3.1 C 44 %
3374 17-01-2020 10:14:17 3.4 C 44 %
3375 17-01-2020 10:24:17 3.5 C 44 %
Sensor: Nr:Datum:Temp:Feuchte:
Aussen-T/F 3376 17-01-2020 10:34:18 3.7 C 44 %
3377 17-01-2020 10:44:18 4 C 43 %
3378 17-01-2020 10:54:17 4.1 C 42 %
3379 17-01-2020 11:04:17 4.4 C 42 %
3380 17-01-2020 11:14:17 4.4 C 41 %
3381 17-01-2020 11:24:17 4.6 C 42 %
3382 17-01-2020 11:34:18 5.8 C 42 %
3383 17-01-2020 11:44:18 6 C 40 %
3384 17-01-2020 11:54:17 6.3 C 37 %
3385 17-01-2020 12:04:17 6.7 C 36 %
3386 17-01-2020 12:14:17 6.8 C 36 %
3387 17-01-2020 12:24:17 7 C 35 %
3388 17-01-2020 12:34:17 7.2 C 36 %
3389 17-01-2020 12:44:17 7.3 C 35 %
3390 17-01-2020 12:54:17 7.3 C 35 %
3391 17-01-2020 13:04:18 7.3 C 35 %
3392 17-01-2020 13:14:18 7.7 C 34 %
3393 17-01-2020 13:24:18 8.6 C 33 %
3394 17-01-2020 13:34:18 8.9 C 32 %
3395 17-01-2020 13:44:18 9.3 C 31 %
3396 17-01-2020 13:54:17 9 C 31 %
3397 17-01-2020 14:04:17 9.2 C 31 %
3398 17-01-2020 14:14:17 9.3 C 31 %
3399 17-01-2020 14:24:17 9.3 C 31 %
3400 17-01-2020 14:34:17 9.1 C 31 %
Sensor: Nr:Datum:Temp:Feuchte:
Aussen-T/F 3401 17-01-2020 14:44:17 8.8 C 33 %
3402 17-01-2020 14:54:17 8.6 C 35 %
3403 17-01-2020 15:04:17 8.5 C 35 %
3404 17-01-2020 15:14:17 8.3 C 36 %
3405 17-01-2020 15:24:17 8.3 C 36 %
3406 17-01-2020 15:34:18 8.2 C 36 %
3407 17-01-2020 15:44:18 8.1 C 38 %
3408 17-01-2020 15:54:17 8.1 C 37 %
3409 17-01-2020 16:04:18 8 C 37 %
3410 17-01-2020 16:14:18 8 C 37 %
3411 17-01-2020 16:24:17 8.1 C 36 %
3412 17-01-2020 16:34:17 8.1 C 37 %
3413 17-01-2020 16:44:17 7.9 C 37 %
3414 17-01-2020 16:54:17 7.8 C 38 %
3415 17-01-2020 17:04:17 7.9 C 38 %
3416 17-01-2020 17:14:17 8.5 C 35 %
3417 17-01-2020 17:24:17 8.5 C 35 %
3418 17-01-2020 17:34:17 8.4 C 34 %
3419 17-01-2020 17:44:17 8.2 C 35 %
3420 17-01-2020 17:54:17 8.5 C 34 %
3421 17-01-2020 18:04:17 8.7 C 32 %
3422 17-01-2020 18:14:18 8.5 C 33 %
3423 17-01-2020 18:24:18 8.4 C 33 %
3424 17-01-2020 18:34:18 8.3 C 33 %
3425 17-01-2020 18:44:18 8.3 C 34 %
Sensor: Nr:Datum:Temp:Feuchte:
Aussen-T/F 3426 17-01-2020 18:54:18 7.8 C 35 %
3427 17-01-2020 19:04:17 7.1 C 36 %
3428 17-01-2020 19:14:17 7.6 C 35 %
3429 17-01-2020 19:24:17 6.3 C 37 %
3430 17-01-2020 19:34:17 5.9 C 40 %
3431 17-01-2020 19:44:17 5.9 C 41 %
3432 17-01-2020 19:54:17 5.9 C 42 %
3433 17-01-2020 20:04:17 6 C 42 %
3434 17-01-2020 20:14:17 6.3 C 42 %
3435 17-01-2020 20:24:17 6.6 C 40 %
3436 17-01-2020 20:34:17 7.9 C 32 %
3437 17-01-2020 20:44:17 7.7 C 31 %
3438 17-01-2020 20:54:18 7.9 C 31 %
3439 17-01-2020 21:04:17 7.8 C 30 %
3440 17-01-2020 21:14:17 7.4 C 31 %
3441 17-01-2020 21:24:17 6.9 C 31 %
3442 17-01-2020 21:34:17 6.7 C 31 %
3443 17-01-2020 21:44:17 6.8 C 31 %
3444 17-01-2020 21:54:18 6.3 C 31 %
3445 17-01-2020 22:04:17 5.8 C 31 %
3446 17-01-2020 22:14:17 5 C 32 %
3447 17-01-2020 22:24:17 4.4 C 35 %
3448 17-01-2020 22:34:18 4.2 C 36 %
3449 17-01-2020 22:44:18 4.2 C 35 %
3450 17-01-2020 22:54:17 3.9 C 37 %
Sensor: Nr:Datum:Temp:Feuchte:
Aussen-T/F 3451 17-01-2020 23:04:17 4 C 37 %
3452 17-01-2020 23:14:17 3.3 C 39 %
3453 17-01-2020 23:24:17 3.6 C 39 %
3454 17-01-2020 23:34:18 3.6 C 39 %
3455 17-01-2020 23:44:18 3.1 C 38 %
3456 17-01-2020 23:54:17 2.6 C 40 %
3457 18-01-2020 00:04:17 2.6 C 41 %
3458 18-01-2020 00:14:17 2.6 C 43 %
3459 18-01-2020 00:24:18 2.8 C 43 %
3460 18-01-2020 00:34:17 3.2 C 43 %
3461 18-01-2020 00:44:17 3.2 C 42 %
3462 18-01-2020 00:54:17 4.2 C 36 %
3463 18-01-2020 01:04:18 4.1 C 36 %
3464 18-01-2020 01:14:18 4 C 36 %
3465 18-01-2020 01:24:17 3.7 C 37 %
3466 18-01-2020 01:34:18 3.8 C 39 %
3467 18-01-2020 01:44:18 3.9 C 39 %
3468 18-01-2020 01:54:17 4.2 C 35 %
3469 18-01-2020 02:04:17 4 C 35 %
3470 18-01-2020 02:14:17 3.4 C 39 %
3471 18-01-2020 02:24:17 3.8 C 40 %
3472 18-01-2020 02:34:17 3.3 C 39 %
3473 18-01-2020 02:44:17 3.6 C 39 %
3474 18-01-2020 02:54:18 3.9 C 36 %
3475 18-01-2020 03:04:17 4.9 C 32 %
Sensor: Nr:Datum:Temp:Feuchte:
Aussen-T/F 3476 18-01-2020 03:14:17 4.9 C 31 %
3477 18-01-2020 03:24:17 4.6 C 31 %
3478 18-01-2020 03:34:17 4.4 C 31 %
3479 18-01-2020 03:44:17 4.5 C 32 %
3480 18-01-2020 03:54:17 4.3 C 32 %
3481 18-01-2020 04:04:17 4.1 C 32 %
3482 18-01-2020 04:14:17 4.1 C 32 %
3483 18-01-2020 04:24:17 4.3 C 32 %
3484 18-01-2020 04:34:18 4.2 C 32 %
3485 18-01-2020 04:44:18 4 C 32 %
3486 18-01-2020 04:54:17 4.1 C 32 %
3487 18-01-2020 05:04:17 4.1 C 31 %
3488 18-01-2020 05:14:17 3.7 C 33 %
3489 18-01-2020 05:24:17 3.8 C 32 %
3490 18-01-2020 05:34:18 3.8 C 32 %
3491 18-01-2020 05:44:18 3.9 C 32 %
3492 18-01-2020 05:54:17 3.2 C 33 %
3493 18-01-2020 06:04:17 3.4 C 32 %
3494 18-01-2020 06:14:17 4 C 31 %
3495 18-01-2020 06:24:17 3.6 C 32 %
3496 18-01-2020 06:34:18 3.8 C 32 %
3497 18-01-2020 06:44:18 3.6 C 32 %
3498 18-01-2020 06:54:17 3.7 C 31 %
3499 18-01-2020 07:04:17 3.2 C 32 %
3500 18-01-2020 07:14:17 3.4 C 32 %
Sensor: Nr:Datum:Temp:Feuchte:
Aussen-T/F 3501 18-01-2020 07:24:17 3 C 33 %
3502 18-01-2020 07:34:18 2.7 C 34 %
3503 18-01-2020 07:44:18 4 C 31 %
3504 18-01-2020 07:54:17 3.7 C 32 %
3505 18-01-2020 08:04:18 4 C 31 %
3506 18-01-2020 08:14:18 4.3 C 31 %
3507 18-01-2020 08:24:17 3.8 C 32 %
3508 18-01-2020 08:34:17 3.7 C 32 %
3509 18-01-2020 08:44:17 3.6 C 32 %
3510 18-01-2020 08:54:17 3.6 C 32 %
3511 18-01-2020 09:04:18 4.1 C 30 %
3512 18-01-2020 09:14:18 3.9 C 32 %
3513 18-01-2020 09:24:18 4.2 C 30 %
3514 18-01-2020 09:34:17 4 C 31 %
3515 18-01-2020 09:44:17 4.1 C 31 %
3516 18-01-2020 09:54:17 4.3 C 31 %
3517 18-01-2020 10:04:17 4.6 C 30 %
3518 18-01-2020 10:14:17 4.9 C 30 %
3519 18-01-2020 10:24:17 4.7 C 30 %
3520 18-01-2020 10:34:18 4.4 C 30 %
3521 18-01-2020 10:44:18 5.1 C 30 %
3522 18-01-2020 10:54:17 5 C 29 %
3523 18-01-2020 11:04:17 5.2 C 28 %
3524 18-01-2020 11:14:17 5.3 C 27 %
3525 18-01-2020 11:24:17 5.3 C 27 %
Sensor: Nr:Datum:Temp:Feuchte:
Aussen-T/F 3526 18-01-2020 11:34:18 5.5 C 27 %
3527 18-01-2020 11:44:18 5.6 C 27 %
3528 18-01-2020 11:54:17 5.6 C 27 %
3529 18-01-2020 12:04:18 6 C 27 %
3530 18-01-2020 12:14:18 6 C 26 %
3531 18-01-2020 12:24:17 5.9 C 26 %
3532 18-01-2020 12:34:17 6 C 26 %
3533 18-01-2020 12:44:17 5.7 C 26 %
3534 18-01-2020 12:54:17 5.9 C 26 %
3535 18-01-2020 13:04:17 6.1 C 25 %
3536 18-01-2020 13:14:17 5.8 C 25 %
3537 18-01-2020 13:24:17 6 C 25 %
3538 18-01-2020 13:34:18 5.7 C 27 %
3539 18-01-2020 13:44:18 5.4 C 27 %
3540 18-01-2020 13:54:17 5.8 C 26 %
3541 18-01-2020 14:04:17 5.7 C 27 %
3542 18-01-2020 14:14:17 5.6 C 26 %
3543 18-01-2020 14:24:17 6 C 26 %
3544 18-01-2020 14:34:18 6.4 C 25 %
3545 18-01-2020 14:44:18 6.5 C 23 %
3546 18-01-2020 14:54:17 6.6 C 20 %
3547 18-01-2020 15:04:17 6.6 C 20 %
3548 18-01-2020 15:14:17 6.4 C 21 %
3549 18-01-2020 15:24:17 6.3 C 21 %
3550 18-01-2020 15:34:17 6.1 C 23 %
Sensor: Nr:Datum:Temp:Feuchte:
Aussen-T/F 3551 18-01-2020 15:44:17 5.9 C 25 %
3552 18-01-2020 15:54:17 5.7 C 25 %
3553 18-01-2020 16:04:17 5.7 C 25 %
3554 18-01-2020 16:14:17 5.3 C 25 %
3555 18-01-2020 16:24:17 5.1 C 25 %
3556 18-01-2020 16:34:18 5 C 26 %
3557 18-01-2020 16:44:18 4.6 C 27 %
3558 18-01-2020 16:54:17 4.8 C 28 %
3559 18-01-2020 17:04:17 5 C 26 %
3560 18-01-2020 17:14:17 4.7 C 27 %
3561 18-01-2020 17:24:18 4.2 C 28 %
3562 18-01-2020 17:34:17 3.5 C 31 %
3563 18-01-2020 17:44:17 3.3 C 31 %
3564 18-01-2020 17:54:17 3.1 C 32 %
3565 18-01-2020 18:04:18 2.6 C 34 %
3566 18-01-2020 18:14:18 2.3 C 36 %
3567 18-01-2020 18:24:17 2 C 37 %
3568 18-01-2020 18:34:17 2.5 C 38 %
3569 18-01-2020 18:44:17 3.2 C 33 %
3570 18-01-2020 18:54:17 3.1 C 31 %
3571 18-01-2020 19:04:18 2.5 C 32 %
3572 18-01-2020 19:14:18 1.6 C 38 %
3573 18-01-2020 19:24:18 1 C 39 %
3574 18-01-2020 19:34:17 0.7 C 41 %
3575 18-01-2020 19:44:17 0.7 C 45 %
Sensor: Nr:Datum:Temp:Feuchte:
Aussen-T/F 3576 18-01-2020 19:54:17 0.7 C 45 %
3577 18-01-2020 20:04:18 0.5 C 44 %
3578 18-01-2020 20:14:18 0.4 C 45 %
3579 18-01-2020 20:24:17 0.3 C 44 %
3580 18-01-2020 20:34:18 0.2 C 43 %
3581 18-01-2020 20:44:18 0.2 C 43 %
3582 18-01-2020 20:54:17 0 C 43 %
3583 18-01-2020 21:04:17 0.3 C 44 %
3584 18-01-2020 21:14:17 1 C 43 %
3585 18-01-2020 21:24:17 1.5 C 42 %
3586 18-01-2020 21:34:17 1.6 C 40 %
3587 18-01-2020 21:44:17 1.8 C 39 %
3588 18-01-2020 21:54:17 1.7 C 37 %
3589 18-01-2020 22:04:18 1.5 C 38 %
3590 18-01-2020 22:14:18 1.1 C 39 %
3591 18-01-2020 22:24:17 1.1 C 41 %
3592 18-01-2020 22:34:17 2 C 37 %
3593 18-01-2020 22:44:18 2 C 36 %
3594 18-01-2020 22:54:17 2.3 C 36 %
3595 18-01-2020 23:04:17 2.3 C 35 %
3596 18-01-2020 23:14:17 2.6 C 35 %
3597 18-01-2020 23:24:17 2.4 C 35 %
3598 18-01-2020 23:34:17 2.8 C 35 %
3599 18-01-2020 23:44:17 2.7 C 36 %
3600 18-01-2020 23:54:17 2.1 C 38 %
Sensor: Nr:Datum:Temp:Feuchte:
Aussen-T/F 3601 19-01-2020 00:04:18 1.8 C 42 %
3602 19-01-2020 00:14:18 2.2 C 44 %
3603 19-01-2020 00:24:17 2.2 C 44 %
3604 19-01-2020 00:34:17 2.2 C 43 %
3605 19-01-2020 00:44:17 2.5 C 41 %
3606 19-01-2020 00:54:17 2.3 C 41 %
3607 19-01-2020 01:04:17 2.4 C 41 %
3608 19-01-2020 01:14:17 2.2 C 40 %
3609 19-01-2020 01:24:17 2 C 40 %
3610 19-01-2020 01:34:17 2 C 43 %
3611 19-01-2020 01:44:17 2 C 44 %
3612 19-01-2020 01:54:18 1.9 C 45 %
3613 19-01-2020 02:04:17 2 C 44 %
3614 19-01-2020 02:14:17 1.9 C 45 %
3615 19-01-2020 02:24:17 1.9 C 45 %
3616 19-01-2020 02:34:17 1.9 C 45 %
3617 19-01-2020 02:44:17 1.6 C 45 %
3618 19-01-2020 02:54:18 1.8 C 46 %
3619 19-01-2020 03:04:17 1.9 C 46 %
3620 19-01-2020 03:14:17 2 C 45 %
3621 19-01-2020 03:24:17 2 C 45 %
3622 19-01-2020 03:34:17 2.1 C 45 %
3623 19-01-2020 03:44:17 2.1 C 45 %
3624 19-01-2020 03:54:17 2.1 C 45 %
3625 19-01-2020 04:04:17 2.1 C 45 %
Sensor: Nr:Datum:Temp:Feuchte:
Aussen-T/F 3626 19-01-2020 04:14:17 2.1 C 45 %
3627 19-01-2020 04:24:17 2.1 C 45 %
3628 19-01-2020 04:34:18 2.2 C 45 %
3629 19-01-2020 04:44:18 2.1 C 44 %
3630 19-01-2020 04:54:17 2 C 44 %
3631 19-01-2020 05:04:18 2.1 C 45 %
3632 19-01-2020 05:14:18 2.2 C 45 %
3633 19-01-2020 05:24:17 2.2 C 45 %
3634 19-01-2020 05:34:18 2.2 C 45 %
3635 19-01-2020 05:44:18 2.2 C 44 %
3636 19-01-2020 05:54:17 2.2 C 44 %
3637 19-01-2020 06:04:18 2.2 C 44 %
3638 19-01-2020 06:14:18 2.2 C 44 %
3639 19-01-2020 06:24:17 2.2 C 43 %
3640 19-01-2020 06:34:18 2.2 C 43 %
3641 19-01-2020 06:44:18 2.2 C 44 %
3642 19-01-2020 06:54:17 2.3 C 44 %
3643 19-01-2020 07:04:17 2.3 C 45 %
3644 19-01-2020 07:14:17 2.3 C 44 %
3645 19-01-2020 07:24:17 2.3 C 44 %
3646 19-01-2020 07:34:17 2.3 C 44 %
3647 19-01-2020 07:44:17 2.3 C 44 %
3648 19-01-2020 07:54:17 2.4 C 42 %
3649 19-01-2020 08:04:17 2.4 C 42 %
3650 19-01-2020 08:14:17 2.3 C 43 %
Sensor: Nr:Datum:Temp:Feuchte:
Aussen-T/F 3651 19-01-2020 08:24:18 2.3 C 43 %
3652 19-01-2020 08:34:17 2.4 C 43 %
3653 19-01-2020 08:44:17 2.5 C 43 %
3654 19-01-2020 08:54:17 2.6 C 42 %
3655 19-01-2020 09:04:18 2.5 C 42 %
3656 19-01-2020 09:14:18 2.6 C 42 %
3657 19-01-2020 09:24:18 2.6 C 41 %
3658 19-01-2020 09:34:17 2.7 C 40 %
3659 19-01-2020 09:44:17 2.7 C 40 %
3660 19-01-2020 09:54:18 2.7 C 40 %
3661 19-01-2020 10:04:18 2.7 C 40 %
3662 19-01-2020 10:14:18 2.7 C 40 %
3663 19-01-2020 10:24:17 2.9 C 38 %
3664 19-01-2020 10:34:17 3.1 C 38 %
3665 19-01-2020 10:44:17 3.3 C 36 %
3666 19-01-2020 10:54:17 3.6 C 35 %
3667 19-01-2020 11:04:18 3.4 C 36 %
3668 19-01-2020 11:14:18 3.5 C 36 %
3669 19-01-2020 11:24:18 3.4 C 36 %
3670 19-01-2020 11:34:17 3.5 C 36 %
3671 19-01-2020 11:44:17 3.8 C 35 %
3672 19-01-2020 11:54:17 4.1 C 33 %
3673 19-01-2020 12:04:18 4.1 C 33 %
3674 19-01-2020 12:14:18 4 C 33 %
3675 19-01-2020 12:24:18 3.8 C 35 %
Sensor: Nr:Datum:Temp:Feuchte:
Aussen-T/F 3676 19-01-2020 12:34:17 4.1 C 35 %
3677 19-01-2020 12:44:17 4.1 C 34 %
3678 19-01-2020 12:54:18 4.1 C 34 %
3679 19-01-2020 13:04:17 4.1 C 34 %
3680 19-01-2020 13:14:17 4.4 C 33 %
3681 19-01-2020 13:24:17 4.1 C 33 %
3682 19-01-2020 13:34:18 4.1 C 34 %
3683 19-01-2020 13:44:18 4.2 C 33 %
3684 19-01-2020 13:54:17 4.5 C 34 %
3685 19-01-2020 14:04:17 5.2 C 32 %
3686 19-01-2020 14:14:17 4.8 C 32 %
3687 19-01-2020 14:24:17 4.7 C 32 %
3688 19-01-2020 14:34:17 4.5 C 31 %
3689 19-01-2020 14:44:17 4.5 C 31 %
3690 19-01-2020 14:54:18 4.7 C 31 %
3691 19-01-2020 15:04:17 4.5 C 31 %
3692 19-01-2020 15:14:17 4.5 C 32 %
3693 19-01-2020 15:24:17 4.5 C 32 %
3694 19-01-2020 15:34:17 4.6 C 31 %
3695 19-01-2020 15:44:17 4.8 C 31 %
3696 19-01-2020 15:54:18 4.4 C 31 %
3697 19-01-2020 16:04:17 4.1 C 32 %
3698 19-01-2020 16:14:17 4.1 C 32 %
3699 19-01-2020 16:24:17 4.1 C 34 %
3700 19-01-2020 16:34:18 4.1 C 35 %
Sensor: Nr:Datum:Temp:Feuchte:
Aussen-T/F 3701 19-01-2020 16:44:18 3.8 C 36 %
3702 19-01-2020 16:54:17 3.6 C 39 %
3703 19-01-2020 17:04:18 3.5 C 42 %
3704 19-01-2020 17:14:18 3.4 C 43 %
3705 19-01-2020 17:24:18 3.3 C 45 %
3706 19-01-2020 17:34:18 3.3 C 45 %
3707 19-01-2020 17:44:18 3.3 C 45 %
3708 19-01-2020 17:54:17 3.4 C 44 %
3709 19-01-2020 18:04:18 3.3 C 44 %
3710 19-01-2020 18:14:18 3.4 C 43 %
3711 19-01-2020 18:24:18 3.2 C 44 %
3712 19-01-2020 18:34:17 3.3 C 45 %
3713 19-01-2020 18:44:17 3.4 C 44 %
3714 19-01-2020 18:54:17 3.4 C 44 %
3715 19-01-2020 19:04:18 3.3 C 44 %
3716 19-01-2020 19:14:18 3.4 C 43 %
3717 19-01-2020 19:24:17 3.4 C 43 %
3718 19-01-2020 19:34:18 3.4 C 43 %
3719 19-01-2020 19:44:18 3.3 C 43 %
3720 19-01-2020 19:54:17 3.3 C 44 %
3721 19-01-2020 20:04:17 3.2 C 44 %
3722 19-01-2020 20:14:17 3.2 C 44 %
3723 19-01-2020 20:25:17 3.3 C 44 %
3724 19-01-2020 20:34:18 3.3 C 44 %
3725 19-01-2020 20:44:18 3.3 C 44 %
Sensor: Nr:Datum:Temp:Feuchte:
Aussen-T/F 3726 19-01-2020 20:54:17 3.2 C 44 %
3727 19-01-2020 21:14:17 3.2 C 43 %
3728 19-01-2020 21:14:17 3.2 C 43 %
3729 19-01-2020 21:24:17 3.2 C 44 %
3730 19-01-2020 21:34:18 3.2 C 44 %
3731 19-01-2020 21:44:18 3.1 C 44 %
3732 19-01-2020 21:54:17 3.2 C 44 %
3733 19-01-2020 22:04:17 3.1 C 44 %
3734 19-01-2020 22:14:17 3.1 C 44 %
3735 19-01-2020 22:24:17 3.2 C 44 %
3736 19-01-2020 22:34:17 3.3 C 44 %
3737 19-01-2020 22:44:17 3.3 C 43 %
3738 19-01-2020 22:55:17 3.3 C 43 %
3739 19-01-2020 23:05:17 3.2 C 42 %
3740 19-01-2020 23:14:18 2.8 C 43 %
3741 19-01-2020 23:24:18 2.2 C 43 %
3742 19-01-2020 23:35:17 2.2 C 44 %
3743 19-01-2020 23:44:17 2.1 C 45 %
3744 19-01-2020 23:54:17 2 C 45 %
3745 20-01-2020 00:05:17 2.1 C 45 %
3746 20-01-2020 00:14:18 2.4 C 45 %
3747 20-01-2020 00:24:18 2.1 C 45 %
3748 20-01-2020 00:34:17 2.5 C 45 %
3749 20-01-2020 00:44:18 2.5 C 45 %
3750 20-01-2020 00:55:17 2.5 C 45 %
Sensor: Nr:Datum:Temp:Feuchte:
Aussen-T/F 3751 20-01-2020 01:04:18 2.3 C 45 %
3752 20-01-2020 01:14:18 2.4 C 45 %
3753 20-01-2020 01:24:18 2.2 C 45 %
3754 20-01-2020 01:34:17 2.5 C 45 %
3755 20-01-2020 01:44:17 2.4 C 45 %
3756 20-01-2020 01:55:17 2.2 C 45 %
3757 20-01-2020 02:05:18 1.7 C 45 %
3758 20-01-2020 02:15:18 1.7 C 45 %
3759 20-01-2020 02:25:18 1.6 C 45 %
3760 20-01-2020 02:35:17 1.8 C 46 %
3761 20-01-2020 02:45:17 1.9 C 46 %
3762 20-01-2020 02:55:17 2.1 C 45 %
3763 20-01-2020 03:05:17 2 C 45 %
3764 20-01-2020 03:15:17 1.5 C 45 %
3765 20-01-2020 03:25:17 1.3 C 45 %
3766 20-01-2020 03:35:17 1.3 C 45 %
3767 20-01-2020 03:45:17 0.8 C 46 %
3768 20-01-2020 03:55:17 1 C 45 %
3769 20-01-2020 04:05:18 1.5 C 46 %
3770 20-01-2020 04:15:17 1.6 C 46 %
3771 20-01-2020 04:25:17 1.8 C 46 %
3772 20-01-2020 04:35:17 1.8 C 46 %
3773 20-01-2020 04:45:17 1.5 C 45 %
3774 20-01-2020 04:55:18 1.4 C 45 %
3775 20-01-2020 05:05:17 1.6 C 45 %
Sensor: Nr:Datum:Temp:Feuchte:
Aussen-T/F 3776 20-01-2020 05:15:17 1.6 C 45 %
3777 20-01-2020 05:25:17 1.8 C 45 %
3778 20-01-2020 05:35:18 1.5 C 45 %
3779 20-01-2020 05:45:17 1.2 C 45 %
3780 20-01-2020 05:55:17 1.4 C 45 %
3781 20-01-2020 06:05:18 1.3 C 45 %
3782 20-01-2020 06:15:17 1.2 C 45 %
3783 20-01-2020 06:25:17 1.2 C 45 %
3784 20-01-2020 06:35:17 1.4 C 45 %
3785 20-01-2020 06:45:18 1.4 C 45 %
3786 20-01-2020 06:55:18 1.3 C 45 %
3787 20-01-2020 07:05:17 1.1 C 45 %
3788 20-01-2020 07:15:17 1 C 45 %
3789 20-01-2020 07:25:17 1.1 C 45 %
3790 20-01-2020 07:35:17 0.7 C 46 %
3791 20-01-2020 07:45:17 0.4 C 46 %
3792 20-01-2020 07:55:17 0.2 C 46 %
3793 20-01-2020 08:05:18 0.1 C 46 %
3794 20-01-2020 08:15:18 0.4 C 46 %
3795 20-01-2020 08:25:18 0.8 C 46 %
3796 20-01-2020 08:35:17 0.6 C 46 %
3797 20-01-2020 08:45:17 1.3 C 45 %
3798 20-01-2020 08:55:17 1.4 C 45 %
3799 20-01-2020 09:05:17 1.5 C 45 %
3800 20-01-2020 09:15:17 1.7 C 45 %
Sensor: Nr:Datum:Temp:Feuchte:
Aussen-T/F 3801 20-01-2020 09:25:17 1.9 C 45 %
3802 20-01-2020 09:35:17 2.2 C 45 %
3803 20-01-2020 09:45:18 2.3 C 45 %
3804 20-01-2020 09:55:18 2.5 C 45 %
3805 20-01-2020 10:05:18 2.8 C 45 %
3806 20-01-2020 10:15:17 2.7 C 45 %
3807 20-01-2020 10:25:17 3 C 43 %
3808 20-01-2020 10:35:17 3.5 C 43 %
3809 20-01-2020 10:45:17 3.7 C 43 %
3810 20-01-2020 10:55:17 3.9 C 43 %
3811 20-01-2020 11:05:18 4 C 41 %
3812 20-01-2020 11:15:18 4.2 C 40 %
3813 20-01-2020 11:25:18 4.5 C 37 %
3814 20-01-2020 11:35:18 4.5 C 35 %
3815 20-01-2020 11:45:17 4.6 C 36 %
3816 20-01-2020 11:55:17 5 C 35 %
3817 20-01-2020 12:05:17 5.1 C 34 %
3818 20-01-2020 12:15:18 5.1 C 30 %
3819 20-01-2020 12:25:18 4.9 C 30 %
3820 20-01-2020 12:35:18 5 C 26 %
3821 20-01-2020 12:45:17 5.1 C 25 %
3822 20-01-2020 12:55:17 5.2 C 21 %
3823 20-01-2020 13:05:17 5.3 C 20 %
3824 20-01-2020 13:15:17 5.6 C 21 %
3825 20-01-2020 13:25:17 5.7 C 20 %
Sensor: Nr:Datum:Temp:Feuchte:
Aussen-T/F 3826 20-01-2020 13:35:17 6.1 C 20 %
3827 20-01-2020 13:45:17 5.8 C 20 %
3828 20-01-2020 13:55:18 5.7 C 20 %
3829 20-01-2020 14:05:17 5.7 C 20 %
3830 20-01-2020 14:15:17 5.9 C 20 %
3831 20-01-2020 14:25:17 6 C 20 %
3832 20-01-2020 14:35:17 5.8 C 20 %
3833 20-01-2020 14:45:18 5.7 C 20 %
3834 20-01-2020 14:55:18 5.6 C 20 %
3835 20-01-2020 15:05:17 5 C 20 %
3836 20-01-2020 15:15:17 4.8 C 25 %
3837 20-01-2020 15:25:17 4.9 C 20 %
3838 20-01-2020 15:35:17 5.2 C 20 %
3839 20-01-2020 15:45:17 5 C 20 %
3840 20-01-2020 15:55:18 4.8 C 20 %
3841 20-01-2020 16:05:17 4 C 26 %
3842 20-01-2020 16:15:17 3.9 C 29 %
3843 20-01-2020 16:25:17 3.7 C 30 %
3844 20-01-2020 16:35:17 3.4 C 31 %
3845 20-01-2020 16:45:18 3.1 C 30 %
3846 20-01-2020 16:55:18 2.6 C 31 %
3847 20-01-2020 17:05:17 2.2 C 30 %
3848 20-01-2020 17:15:17 1.9 C 32 %
3849 20-01-2020 17:25:17 1.8 C 32 %
3850 20-01-2020 17:35:17 1.6 C 33 %
Sensor: Nr:Datum:Temp:Feuchte:
Aussen-T/F 3851 20-01-2020 17:45:18 1.2 C 34 %
3852 20-01-2020 17:55:18 1 C 35 %
3853 20-01-2020 18:05:18 0.8 C 36 %
3854 20-01-2020 18:15:17 0.4 C 38 %
3855 20-01-2020 18:25:17 0.1 C 40 %
3856 20-01-2020 18:35:17 0.2 C 40 %
3857 20-01-2020 18:45:17 0.2 C 40 %
3858 20-01-2020 18:55:17 -0.1 C 40 %
3859 20-01-2020 19:05:18 -0.6 C 40 %
3860 20-01-2020 19:15:17 -1 C 41 %
3861 20-01-2020 19:25:18 -1.2 C 42 %
3862 20-01-2020 19:35:17 -1.2 C 43 %
3863 20-01-2020 19:45:17 -1.3 C 44 %
3864 20-01-2020 19:55:17 -1.5 C 44 %
3865 20-01-2020 20:05:18 -1.4 C 45 %
3866 20-01-2020 20:15:17 -1.4 C 45 %
3867 20-01-2020 20:25:17 -1.7 C 44 %
3868 20-01-2020 20:35:17 -1.8 C 45 %
3869 20-01-2020 20:45:18 -2 C 45 %
3870 20-01-2020 20:55:18 -2.1 C 45 %
3871 20-01-2020 21:05:18 -2.2 C 45 %
3872 20-01-2020 21:15:17 -2.3 C 45 %
3873 20-01-2020 21:25:17 -2.3 C 45 %
3874 20-01-2020 21:35:17 -2.3 C 45 %
3875 20-01-2020 21:45:17 -2.5 C 45 %
Sensor: Nr:Datum:Temp:Feuchte:
Aussen-T/F 3876 20-01-2020 21:55:17 -2.5 C 45 %
3877 20-01-2020 22:05:18 -2.5 C 45 %
3878 20-01-2020 22:15:18 -2.7 C 45 %
3879 20-01-2020 22:25:18 -2.7 C 45 %
3880 20-01-2020 22:35:17 -2.7 C 46 %
3881 20-01-2020 22:45:17 -2.8 C 45 %
3882 20-01-2020 22:55:17 -2.8 C 45 %
3883 20-01-2020 23:05:17 -2.9 C 45 %
3884 20-01-2020 23:15:17 -2.7 C 45 %
3885 20-01-2020 23:25:17 -2.9 C 45 %
3886 20-01-2020 23:35:18 -3.1 C 44 %
3887 20-01-2020 23:45:17 -2.6 C 45 %
3888 20-01-2020 23:55:17 -2.8 C 45 %
3889 21-01-2020 00:05:17 -2.5 C 45 %
3890 21-01-2020 00:15:18 -3 C 43 %
3891 21-01-2020 00:25:18 -3.1 C 44 %
3892 21-01-2020 00:35:17 -3.1 C 44 %
3893 21-01-2020 00:45:17 -3 C 44 %
3894 21-01-2020 00:55:17 -3.1 C 44 %
3895 21-01-2020 01:05:17 -3.3 C 44 %
3896 21-01-2020 01:15:17 -3.1 C 44 %
3897 21-01-2020 01:25:17 -3.3 C 44 %
3898 21-01-2020 01:35:18 -3.1 C 45 %
3899 21-01-2020 01:45:17 -3.3 C 44 %
3900 21-01-2020 01:55:17 -3.5 C 43 %
Sensor: Nr:Datum:Temp:Feuchte:
Aussen-T/F 3901 21-01-2020 02:05:17 -3.6 C 43 %
3902 21-01-2020 02:15:17 -3.5 C 45 %
3903 21-01-2020 02:25:17 -3.7 C 44 %
3904 21-01-2020 02:35:17 -3.7 C 44 %
3905 21-01-2020 02:45:18 -3.8 C 44 %
3906 21-01-2020 02:55:18 -3.6 C 44 %
3907 21-01-2020 03:05:17 -3.9 C 43 %
3908 21-01-2020 03:15:17 -3.8 C 44 %
3909 21-01-2020 03:25:17 -3.9 C 43 %
3910 21-01-2020 03:35:17 -4.2 C 43 %
3911 21-01-2020 03:45:17 -4.4 C 42 %
3912 21-01-2020 03:55:17 -4.3 C 43 %
3913 21-01-2020 04:05:18 -4.4 C 42 %
3914 21-01-2020 04:15:17 -4.5 C 42 %
3915 21-01-2020 04:25:17 -4.2 C 43 %
3916 21-01-2020 04:35:17 -4.3 C 43 %
3917 21-01-2020 04:45:17 -4.3 C 43 %
3918 21-01-2020 04:55:17 -4.5 C 43 %
3919 21-01-2020 05:05:18 -4.4 C 43 %
3920 21-01-2020 05:15:17 -4.5 C 43 %
3921 21-01-2020 05:25:17 -4.3 C 44 %
3922 21-01-2020 05:35:17 -4 C 45 %
3923 21-01-2020 05:45:17 -4.1 C 44 %
3924 21-01-2020 05:55:17 -3.9 C 45 %
3925 21-01-2020 06:05:18 -3.9 C 45 %
Sensor: Nr:Datum:Temp:Feuchte:
Aussen-T/F 3926 21-01-2020 06:15:17 -3.7 C 45 %
3927 21-01-2020 06:25:17 -3.7 C 45 %
3928 21-01-2020 06:35:17 -3.5 C 45 %
3929 21-01-2020 06:45:17 -3.5 C 45 %
3930 21-01-2020 06:55:17 -3.3 C 45 %
3931 21-01-2020 07:05:17 -3.6 C 45 %
3932 21-01-2020 07:15:17 -3.6 C 45 %
3933 21-01-2020 07:25:17 -3.5 C 45 %
3934 21-01-2020 07:35:17 -3.5 C 45 %
3935 21-01-2020 07:45:18 -3.5 C 45 %
3936 21-01-2020 07:55:18 -3.6 C 45 %
3937 21-01-2020 08:05:17 -3.3 C 45 %
3938 21-01-2020 08:15:17 -3.6 C 45 %
3939 21-01-2020 08:25:17 -3.5 C 45 %
3940 21-01-2020 08:35:17 -3.7 C 45 %
3941 21-01-2020 08:45:17 -3.8 C 45 %
3942 21-01-2020 08:55:18 -3.6 C 45 %
3943 21-01-2020 09:05:17 -3.6 C 45 %
3944 21-01-2020 09:15:17 -3.7 C 45 %
3945 21-01-2020 09:25:17 -3.5 C 45 %
3946 21-01-2020 09:35:17 -3.7 C 44 %
3947 21-01-2020 09:45:17 -3.9 C 44 %
3948 21-01-2020 09:55:17 -3.7 C 44 %
3949 21-01-2020 10:05:17 -3.6 C 45 %
3950 21-01-2020 10:15:18 -3.3 C 45 %
Sensor: Nr:Datum:Temp:Feuchte:
Aussen-T/F 3951 21-01-2020 10:25:18 -3.1 C 45 %
3952 21-01-2020 10:35:17 -3 C 45 %
3953 21-01-2020 10:45:17 -3 C 44 %
3954 21-01-2020 10:55:17 -2.7 C 44 %
3955 21-01-2020 11:05:17 -3 C 44 %
3956 21-01-2020 11:15:17 -2.9 C 44 %
3957 21-01-2020 11:25:17 -2.5 C 45 %
3958 21-01-2020 11:35:17 -2.2 C 44 %
3959 21-01-2020 11:45:18 -2 C 44 %
3960 21-01-2020 11:55:18 -1.6 C 45 %
3961 21-01-2020 12:05:18 -1.5 C 45 %
3962 21-01-2020 12:15:17 -1.5 C 45 %
3963 21-01-2020 12:25:17 -1.7 C 45 %
3964 21-01-2020 12:35:17 -1.2 C 46 %
3965 21-01-2020 12:45:18 -1.2 C 45 %
3966 21-01-2020 12:55:18 -1.2 C 45 %
3967 21-01-2020 13:05:18 -0.9 C 46 %
3968 21-01-2020 13:15:17 -1 C 45 %
3969 21-01-2020 13:25:18 -0.9 C 45 %
3970 21-01-2020 13:35:17 -0.7 C 45 %
3971 21-01-2020 13:45:17 -0.6 C 46 %
3972 21-01-2020 13:55:17 -0.8 C 45 %
3973 21-01-2020 14:05:17 -0.6 C 46 %
3974 21-01-2020 14:15:17 -0.3 C 46 %
3975 21-01-2020 14:25:17 -0.2 C 46 %
Sensor: Nr:Datum:Temp:Feuchte:
Aussen-T/F 3976 21-01-2020 14:35:18 -0.3 C 46 %
3977 21-01-2020 14:45:18 -0.3 C 46 %
3978 21-01-2020 14:55:18 -0.3 C 46 %
3979 21-01-2020 15:05:17 -0.5 C 46 %
3980 21-01-2020 15:15:17 -0.6 C 46 %
3981 21-01-2020 15:25:17 -0.5 C 46 %
3982 21-01-2020 15:35:17 -0.4 C 46 %
3983 21-01-2020 15:45:17 -0.4 C 46 %
3984 21-01-2020 15:55:18 -0.6 C 46 %
3985 21-01-2020 16:05:17 -0.8 C 46 %
3986 21-01-2020 16:15:17 -0.9 C 46 %
3987 21-01-2020 16:25:17 -0.9 C 46 %
3988 21-01-2020 16:35:17 -0.9 C 46 %
3989 21-01-2020 16:45:17 -1 C 46 %
3990 21-01-2020 16:55:17 -1.3 C 46 %
3991 21-01-2020 17:05:18 -1.4 C 46 %
3992 21-01-2020 17:15:17 -1.4 C 46 %
3993 21-01-2020 17:25:17 -1.5 C 46 %
3994 21-01-2020 17:35:17 -1.6 C 46 %
3995 21-01-2020 17:45:17 -1.7 C 46 %
3996 21-01-2020 17:55:18 -1.8 C 46 %
3997 21-01-2020 18:05:17 -1.9 C 46 %
3998 21-01-2020 18:15:17 -2.2 C 45 %
3999 21-01-2020 18:25:17 -2.2 C 45 %
4000 21-01-2020 18:35:17 -2.3 C 45 %
Sensor: Nr:Datum:Temp:Feuchte:
Aussen-T/F 4001 21-01-2020 18:45:17 -2.4 C 45 %
4002 21-01-2020 18:55:17 -2.5 C 45 %
4003 21-01-2020 19:05:17 -2.1 C 46 %
4004 21-01-2020 19:15:17 -2.1 C 46 %
4005 21-01-2020 19:25:17 -2.3 C 45 %
4006 21-01-2020 19:35:17 -2.3 C 45 %
4007 21-01-2020 19:45:17 -2.3 C 45 %
4008 21-01-2020 19:55:18 -2.4 C 45 %
4009 21-01-2020 20:05:18 -2.4 C 45 %
4010 21-01-2020 20:15:17 -2.5 C 45 %
4011 21-01-2020 20:25:17 -2.7 C 45 %
4012 21-01-2020 20:35:17 -2.5 C 45 %
4013 21-01-2020 20:45:18 -2.6 C 45 %
4014 21-01-2020 20:55:18 -2.7 C 45 %
4015 21-01-2020 21:05:18 -3 C 45 %
4016 21-01-2020 21:15:17 -3 C 45 %
4017 21-01-2020 21:25:18 -3 C 45 %
4018 21-01-2020 21:35:17 -2.9 C 45 %
4019 21-01-2020 21:45:17 -2.8 C 45 %
4020 21-01-2020 21:55:17 -2.7 C 45 %
4021 21-01-2020 22:05:18 -2.7 C 45 %
4022 21-01-2020 22:15:18 -2.9 C 45 %
4023 21-01-2020 22:25:18 -2.9 C 45 %
4024 21-01-2020 22:35:18 -3 C 45 %
4025 21-01-2020 22:45:17 -3.2 C 45 %
Sensor: Nr:Datum:Temp:Feuchte:
Aussen-T/F 4026 21-01-2020 22:55:17 -3.3 C 45 %
4027 21-01-2020 23:05:18 -3.4 C 45 %
4028 21-01-2020 23:15:17 -3.2 C 45 %
4029 21-01-2020 23:25:18 -3.2 C 45 %
4030 21-01-2020 23:35:17 -3.2 C 45 %
4031 21-01-2020 23:45:17 -3.2 C 45 %
4032 21-01-2020 23:55:17 -3.2 C 45 %
4033 22-01-2020 00:05:17 -3.4 C 45 %
4034 22-01-2020 00:15:17 -3.6 C 45 %
4035 22-01-2020 00:25:17 -3.8 C 45 %
4036 22-01-2020 00:35:17 -3.5 C 45 %
4037 22-01-2020 00:45:18 -3.4 C 45 %
4038 22-01-2020 00:55:18 -3.3 C 45 %
4039 22-01-2020 01:05:17 -3.5 C 45 %
4040 22-01-2020 01:15:18 -3.4 C 45 %
4041 22-01-2020 01:25:18 -3.5 C 45 %
4042 22-01-2020 01:35:17 -3.6 C 45 %
4043 22-01-2020 01:45:17 -3.6 C 45 %
4044 22-01-2020 01:55:17 -3.7 C 45 %
4045 22-01-2020 02:05:18 -3.8 C 45 %
4046 22-01-2020 02:15:18 -3.8 C 45 %
4047 22-01-2020 02:25:18 -3.9 C 45 %
4048 22-01-2020 02:35:18 -3.9 C 45 %
4049 22-01-2020 02:45:17 -3.9 C 45 %
4050 22-01-2020 02:55:17 -4 C 45 %
Sensor: Nr:Datum:Temp:Feuchte:
Aussen-T/F 4051 22-01-2020 03:05:17 -4.1 C 44 %
4052 22-01-2020 03:15:17 -3.9 C 45 %
4053 22-01-2020 03:25:17 -3.9 C 45 %
4054 22-01-2020 03:35:18 -3.9 C 45 %
4055 22-01-2020 03:45:17 -3.9 C 45 %
4056 22-01-2020 03:55:17 -4 C 45 %
4057 22-01-2020 04:05:17 -3.9 C 45 %
4058 22-01-2020 04:15:18 -4 C 45 %
4059 22-01-2020 04:25:18 -4 C 45 %
4060 22-01-2020 04:35:17 -3.9 C 45 %
4061 22-01-2020 04:45:17 -4 C 45 %
4062 22-01-2020 04:55:17 -3.9 C 45 %
4063 22-01-2020 05:05:17 -4 C 45 %
4064 22-01-2020 05:15:17 -3.9 C 45 %
4065 22-01-2020 05:25:17 -4 C 44 %
4066 22-01-2020 05:35:18 -3.9 C 44 %
4067 22-01-2020 05:45:17 -3.8 C 45 %
4068 22-01-2020 05:55:17 -3.9 C 45 %
4069 22-01-2020 06:05:17 -3.9 C 45 %
4070 22-01-2020 06:15:17 -3.9 C 44 %
4071 22-01-2020 06:25:17 -4 C 44 %
4072 22-01-2020 06:35:18 -4 C 44 %
4073 22-01-2020 06:45:17 -3.9 C 44 %
4074 22-01-2020 06:55:17 -3.8 C 44 %
4075 22-01-2020 07:05:17 -3.8 C 44 %
Sensor: Nr:Datum:Temp:Feuchte:
Aussen-T/F 4076 22-01-2020 07:15:17 -3.5 C 45 %
4077 22-01-2020 07:25:17 -3.7 C 45 %
4078 22-01-2020 07:35:17 -3.5 C 45 %
4079 22-01-2020 07:45:18 -3.4 C 45 %
4080 22-01-2020 07:55:18 -3.4 C 45 %
4081 22-01-2020 08:05:17 -3.3 C 45 %
4082 22-01-2020 08:15:17 -3.6 C 45 %
4083 22-01-2020 08:25:17 -3.5 C 45 %
4084 22-01-2020 08:35:18 -3.5 C 45 %
4085 22-01-2020 08:45:17 -3.4 C 45 %
4086 22-01-2020 08:55:17 -3.3 C 45 %
4087 22-01-2020 09:05:17 -3.3 C 45 %
4088 22-01-2020 09:15:17 -3.2 C 45 %
4089 22-01-2020 09:25:17 -3.2 C 45 %
4090 22-01-2020 09:35:18 -2.9 C 45 %
4091 22-01-2020 09:45:17 -2.9 C 44 %
4092 22-01-2020 09:55:17 -3 C 44 %
4093 22-01-2020 10:05:17 -2.9 C 45 %
4094 22-01-2020 10:15:17 -3 C 45 %
4095 22-01-2020 10:25:17 -3 C 45 %
4096 22-01-2020 10:35:17 -3 C 44 %
4097 22-01-2020 10:45:17 -2.9 C 45 %
4098 22-01-2020 10:55:17 -3.1 C 45 %
4099 22-01-2020 11:05:18 -3 C 45 %
4100 22-01-2020 11:15:18 -2.8 C 45 %
Sensor: Nr:Datum:Temp:Feuchte:
Aussen-T/F 4101 22-01-2020 11:25:18 -2.5 C 45 %
4102 22-01-2020 11:35:17 -2 C 45 %
4103 22-01-2020 11:45:17 -1.9 C 44 %
4104 22-01-2020 11:55:17 -1.3 C 44 %
4105 22-01-2020 12:05:17 -1.8 C 42 %
4106 22-01-2020 12:15:17 -1.5 C 43 %
4107 22-01-2020 12:25:17 -1.1 C 45 %
4108 22-01-2020 12:35:18 -1 C 45 %
4109 22-01-2020 12:45:17 -1.4 C 43 %
4110 22-01-2020 12:55:17 -1.2 C 44 %
4111 22-01-2020 13:05:17 -1.3 C 44 %
4112 22-01-2020 13:15:17 -1 C 44 %
4113 22-01-2020 13:25:17 -0.8 C 44 %
4114 22-01-2020 13:35:18 -0.6 C 44 %
4115 22-01-2020 13:45:17 -0.3 C 44 %
4116 22-01-2020 13:55:17 -0.2 C 43 %
4117 22-01-2020 14:05:17 -0.5 C 42 %
4118 22-01-2020 14:15:17 -0.7 C 41 %
4119 22-01-2020 14:25:17 -0.5 C 43 %
4120 22-01-2020 14:35:17 -0.6 C 42 %
4121 22-01-2020 14:45:17 -0.4 C 43 %
4122 22-01-2020 14:55:17 -0.6 C 42 %
4123 22-01-2020 15:05:18 -0.5 C 42 %
4124 22-01-2020 15:15:17 -0.6 C 41 %
4125 22-01-2020 15:25:17 -0.5 C 42 %
Sensor: Nr:Datum:Temp:Feuchte:
Aussen-T/F 4126 22-01-2020 15:35:17 -0.5 C 41 %
4127 22-01-2020 15:45:18 -0.3 C 42 %
4128 22-01-2020 15:55:18 -0.3 C 42 %
4129 22-01-2020 16:05:17 -0.3 C 42 %
4130 22-01-2020 16:15:17 -0.2 C 43 %
4131 22-01-2020 16:25:17 -0.2 C 43 %
4132 22-01-2020 16:35:17 -0.3 C 42 %
4133 22-01-2020 16:45:17 -0.4 C 43 %
4134 22-01-2020 16:55:18 -0.4 C 44 %
4135 22-01-2020 17:05:17 -0.4 C 45 %
4136 22-01-2020 17:15:18 -0.4 C 45 %
4137 22-01-2020 17:25:18 -0.5 C 45 %
4138 22-01-2020 17:35:17 -0.4 C 46 %
4139 22-01-2020 17:45:17 -0.4 C 46 %
4140 22-01-2020 17:55:17 -0.4 C 46 %
4141 22-01-2020 18:05:18 -0.4 C 46 %
4142 22-01-2020 18:15:17 -0.5 C 45 %
4143 22-01-2020 18:25:18 -0.6 C 46 %
4144 22-01-2020 18:35:17 -0.6 C 46 %
4145 22-01-2020 18:45:17 -0.5 C 46 %
4146 22-01-2020 18:55:17 -0.5 C 46 %
4147 22-01-2020 19:05:17 -0.4 C 46 %
4148 22-01-2020 19:15:17 -0.4 C 46 %
4149 22-01-2020 19:25:17 -0.3 C 46 %
4150 22-01-2020 19:35:17 -0.3 C 46 %
Sensor: Nr:Datum:Temp:Feuchte:
Aussen-T/F 4151 22-01-2020 19:45:17 -0.3 C 46 %
4152 22-01-2020 19:55:17 -0.2 C 46 %
4153 22-01-2020 20:05:18 -0.2 C 46 %
4154 22-01-2020 20:15:17 -0.2 C 46 %
4155 22-01-2020 20:25:17 -0.2 C 46 %
4156 22-01-2020 20:35:17 -0.2 C 46 %
4157 22-01-2020 20:45:17 -0.2 C 46 %
4158 22-01-2020 20:55:17 -0.2 C 46 %
4159 22-01-2020 21:05:18 -0.2 C 46 %
4160 22-01-2020 21:15:17 -0.1 C 46 %
4161 22-01-2020 21:25:18 -0.2 C 46 %
4162 22-01-2020 21:35:17 -0.1 C 46 %
4163 22-01-2020 21:45:18 -0.1 C 46 %
4164 22-01-2020 21:55:18 -0.1 C 46 %
4165 22-01-2020 22:05:17 -0.1 C 46 %
4166 22-01-2020 22:15:17 -0.1 C 46 %
4167 22-01-2020 22:25:17 0 C 46 %
4168 22-01-2020 22:35:18 -0.1 C 46 %
4169 22-01-2020 22:45:17 0 C 46 %
4170 22-01-2020 22:55:17 0 C 46 %
4171 22-01-2020 23:05:17 0 C 46 %
4172 22-01-2020 23:15:17 0 C 46 %
4173 22-01-2020 23:25:17 0 C 46 %
4174 22-01-2020 23:35:17 0.1 C 46 %
4175 22-01-2020 23:45:17 0.1 C 46 %
Sensor: Nr:Datum:Temp:Feuchte:
Aussen-T/F 4176 22-01-2020 23:55:17 0.1 C 46 %
4177 23-01-2020 00:05:17 0.1 C 46 %
4178 23-01-2020 00:15:17 0.1 C 46 %
4179 23-01-2020 00:25:17 0.1 C 46 %
4180 23-01-2020 00:35:18 0.1 C 46 %
4181 23-01-2020 00:45:17 0.1 C 46 %
4182 23-01-2020 00:55:17 0.1 C 46 %
4183 23-01-2020 01:05:18 0.1 C 46 %
4184 23-01-2020 01:15:18 0.1 C 46 %
4185 23-01-2020 01:25:18 0.2 C 46 %
4186 23-01-2020 01:35:17 0.1 C 46 %
4187 23-01-2020 01:45:17 0.1 C 46 %
4188 23-01-2020 01:55:18 0.2 C 46 %
4189 23-01-2020 02:05:17 0.2 C 46 %
4190 23-01-2020 02:15:17 0.2 C 46 %
4191 23-01-2020 02:25:17 0.2 C 46 %
4192 23-01-2020 02:35:17 0.3 C 46 %
4193 23-01-2020 02:45:17 0.2 C 46 %
4194 23-01-2020 02:55:18 0.2 C 46 %
4195 23-01-2020 03:05:17 0.3 C 46 %
4196 23-01-2020 03:15:17 0.3 C 46 %
4197 23-01-2020 03:25:17 0.3 C 46 %
4198 23-01-2020 03:35:17 0.3 C 46 %
4199 23-01-2020 03:45:17 0.3 C 46 %
4200 23-01-2020 03:55:18 0.3 C 46 %
Sensor: Nr:Datum:Temp:Feuchte:
Aussen-T/F 4201 23-01-2020 04:05:17 0.3 C 46 %
4202 23-01-2020 04:15:17 0.3 C 46 %
4203 23-01-2020 04:25:17 0.3 C 46 %
4204 23-01-2020 04:35:18 0.3 C 46 %
4205 23-01-2020 04:45:17 0.4 C 46 %
4206 23-01-2020 04:55:17 0.3 C 46 %
4207 23-01-2020 05:05:17 0.4 C 46 %
4208 23-01-2020 05:15:18 0.3 C 46 %
4209 23-01-2020 05:25:18 0.3 C 46 %
4210 23-01-2020 05:35:17 0.3 C 46 %
4211 23-01-2020 05:45:17 0.3 C 46 %
4212 23-01-2020 05:55:17 0.4 C 46 %
4213 23-01-2020 06:05:18 0.4 C 46 %
4214 23-01-2020 06:15:17 0.4 C 46 %
4215 23-01-2020 06:25:18 0.4 C 46 %
4216 23-01-2020 06:35:17 0.5 C 46 %
4217 23-01-2020 06:45:17 0.5 C 46 %
4218 23-01-2020 06:55:17 0.5 C 46 %
4219 23-01-2020 07:05:17 0.5 C 46 %
4220 23-01-2020 07:15:17 0.5 C 46 %
4221 23-01-2020 07:25:17 0.5 C 46 %
4222 23-01-2020 07:35:18 0.5 C 46 %
4223 23-01-2020 07:45:17 0.6 C 46 %
4224 23-01-2020 07:55:17 0.6 C 46 %
4225 23-01-2020 08:05:17 0.6 C 46 %
Sensor: Nr:Datum:Temp:Feuchte:
Aussen-T/F 4226 23-01-2020 08:15:17 0.7 C 46 %
4227 23-01-2020 08:25:17 0.7 C 46 %
4228 23-01-2020 08:35:18 0.7 C 46 %
4229 23-01-2020 08:45:17 0.7 C 46 %
4230 23-01-2020 08:55:17 0.8 C 46 %
4231 23-01-2020 09:05:17 0.8 C 46 %
4232 23-01-2020 09:15:17 0.8 C 46 %
4233 23-01-2020 09:25:17 1.5 C 45 %
4234 23-01-2020 09:35:17 1 C 45 %
4235 23-01-2020 09:45:18 1 C 45 %
4236 23-01-2020 09:55:18 1.1 C 45 %
4237 23-01-2020 10:05:17 1.1 C 45 %
4238 23-01-2020 10:15:17 1.1 C 44 %
4239 23-01-2020 10:25:17 1.3 C 44 %
4240 23-01-2020 10:35:17 1.3 C 44 %
4241 23-01-2020 10:45:17 1.4 C 44 %
4242 23-01-2020 10:55:17 1.4 C 43 %
4243 23-01-2020 11:05:18 1.6 C 42 %
4244 23-01-2020 11:15:17 1.7 C 42 %
4245 23-01-2020 11:25:17 1.7 C 41 %
4246 23-01-2020 11:35:17 1.8 C 40 %
4247 23-01-2020 11:45:17 1.7 C 40 %
4248 23-01-2020 11:55:17 1.8 C 40 %
4249 23-01-2020 12:05:17 1.9 C 40 %
4250 23-01-2020 12:15:17 1.9 C 40 %
Sensor: Nr:Datum:Temp:Feuchte:
Aussen-T/F 4251 23-01-2020 12:25:17 1.8 C 38 %
4252 23-01-2020 12:35:17 2 C 37 %
4253 23-01-2020 12:45:18 2 C 37 %
4254 23-01-2020 12:55:18 2.1 C 37 %
4255 23-01-2020 13:05:18 2.1 C 37 %
4256 23-01-2020 13:15:17 2.1 C 37 %
4257 23-01-2020 13:25:17 2.2 C 37 %
4258 23-01-2020 13:35:17 2.3 C 36 %
4259 23-01-2020 13:45:17 2.3 C 36 %
4260 23-01-2020 13:55:17 2.2 C 36 %
4261 23-01-2020 14:05:17 2.2 C 36 %
4262 23-01-2020 14:15:18 2.3 C 36 %
4263 23-01-2020 14:25:18 2.2 C 37 %
4264 23-01-2020 14:35:18 2.2 C 36 %
4265 23-01-2020 14:45:17 2.2 C 36 %
4266 23-01-2020 14:55:17 2.1 C 36 %
4267 23-01-2020 15:05:17 2.2 C 36 %
4268 23-01-2020 15:15:17 2.3 C 35 %
4269 23-01-2020 15:25:17 2.3 C 35 %
4270 23-01-2020 15:35:18 2.2 C 36 %
4271 23-01-2020 15:45:17 2.1 C 36 %
4272 23-01-2020 15:55:17 2.1 C 37 %
4273 23-01-2020 16:05:17 2 C 37 %
4274 23-01-2020 16:15:17 1.9 C 37 %
4275 23-01-2020 16:25:17 1.9 C 38 %
Sensor: Nr:Datum:Temp:Feuchte:
Aussen-T/F 4276 23-01-2020 16:35:18 1.8 C 39 %
4277 23-01-2020 16:45:17 1.7 C 39 %
4278 23-01-2020 16:55:17 1.6 C 40 %
4279 23-01-2020 17:05:17 1.5 C 41 %
4280 23-01-2020 17:15:17 1.4 C 42 %
4281 23-01-2020 17:25:17 1.4 C 42 %
4282 23-01-2020 17:35:18 0.8 C 43 %
4283 23-01-2020 17:45:17 0.2 C 43 %
4284 23-01-2020 17:55:17 -0.2 C 45 %
4285 23-01-2020 18:05:17 -0.5 C 45 %
4286 23-01-2020 18:15:17 -0.6 C 46 %
4287 23-01-2020 18:25:17 -0.7 C 46 %
4288 23-01-2020 18:35:18 -0.8 C 46 %
4289 23-01-2020 18:45:17 -0.7 C 46 %
4290 23-01-2020 18:55:17 -0.7 C 46 %
4291 23-01-2020 19:05:17 -1 C 46 %
4292 23-01-2020 19:15:17 -1.3 C 46 %
4293 23-01-2020 19:25:17 -1.7 C 46 %
4294 23-01-2020 19:35:18 -1.9 C 46 %
4295 23-01-2020 19:45:17 -1.6 C 46 %
4296 23-01-2020 19:55:17 -1.8 C 46 %
4297 23-01-2020 20:05:17 -2 C 46 %
4298 23-01-2020 20:15:17 -1.8 C 46 %
4299 23-01-2020 20:25:17 -2 C 45 %
4300 23-01-2020 20:35:18 -2 C 46 %
Sensor: Nr:Datum:Temp:Feuchte:
Aussen-T/F 4301 23-01-2020 20:45:18 -1.7 C 46 %
4302 23-01-2020 20:55:18 -1.3 C 46 %
4303 23-01-2020 21:05:17 -1.1 C 46 %
4304 23-01-2020 21:15:17 -0.9 C 46 %
4305 23-01-2020 21:25:17 -0.8 C 46 %
4306 23-01-2020 21:35:18 -0.7 C 46 %
4307 23-01-2020 21:45:17 -0.7 C 46 %
4308 23-01-2020 21:55:17 -0.6 C 46 %
4309 23-01-2020 22:05:17 -0.6 C 46 %
4310 23-01-2020 22:15:17 -0.6 C 46 %
4311 23-01-2020 22:25:17 -0.5 C 46 %
4312 23-01-2020 22:35:17 -0.4 C 46 %
4313 23-01-2020 22:45:18 -0.3 C 46 %
4314 23-01-2020 22:55:18 -0.2 C 46 %
4315 23-01-2020 23:05:18 -0.2 C 46 %
4316 23-01-2020 23:15:17 -0.2 C 46 %
4317 23-01-2020 23:25:17 -0.2 C 46 %
4318 23-01-2020 23:35:17 -0.1 C 46 %
4319 23-01-2020 23:45:17 -0.1 C 46 %
4320 23-01-2020 23:55:17 -0.1 C 46 %
4321 24-01-2020 00:05:18 0 C 46 %
4322 24-01-2020 00:15:17 0.1 C 45 %
4323 24-01-2020 00:25:17 0 C 45 %
4324 24-01-2020 00:35:17 0.2 C 42 %
4325 24-01-2020 00:45:17 0.1 C 42 %
Sensor: Nr:Datum:Temp:Feuchte:
Aussen-T/F 4326 24-01-2020 00:55:17 0.1 C 42 %
4327 24-01-2020 01:05:17 0.1 C 41 %
4328 24-01-2020 01:15:18 0.1 C 41 %
4329 24-01-2020 01:25:18 0 C 40 %
4330 24-01-2020 01:35:17 0 C 40 %
4331 24-01-2020 01:45:17 0 C 40 %
4332 24-01-2020 01:55:17 0 C 39 %
4333 24-01-2020 02:05:18 -0.1 C 40 %
4334 24-01-2020 02:15:17 -0.1 C 40 %
4335 24-01-2020 02:25:17 -0.1 C 40 %
4336 24-01-2020 02:35:17 -0.1 C 40 %
4337 24-01-2020 02:45:18 -0.1 C 40 %
4338 24-01-2020 02:55:18 0 C 39 %
4339 24-01-2020 03:05:17 -0.1 C 39 %
4340 24-01-2020 03:15:17 -0.1 C 39 %
4341 24-01-2020 03:25:17 -0.1 C 39 %
4342 24-01-2020 03:35:17 0 C 38 %
4343 24-01-2020 03:45:17 0 C 38 %
4344 24-01-2020 03:55:18 -0.1 C 39 %
4345 24-01-2020 04:05:17 -0.1 C 39 %
4346 24-01-2020 04:15:17 -0.1 C 38 %
4347 24-01-2020 04:25:17 -0.1 C 38 %
4348 24-01-2020 04:35:17 -0.1 C 38 %
4349 24-01-2020 04:45:17 -0.1 C 38 %
4350 24-01-2020 04:55:18 -0.1 C 38 %
Sensor: Nr:Datum:Temp:Feuchte:
Aussen-T/F 4351 24-01-2020 05:05:17 -0.1 C 38 %
4352 24-01-2020 05:15:17 -0.2 C 38 %
4353 24-01-2020 05:25:17 -0.1 C 38 %
4354 24-01-2020 05:35:17 -0.2 C 38 %
4355 24-01-2020 05:45:18 -0.2 C 38 %
4356 24-01-2020 05:55:18 -0.2 C 38 %
4357 24-01-2020 06:05:17 -0.2 C 38 %
4358 24-01-2020 06:15:18 -0.2 C 38 %
4359 24-01-2020 06:25:18 -0.2 C 38 %
4360 24-01-2020 06:35:18 -0.2 C 38 %
4361 24-01-2020 06:45:17 -0.2 C 38 %
4362 24-01-2020 06:55:17 -0.2 C 38 %
4363 24-01-2020 07:05:17 -0.2 C 38 %
4364 24-01-2020 07:15:17 -0.3 C 38 %
4365 24-01-2020 07:25:17 -0.3 C 38 %
4366 24-01-2020 07:35:18 -0.3 C 38 %
4367 24-01-2020 07:45:17 -0.3 C 37 %
4368 24-01-2020 07:55:17 -0.3 C 37 %
4369 24-01-2020 08:05:17 -0.3 C 37 %
4370 24-01-2020 08:15:17 -0.3 C 37 %
4371 24-01-2020 08:25:17 -0.3 C 37 %
4372 24-01-2020 08:35:17 -0.3 C 36 %
4373 24-01-2020 08:45:17 -0.3 C 36 %
4374 24-01-2020 08:55:17 -0.3 C 36 %
4375 24-01-2020 09:05:17 -0.3 C 36 %
Sensor: Nr:Datum:Temp:Feuchte:
Aussen-T/F 4376 24-01-2020 09:15:17 -0.2 C 36 %
4377 24-01-2020 09:25:17 -0.1 C 36 %
4378 24-01-2020 09:35:18 0 C 36 %
4379 24-01-2020 09:45:17 0.1 C 36 %
4380 24-01-2020 09:55:17 0.2 C 35 %
4381 24-01-2020 10:05:17 0.2 C 35 %
4382 24-01-2020 10:15:17 0.2 C 35 %
4383 24-01-2020 10:25:17 0.4 C 35 %
4384 24-01-2020 10:35:17 0.5 C 35 %
4385 24-01-2020 10:45:17 0.6 C 35 %
4386 24-01-2020 10:55:17 0.4 C 34 %
4387 24-01-2020 11:05:17 0.7 C 34 %
4388 24-01-2020 11:15:17 0.7 C 34 %
4389 24-01-2020 11:25:17 0.9 C 34 %
4390 24-01-2020 11:35:17 1 C 33 %
4391 24-01-2020 11:45:18 1.2 C 32 %
4392 24-01-2020 11:55:18 1.3 C 32 %
4393 24-01-2020 12:05:17 1.6 C 31 %
4394 24-01-2020 12:15:17 1.6 C 31 %
4395 24-01-2020 12:25:17 1.9 C 31 %
4396 24-01-2020 12:35:17 1.5 C 31 %
4397 24-01-2020 12:45:17 1.7 C 30 %
4398 24-01-2020 12:55:17 2.1 C 30 %
4399 24-01-2020 13:05:18 1.9 C 30 %
4400 24-01-2020 13:15:18 2 C 29 %
Sensor: Nr:Datum:Temp:Feuchte:
Aussen-T/F 4401 24-01-2020 13:25:18 2.4 C 30 %
4402 24-01-2020 13:35:18 3 C 28 %
4403 24-01-2020 13:45:17 3.2 C 27 %
4404 24-01-2020 13:55:18 2.5 C 27 %
4405 24-01-2020 14:05:17 2.2 C 27 %
4406 24-01-2020 14:15:17 2.7 C 28 %
4407 24-01-2020 14:25:17 2.6 C 29 %
4408 24-01-2020 14:35:17 2.8 C 28 %
4409 24-01-2020 14:45:18 2.7 C 28 %
4410 24-01-2020 14:55:18 2.5 C 29 %
4411 24-01-2020 15:05:17 2.6 C 29 %
4412 24-01-2020 15:15:17 2.5 C 29 %
4413 24-01-2020 15:25:17 2.4 C 30 %
4414 24-01-2020 15:35:17 2.3 C 30 %
4415 24-01-2020 15:45:17 2.3 C 30 %
4416 24-01-2020 15:55:18 2.3 C 30 %
4417 24-01-2020 16:05:17 2.2 C 30 %
4418 24-01-2020 16:15:17 2 C 30 %
4419 24-01-2020 16:25:17 2.1 C 30 %
4420 24-01-2020 16:35:18 1.9 C 31 %
4421 24-01-2020 16:45:17 1.8 C 32 %
4422 24-01-2020 16:55:17 1.8 C 32 %
4423 24-01-2020 17:05:17 1.7 C 32 %
4424 24-01-2020 17:15:17 1.6 C 32 %
4425 24-01-2020 17:25:17 1.5 C 33 %
Sensor: Nr:Datum:Temp:Feuchte:
Aussen-T/F 4426 24-01-2020 17:35:17 1.5 C 35 %
4427 24-01-2020 17:45:17 1.3 C 35 %
4428 24-01-2020 17:55:17 1.3 C 35 %
4429 24-01-2020 18:05:17 1.3 C 36 %
4430 24-01-2020 18:15:17 1.4 C 36 %
4431 24-01-2020 18:25:17 1.2 C 36 %
4432 24-01-2020 18:35:18 1.2 C 36 %
4433 24-01-2020 18:45:17 1.2 C 36 %
4434 24-01-2020 18:55:17 1.3 C 36 %
4435 24-01-2020 19:05:17 1.2 C 37 %
4436 24-01-2020 19:15:17 1.2 C 37 %
4437 24-01-2020 19:25:17 1.2 C 37 %
4438 24-01-2020 19:35:18 1.2 C 37 %
4439 24-01-2020 19:45:17 1.2 C 37 %
4440 24-01-2020 19:55:17 1.4 C 37 %
4441 24-01-2020 20:05:17 1.4 C 37 %
4442 24-01-2020 20:15:17 1.3 C 37 %
4443 24-01-2020 20:25:17 1.4 C 37 %
4444 24-01-2020 20:31:17 1 C 36 %
4445 24-01-2020 20:35:17 1.4 C 37 %
4446 24-01-2020 20:41:17 1 C 36 %
4447 24-01-2020 20:45:18 1.4 C 37 %
4448 24-01-2020 20:51:17 1 C 36 %
4449 24-01-2020 20:55:18 1.4 C 37 %
4450 24-01-2020 21:01:17 0.9 C 37 %
Sensor: Nr:Datum:Temp:Feuchte:
Aussen-T/F 4451 24-01-2020 21:05:17 1.3 C 37 %
4452 24-01-2020 21:11:17 0.9 C 38 %
4453 24-01-2020 21:15:17 1.2 C 37 %
4454 24-01-2020 21:21:17 0.9 C 38 %
4455 24-01-2020 21:25:17 1.2 C 37 %
4456 24-01-2020 21:31:17 0.8 C 38 %
4457 24-01-2020 21:35:17 1.1 C 36 %
4458 24-01-2020 21:41:17 0.8 C 38 %
4459 24-01-2020 23:05:17 0.8 C 38 %
4460 24-01-2020 23:15:17 0.8 C 38 %
4461 24-01-2020 23:25:17 0.7 C 37 %
4462 24-01-2020 23:35:18 0.7 C 37 %
4463 24-01-2020 23:45:17 0.7 C 37 %
4464 24-01-2020 23:55:17 0.7 C 37 %
4465 25-01-2020 00:05:18 0.6 C 37 %
4466 25-01-2020 00:15:17 0.6 C 37 %
4467 25-01-2020 00:25:17 0.7 C 38 %
4468 25-01-2020 00:35:17 0.6 C 38 %
4469 25-01-2020 00:45:17 0.6 C 38 %
4470 25-01-2020 00:55:17 0.6 C 39 %
4471 25-01-2020 01:05:17 0.7 C 39 %
4472 25-01-2020 01:15:17 0.6 C 39 %
4473 25-01-2020 01:25:17 0.7 C 40 %
4474 25-01-2020 01:35:18 0.7 C 40 %
4475 25-01-2020 01:45:17 0.6 C 40 %
Sensor: Nr:Datum:Temp:Feuchte:
Aussen-T/F 4476 25-01-2020 01:55:17 0.6 C 40 %
4477 25-01-2020 02:05:17 0.6 C 40 %
4478 25-01-2020 02:15:18 0.5 C 40 %
4479 25-01-2020 02:25:18 0.5 C 40 %
4480 25-01-2020 02:35:17 0.6 C 40 %
4481 25-01-2020 02:45:17 0.6 C 40 %
4482 25-01-2020 02:55:18 0.6 C 40 %
4483 25-01-2020 03:05:17 0.6 C 40 %
4484 25-01-2020 03:15:17 0.5 C 40 %
4485 25-01-2020 03:25:17 0.5 C 40 %
4486 25-01-2020 03:35:17 0.5 C 40 %
4487 25-01-2020 03:45:18 0.5 C 40 %
4488 25-01-2020 03:55:18 0.4 C 40 %
4489 25-01-2020 04:05:18 0.4 C 40 %
4490 25-01-2020 04:15:17 0.4 C 40 %
4491 25-01-2020 04:25:18 0.4 C 40 %
4492 25-01-2020 04:35:17 0.3 C 40 %
4493 25-01-2020 04:45:17 0.4 C 40 %
4494 25-01-2020 04:55:17 0.4 C 40 %
4495 25-01-2020 05:05:18 0.4 C 40 %
4496 25-01-2020 05:15:18 0.4 C 40 %
4497 25-01-2020 05:25:18 0.4 C 40 %
4498 25-01-2020 05:35:17 0.3 C 40 %
4499 25-01-2020 05:45:17 0.3 C 39 %
4500 25-01-2020 05:55:17 0.3 C 40 %
Sensor: Nr:Datum:Temp:Feuchte:
Aussen-T/F 4501 25-01-2020 06:05:17 0.3 C 40 %
4502 25-01-2020 06:15:18 0.4 C 40 %
4503 25-01-2020 06:25:18 0.3 C 40 %
4504 25-01-2020 06:35:17 0.3 C 40 %
4505 25-01-2020 06:45:17 0.4 C 40 %
4506 25-01-2020 06:55:17 0.4 C 40 %
4507 25-01-2020 07:05:18 0.4 C 40 %
4508 25-01-2020 07:15:17 0.5 C 40 %
4509 25-01-2020 07:25:17 0.5 C 40 %
4510 25-01-2020 07:35:17 0.5 C 41 %
4511 25-01-2020 07:45:18 0.5 C 41 %
4512 25-01-2020 07:55:18 0.4 C 41 %
4513 25-01-2020 08:05:17 0.5 C 42 %
4514 25-01-2020 08:15:17 0.5 C 42 %
4515 25-01-2020 08:25:17 0.6 C 42 %
4516 25-01-2020 08:35:18 0.6 C 42 %
4517 25-01-2020 08:45:17 0.6 C 42 %
4518 25-01-2020 08:55:17 0.8 C 42 %
4519 25-01-2020 09:05:18 0.8 C 41 %
4520 25-01-2020 09:15:17 0.9 C 41 %
4521 25-01-2020 09:25:18 1.1 C 40 %
4522 25-01-2020 09:35:17 1.2 C 40 %
4523 25-01-2020 09:45:18 1.2 C 40 %
4524 25-01-2020 09:55:18 1.2 C 41 %
4525 25-01-2020 10:05:18 1.5 C 41 %
Sensor: Nr:Datum:Temp:Feuchte:
Aussen-T/F 4526 25-01-2020 10:15:18 1.6 C 41 %
4527 25-01-2020 10:25:18 1.7 C 41 %
4528 25-01-2020 10:35:17 1.9 C 40 %
4529 25-01-2020 10:45:17 2.1 C 40 %
4530 25-01-2020 10:55:17 2.2 C 38 %
4531 25-01-2020 11:05:17 2.4 C 39 %
4532 25-01-2020 11:15:17 2.5 C 38 %
4533 25-01-2020 11:25:18 2.4 C 39 %
4534 25-01-2020 11:35:18 2.9 C 38 %
4535 25-01-2020 11:45:17 2.8 C 37 %
4536 25-01-2020 11:55:17 3 C 37 %
4537 25-01-2020 12:05:18 3.3 C 36 %
4538 25-01-2020 12:15:18 3.4 C 35 %
4539 25-01-2020 12:25:18 3.6 C 35 %
4540 25-01-2020 12:35:18 3.7 C 35 %
4541 25-01-2020 12:45:18 3.7 C 35 %
4542 25-01-2020 12:55:18 3.7 C 35 %
4543 25-01-2020 13:05:17 3.5 C 35 %
4544 25-01-2020 13:15:17 3.5 C 35 %
4545 25-01-2020 13:25:17 3.4 C 36 %
4546 25-01-2020 13:35:17 3.6 C 36 %
4547 25-01-2020 13:45:17 3.8 C 35 %
4548 25-01-2020 13:55:17 3.9 C 35 %
4549 25-01-2020 14:05:18 4.2 C 34 %
4550 25-01-2020 14:15:18 4.2 C 34 %
Sensor: Nr:Datum:Temp:Feuchte:
Aussen-T/F 4551 25-01-2020 14:25:18 4.1 C 35 %
4552 25-01-2020 14:35:18 4.2 C 34 %
4553 25-01-2020 14:45:17 4.4 C 34 %
4554 25-01-2020 14:55:18 4.5 C 34 %
4555 25-01-2020 15:05:18 4.5 C 34 %
4556 25-01-2020 15:15:18 4.4 C 34 %
4557 25-01-2020 15:25:18 4.3 C 34 %
4558 25-01-2020 15:35:17 4.2 C 34 %
4559 25-01-2020 15:45:18 4.1 C 35 %
4560 25-01-2020 15:55:18 4.2 C 35 %
4561 25-01-2020 16:05:18 4.2 C 35 %
4562 25-01-2020 16:15:17 4.1 C 35 %
4563 25-01-2020 16:25:17 4.1 C 35 %
4564 25-01-2020 16:35:17 3.9 C 36 %
4565 25-01-2020 16:45:17 3.9 C 37 %
4566 25-01-2020 16:55:17 3.8 C 37 %
4567 25-01-2020 17:05:17 3.7 C 37 %
4568 25-01-2020 17:15:17 3.6 C 38 %
4569 25-01-2020 17:25:17 3.6 C 38 %
4570 25-01-2020 17:35:17 3.6 C 39 %
4571 25-01-2020 17:45:17 3.9 C 39 %
4572 25-01-2020 17:55:17 3.5 C 39 %
4573 25-01-2020 18:05:18 3.4 C 39 %
4574 25-01-2020 18:15:17 3.4 C 39 %
4575 25-01-2020 18:25:17 3.3 C 40 %
Sensor: Nr:Datum:Temp:Feuchte:
Aussen-T/F 4576 25-01-2020 18:35:17 3.3 C 40 %
4577 25-01-2020 18:45:17 3.2 C 40 %
4578 25-01-2020 18:55:17 3.2 C 40 %
4579 25-01-2020 19:05:18 3.2 C 40 %
4580 25-01-2020 19:15:17 3.2 C 40 %
4581 25-01-2020 19:25:17 3.2 C 40 %
4582 25-01-2020 19:35:17 3.2 C 40 %
4583 25-01-2020 19:45:17 3.2 C 40 %
4584 25-01-2020 19:55:17 3.1 C 41 %
4585 25-01-2020 20:05:18 3.1 C 41 %
4586 25-01-2020 20:15:18 3 C 41 %
4587 25-01-2020 20:25:18 3 C 42 %
4588 25-01-2020 20:35:17 2.9 C 43 %
4589 25-01-2020 20:45:17 2.8 C 43 %
4590 25-01-2020 20:55:17 2.6 C 42 %
4591 25-01-2020 21:05:17 2.5 C 41 %
4592 25-01-2020 21:15:18 2.5 C 41 %
4593 25-01-2020 21:25:18 2.3 C 41 %
4594 25-01-2020 21:35:18 2.2 C 41 %
4595 25-01-2020 21:45:17 2.1 C 42 %
4596 25-01-2020 21:55:18 1.9 C 43 %
4597 25-01-2020 22:05:18 1.8 C 43 %
4598 25-01-2020 22:15:18 1.7 C 43 %
4599 25-01-2020 22:25:18 1.6 C 42 %
4600 25-01-2020 22:35:17 1.5 C 43 %
Sensor: Nr:Datum:Temp:Feuchte:
Aussen-T/F 4601 25-01-2020 22:45:17 1.5 C 43 %
4602 25-01-2020 22:55:17 1.4 C 43 %
4603 25-01-2020 23:05:17 1.4 C 43 %
4604 25-01-2020 23:15:17 1.3 C 43 %
4605 25-01-2020 23:25:17 1.1 C 43 %
4606 25-01-2020 23:35:17 1.1 C 43 %
4607 25-01-2020 23:45:17 1.1 C 43 %
4608 25-01-2020 23:55:17 1 C 43 %
4609 26-01-2020 00:05:18 1 C 44 %
4610 26-01-2020 00:15:18 1.1 C 44 %
4611 26-01-2020 00:25:18 1 C 43 %
4612 26-01-2020 00:35:18 1 C 44 %
4613 26-01-2020 00:45:17 1 C 44 %
4614 26-01-2020 00:55:18 1 C 43 %
4615 26-01-2020 01:05:17 0.8 C 44 %
4616 26-01-2020 01:15:17 0.7 C 44 %
4617 26-01-2020 01:25:17 0.7 C 44 %
4618 26-01-2020 01:35:17 0.7 C 45 %
4619 26-01-2020 01:45:18 0.8 C 45 %
4620 26-01-2020 01:55:18 0.8 C 45 %
4621 26-01-2020 02:05:18 0.8 C 45 %
4622 26-01-2020 02:15:17 0.8 C 45 %
4623 26-01-2020 02:25:17 0.8 C 45 %
4624 26-01-2020 02:35:17 0.8 C 44 %
4625 26-01-2020 02:45:17 0.7 C 44 %
Sensor: Nr:Datum:Temp:Feuchte:
Aussen-T/F 4626 26-01-2020 02:55:17 0.8 C 44 %
4627 26-01-2020 03:05:17 0.7 C 44 %
4628 26-01-2020 03:15:17 0.7 C 44 %
4629 26-01-2020 03:25:17 0.6 C 44 %
4630 26-01-2020 03:35:17 0.7 C 45 %
4631 26-01-2020 03:45:17 0.6 C 45 %
4632 26-01-2020 03:55:17 0.6 C 45 %
4633 26-01-2020 04:05:17 0.6 C 45 %
4634 26-01-2020 04:15:17 0.6 C 45 %
4635 26-01-2020 04:25:17 0.7 C 45 %
4636 26-01-2020 04:35:18 0.7 C 45 %
4637 26-01-2020 04:45:18 0.7 C 44 %
4638 26-01-2020 04:55:18 0.7 C 44 %
4639 26-01-2020 05:05:18 0.7 C 44 %
4640 26-01-2020 05:15:18 0.6 C 43 %
4641 26-01-2020 05:25:18 0.7 C 43 %
4642 26-01-2020 05:35:18 0.6 C 43 %
4643 26-01-2020 05:45:18 0.6 C 43 %
4644 26-01-2020 05:55:18 0.6 C 43 %
4645 26-01-2020 06:05:18 0.6 C 44 %
4646 26-01-2020 06:15:17 0.5 C 44 %
4647 26-01-2020 06:25:17 0.6 C 44 %
4648 26-01-2020 06:35:17 0.6 C 44 %
4649 26-01-2020 06:45:18 0.6 C 44 %
4650 26-01-2020 06:55:18 0.6 C 44 %
Sensor: Nr:Datum:Temp:Feuchte:
Aussen-T/F 4651 26-01-2020 07:05:17 0.7 C 45 %
4652 26-01-2020 07:15:17 0.7 C 44 %
4653 26-01-2020 07:25:17 0.7 C 44 %
4654 26-01-2020 07:35:18 0.7 C 45 %
4655 26-01-2020 07:45:17 0.7 C 45 %
4656 26-01-2020 07:55:18 0.7 C 45 %
4657 26-01-2020 08:05:18 0.7 C 45 %
4658 26-01-2020 08:15:18 0.6 C 45 %
4659 26-01-2020 08:25:18 0.6 C 45 %
4660 26-01-2020 08:35:18 0.6 C 45 %
4661 26-01-2020 08:45:17 0.7 C 45 %
4662 26-01-2020 08:55:17 0.7 C 45 %
4663 26-01-2020 09:05:18 0.9 C 45 %
4664 26-01-2020 09:15:18 0.9 C 44 %
4665 26-01-2020 09:25:18 1 C 42 %
4666 26-01-2020 09:35:18 1 C 41 %
4667 26-01-2020 09:45:17 1 C 40 %
4668 26-01-2020 09:55:17 0.8 C 41 %
4669 26-01-2020 10:05:18 0.7 C 41 %
4670 26-01-2020 10:15:18 0.9 C 42 %
4671 26-01-2020 10:25:18 1.1 C 40 %
4672 26-01-2020 10:35:18 1.6 C 40 %
4673 26-01-2020 10:45:18 1.9 C 38 %
4674 26-01-2020 10:55:18 2.1 C 37 %
4675 26-01-2020 11:05:18 2.2 C 37 %
Sensor: Nr:Datum:Temp:Feuchte:
Aussen-T/F 4676 26-01-2020 11:15:18 2.3 C 37 %
4677 26-01-2020 11:25:18 2.4 C 37 %
4678 26-01-2020 11:35:18 2.3 C 37 %
4679 26-01-2020 11:45:17 2.4 C 38 %
4680 26-01-2020 11:55:18 2.9